DE847 / D-AIAD 7700 Squawk Report (11th of August, 2022)

Aircraft A321 Reg No. D-AIAD Age 8 years old
Model A321 Jet engines 2 First flight 29-03-14
Registered 07-04-14 Rollout 03-14 Delivered 07-04-14
Construction No. 6053 Line No. N/A Series 211(SL)
ADSHEX 3C6424 Airline name Condor Flugdienst Owner N/A
Airfield based Frankfurt-Main~Hessen~D First tracked N/A

Flight history for D-AIAD

Time Lat Lon Altitude Heading Speed Vertical Rate
2022-08-11 07:03:52 GMT 50.026657 8.530522 175 69 147 -704
2022-08-11 07:03:50 GMT 50.026154 8.528354 200 69 147 -640
2022-08-11 07:03:49 GMT 50.025787 8.526764 225 69 147 -576
2022-08-11 07:03:47 GMT 50.025455 8.525316 225 69 147 -576
2022-08-11 07:03:45 GMT 50.024963 8.523295 225 69 146 -768
2022-08-11 07:03:43 GMT 50.024734 8.522427 300 69 146 -896
2022-08-11 07:03:41 GMT 50.023918 8.519007 300 69 146 -768
2022-08-11 07:03:39 GMT 50.023731 8.518116 350 69 145 -704
2022-08-11 07:03:37 GMT 50.022987 8.515072 350 69 144 -704
2022-08-11 07:03:35 GMT 50.022720 8.514043 375 69 144 -704
2022-08-11 07:03:33 GMT 50.022243 8.511955 375 69 143 -768
2022-08-11 07:03:31 GMT 50.021301 8.508116 450 69 143 -832
2022-08-11 07:03:29 GMT 50.021301 8.508116 450 69 143 -832
2022-08-11 07:03:27 GMT 50.020798 8.505942 475 69 143 -768
2022-08-11 07:03:26 GMT 50.020611 8.505051 475 69 143 -768
2022-08-11 07:03:24 GMT 50.019775 8.501562 525 69 143 -768
2022-08-11 07:03:22 GMT 50.019653 8.501033 525 69 144 -704
2022-08-11 07:03:21 GMT 50.019379 8.500021 575 69 144 -640
2022-08-11 07:03:19 GMT 50.018875 8.497853 575 69 144 -704
2022-08-11 07:03:17 GMT 50.018658 8.497034 575 69 144 -768
2022-08-11 07:03:15 GMT 50.018192 8.495104 600 69 145 -832
2022-08-11 07:03:13 GMT 50.017593 8.492576 675 69 143 -640
2022-08-11 07:03:11 GMT 50.017166 8.490724 675 69 142 -640
2022-08-11 07:03:09 GMT 50.016678 8.488745 700 69 142 -640
2022-08-11 07:03:08 GMT 50.016403 8.487661 725 69 142 -640
2022-08-11 07:03:06 GMT 50.015865 8.485305 725 69 141 -704
2022-08-11 07:03:04 GMT 50.015305 8.483108 750 70 140 -704
2022-08-11 07:03:02 GMT 50.014893 8.481228 800 70 140 -704
2022-08-11 07:03:00 GMT 50.014526 8.479711 800 70 140 -704
2022-08-11 07:02:58 GMT 50.014095 8.477882 825 70 140 -704
2022-08-11 07:02:56 GMT 50.013199 8.474145 875 69 139 -768
2022-08-11 07:02:54 GMT 50.013199 8.474145 875 69 139 -832
2022-08-11 07:02:52 GMT 50.012745 8.472315 900 69 140 -832
2022-08-11 07:02:50 GMT 50.012325 8.470459 925 69 140 -768
2022-08-11 07:02:49 GMT 50.012047 8.469420 950 68 139 -704
2022-08-11 07:02:48 GMT 50.011814 8.468455 950 68 139 -704
2022-08-11 07:02:47 GMT 50.011349 8.466599 975 68 139 -704
2022-08-11 07:02:45 GMT 50.011116 8.465634 975 68 139 -704
2022-08-11 07:02:44 GMT 50.010929 8.464817 1,000 68 139 -704
2022-08-11 07:02:43 GMT 50.010464 8.462962 1,025 69 138 -704
2022-08-11 07:02:41 GMT 50.010231 8.461922 1,025 69 138 -768
2022-08-11 07:02:39 GMT 50.009766 8.460051 1,050 69 138 -768
2022-08-11 07:02:38 GMT 50.009579 8.459250 1,075 69 138 -768
2022-08-11 07:02:37 GMT 50.009346 8.458285 1,100 69 137 -704
2022-08-11 07:02:35 GMT 50.008881 8.456429 1,100 69 137 -768
2022-08-11 07:02:34 GMT 50.008694 8.455613 1,125 69 137 -768
2022-08-11 07:02:33 GMT 50.008163 8.453329 1,125 69 137 -768
2022-08-11 07:02:30 GMT 50.007660 8.451233 1,175 69 137 -768
2022-08-11 07:02:27 GMT 50.007111 8.448857 1,200 69 136 -704
2022-08-11 07:02:26 GMT 50.006458 8.446185 1,225 69 136 -704
2022-08-11 07:02:24 GMT 50.006458 8.446185 1,250 69 136 -768
2022-08-11 07:02:23 GMT 50.005966 8.444222 1,275 69 136 -768
2022-08-11 07:02:21 GMT 50.005737 8.443282 1,275 69 136 -832
2022-08-11 07:02:20 GMT 50.005508 8.442270 1,300 69 136 -768
2022-08-11 07:02:18 GMT 50.005062 8.440469 1,350 69 136 -832
2022-08-11 07:02:16 GMT 50.004459 8.437723 1,350 69 136 -832
2022-08-11 07:02:14 GMT 50.004227 8.436832 1,400 69 136 -832
2022-08-11 07:02:12 GMT 50.003716 8.434605 1,400 69 136 -832
2022-08-11 07:02:10 GMT 50.003342 8.433195 1,425 69 136 -832
2022-08-11 07:02:08 GMT 50.002899 8.431284 1,450 69 136 -704
2022-08-11 07:02:06 GMT 50.002258 8.428537 1,475 69 138 -640
2022-08-11 07:02:04 GMT 50.001991 8.427553 1,500 68 139 -640
2022-08-11 07:02:03 GMT 50.001801 8.426803 1,500 69 140 -704
2022-08-11 07:02:01 GMT 50.001385 8.424955 1,525 69 141 -768
2022-08-11 07:02:00 GMT 50.001114 8.423984 1,550 69 143 -768
2022-08-11 07:01:59 GMT 50.000931 8.423117 1,550 69 143 -768
2022-08-11 07:01:58 GMT 50.000702 8.422177 1,575 69 144 -768
2022-08-11 07:01:56 GMT 50.000107 8.419792 1,600 69 145 -704
2022-08-11 07:01:55 GMT 49.999989 8.419239 1,600 69 147 -704
2022-08-11 07:01:53 GMT 49.999512 8.417262 1,625 69 148 -768
2022-08-11 07:01:52 GMT 49.999283 8.416250 1,650 69 149 -832
2022-08-11 07:01:50 GMT 49.998871 8.414515 1,650 69 150 -832
2022-08-11 07:01:49 GMT 49.998547 8.413226 1,675 69 151 -832
2022-08-11 07:01:47 GMT 49.997616 8.409143 1,725 69 152 -896
2022-08-11 07:01:45 GMT 49.997616 8.409143 1,725 69 153 -960
2022-08-11 07:01:44 GMT 49.997337 8.408104 1,750 69 153 -960
2022-08-11 07:01:43 GMT 49.996811 8.405770 1,775 69 155 -896
2022-08-11 07:01:41 GMT 49.996536 8.404758 1,800 69 156 -768
2022-08-11 07:01:40 GMT 49.996307 8.403674 1,825 69 156 -704
2022-08-11 07:01:38 GMT 49.995804 8.401578 1,850 69 158 -768
2022-08-11 07:01:37 GMT 49.995567 8.400607 1,875 69 158 -832
2022-08-11 07:01:35 GMT 49.994980 8.398325 1,900 69 159 -832
2022-08-11 07:01:34 GMT 49.994778 8.397415 1,925 69 160 -832
2022-08-11 07:01:33 GMT 49.993706 8.393109 1,975 69 162 -832
2022-08-11 07:01:31 GMT 49.993706 8.393109 1,975 69 162 -832
2022-08-11 07:01:28 GMT 49.993473 8.392144 2,100 69 166 -832
2022-08-11 07:01:24 GMT 49.992279 8.387122 2,050 69 165 -832
2022-08-11 07:01:21 GMT 49.991318 8.383219 2,100 69 171 -896
2022-08-11 07:01:19 GMT 49.990128 8.378159 2,150 69 172 -960
2022-08-11 07:01:16 GMT 49.990128 8.378159 2,150 69 172 -960
2022-08-11 07:01:11 GMT 49.988117 8.369800 2,250 69 175 -960
2022-08-11 07:01:09 GMT 49.988117 8.369800 2,275 69 176 -1024
2022-08-11 07:01:05 GMT 49.986969 8.365005 2,325 69 176 -960
2022-08-11 07:01:01 GMT 49.985641 8.359584 2,400 69 176 -896
2022-08-11 07:00:59 GMT 49.985184 8.357777 2,450 69 176 -896
2022-08-11 07:00:56 GMT 49.984360 8.354380 2,475 69 176 -896
2022-08-11 07:00:53 GMT 49.983418 8.350426 2,525 69 175 -896
2022-08-11 07:00:51 GMT 49.982986 8.348597 2,525 69 175 -896
2022-08-11 07:00:49 GMT 49.982254 8.345634 2,600 69 176 -896
2022-08-11 07:00:47 GMT 49.981834 8.343745 2,600 69 176 -896
2022-08-11 07:00:45 GMT 49.981182 8.341073 2,650 69 176 -896
2022-08-11 07:00:42 GMT 49.980286 8.337467 2,675 69 176 -896
2022-08-11 07:00:40 GMT 49.979828 8.335515 2,700 69 176 -896
2022-08-11 07:00:38 GMT 49.979279 8.333202 2,750 69 176 -896
2022-08-11 07:00:36 GMT 49.978577 8.330383 2,775 69 176 -896
2022-08-11 07:00:31 GMT 49.977135 8.324371 2,850 69 176 -960
2022-08-11 07:00:28 GMT 49.976433 8.321550 2,900 69 176 -960
2022-08-11 07:00:26 GMT 49.975735 8.318580 2,925 69 176 -960
2022-08-11 07:00:22 GMT 49.974525 8.313681 3,000 69 176 -960
2022-08-11 07:00:20 GMT 49.974106 8.311808 3,025 69 176 -960
2022-08-11 07:00:17 GMT 49.973270 8.308485 3,150 69 176 -960
2022-08-11 07:00:13 GMT 49.971966 8.302917 3,150 69 176 -960
2022-08-11 07:00:11 GMT 49.971359 8.300460 3,175 69 177 -960
2022-08-11 07:00:09 GMT 49.970524 8.296979 3,225 69 177 -960
2022-08-11 07:00:07 GMT 49.970524 8.296979 3,225 69 177 -960
2022-08-11 07:00:05 GMT 49.969620 8.293304 3,275 69 178 -960
2022-08-11 07:00:01 GMT 49.968521 8.288591 3,350 69 180 -1024
2022-08-11 06:59:59 GMT 49.968018 8.286583 3,375 69 180 -1024
2022-08-11 06:59:57 GMT 49.967468 8.284342 3,400 69 182 -1024
2022-08-11 06:59:52 GMT 49.966007 8.278272 3,500 69 183 -1024
2022-08-11 06:59:50 GMT 49.965271 8.275235 3,525 69 183 -1088
2022-08-11 06:59:48 GMT 49.964703 8.272854 3,575 69 184 -1088
2022-08-11 06:59:44 GMT 49.963585 8.268400 3,625 69 186 -1088
2022-08-11 06:59:42 GMT 49.962982 8.265802 3,675 69 186 -1024
2022-08-11 06:59:40 GMT 49.962517 8.263946 3,700 69 187 -960
2022-08-11 06:59:37 GMT 49.961304 8.259046 3,750 69 187 -832
2022-08-11 06:59:34 GMT 49.960606 8.256300 3,775 69 188 -576
2022-08-11 06:59:31 GMT 49.959366 8.251166 3,775 69 194 192
2022-08-11 06:59:27 GMT 49.958557 8.247912 3,775 69 199 192
2022-08-11 06:59:25 GMT 49.957672 8.244083 3,750 69 200 0
2022-08-11 06:59:21 GMT 49.956390 8.238734 3,750 69 202 -64
2022-08-11 06:59:19 GMT 49.956024 8.237216 3,750 69 203 -64
2022-08-11 06:59:17 GMT 49.955200 8.233819 3,750 69 204 0
2022-08-11 06:59:15 GMT 49.954422 8.230494 3,750 69 205 0
2022-08-11 06:59:11 GMT 49.953159 8.225197 3,750 69 208 0
2022-08-11 06:59:09 GMT 49.952454 8.222327 3,750 69 209 0
2022-08-11 06:59:07 GMT 49.951946 8.220297 3,750 69 210 0
2022-08-11 06:59:02 GMT 49.949993 8.212280 3,750 69 214 0
2022-08-11 06:58:59 GMT 49.948921 8.207975 3,750 69 218 0
2022-08-11 06:58:57 GMT 49.948196 8.204980 3,750 69 221 0
2022-08-11 06:58:55 GMT 49.947510 8.202017 3,750 69 220 0
2022-08-11 06:58:52 GMT 49.946365 8.197463 3,750 69 221 -64
2022-08-11 06:58:49 GMT 49.944405 8.189565 3,750 69 222 0
2022-08-11 06:58:46 GMT 49.944405 8.189565 3,750 69 221 0
2022-08-11 06:58:44 GMT 49.943481 8.185754 3,750 69 222 0
2022-08-11 06:58:41 GMT 49.942429 8.181417 3,750 69 222 0
2022-08-11 06:58:39 GMT 49.941708 8.178431 3,750 69 222 0
2022-08-11 06:58:36 GMT 49.940689 8.174190 3,750 69 220 0
2022-08-11 06:58:34 GMT 49.939957 8.171154 3,750 69 222 0
2022-08-11 06:58:32 GMT 49.939178 8.167901 3,750 69 222 0
2022-08-11 06:58:29 GMT 49.938171 8.163781 3,750 69 220 0
2022-08-11 06:58:25 GMT 49.936867 8.158314 3,750 69 220 0
2022-08-11 06:58:22 GMT 49.935471 8.152578 3,750 69 220 0
2022-08-11 06:58:19 GMT 49.934464 8.148314 3,775 69 221 0
2022-08-11 06:58:16 GMT 49.933559 8.144655 3,775 69 220 0
2022-08-11 06:58:14 GMT 49.932907 8.141834 3,775 68 220 0
2022-08-11 06:58:10 GMT 49.931465 8.136118 3,775 68 221 0
2022-08-11 06:58:08 GMT 49.930721 8.133149 3,775 67 221 0
2022-08-11 06:58:06 GMT 49.929703 8.129232 3,750 67 221 0
2022-08-11 06:58:01 GMT 49.928112 8.123276 3,775 66 222 0
2022-08-11 06:57:58 GMT 49.925720 8.114777 3,750 65 222 0
2022-08-11 06:57:56 GMT 49.925720 8.114777 3,775 65 222 0
2022-08-11 06:57:53 GMT 49.924622 8.111018 3,775 64 222 0
2022-08-11 06:57:50 GMT 49.922333 8.103718 3,750 61 221 0
2022-08-11 06:57:48 GMT 49.922333 8.103718 3,750 62 221 0
2022-08-11 06:57:45 GMT 49.920246 8.097592 3,775 60 222 0
2022-08-11 06:57:43 GMT 49.920246 8.097592 3,775 60 222 0
2022-08-11 06:57:40 GMT 49.918488 8.092804 3,750 57 221 64
2022-08-11 06:57:37 GMT 49.916840 8.088612 3,750 56 222 64
2022-08-11 06:57:34 GMT 49.914505 8.083335 3,750 52 222 64
2022-08-11 06:57:30 GMT 49.912659 8.079554 3,750 44 224 -64
2022-08-11 06:57:27 GMT 49.910522 8.075746 3,750 44 224 -64
2022-08-11 06:57:25 GMT 49.908600 8.072855 3,775 40 226 -128
2022-08-11 06:57:21 GMT 49.905807 8.069169 3,775 39 227 -64
2022-08-11 06:57:18 GMT 49.902969 8.065555 3,775 38 227 -64
2022-08-11 06:57:14 GMT 49.900555 8.062554 3,775 37 226 -64
2022-08-11 06:57:11 GMT 49.897530 8.058769 3,775 37 227 0
2022-08-11 06:57:09 GMT 49.895966 8.056954 3,775 35 226 64
2022-08-11 06:57:04 GMT 49.892128 8.052830 3,775 29 227 128
2022-08-11 06:57:01 GMT 49.889008 8.050083 3,775 23 229 0
2022-08-11 06:56:59 GMT 49.884308 8.047263 3,775 12 232 0
2022-08-11 06:56:56 GMT 49.884308 8.047263 3,775 12 232 0
2022-08-11 06:56:53 GMT 49.880722 8.045895 3,750 4 234 0
2022-08-11 06:56:50 GMT 49.877884 8.045462 3,750 0 237 0
2022-08-11 06:56:48 GMT 49.875687 8.045317 3,750 357 238 0
2022-08-11 06:56:44 GMT 49.871227 8.045778 3,750 346 243 -64
2022-08-11 06:56:41 GMT 49.867455 8.046817 3,775 342 244 -128
2022-08-11 06:56:37 GMT 49.863823 8.048599 3,775 337 245 -128
2022-08-11 06:56:35 GMT 49.861729 8.049935 3,775 333 247 64
2022-08-11 06:56:33 GMT 49.859573 8.051461 3,775 333 247 64
2022-08-11 06:56:31 GMT 49.856689 8.053918 3,775 326 248 0
2022-08-11 06:56:27 GMT 49.853897 8.056737 3,775 317 251 0
2022-08-11 06:56:24 GMT 49.850510 8.060996 3,775 313 251 0
2022-08-11 06:56:21 GMT 49.847076 8.066784 3,775 299 255 0
2022-08-11 06:56:16 GMT 49.845016 8.071193 3,750 300 254 0
2022-08-11 06:56:14 GMT 49.843246 8.075842 3,750 295 255 0
2022-08-11 06:56:12 GMT 49.842503 8.078143 3,750 291 256 0
2022-08-11 06:56:09 GMT 49.841202 8.083042 3,750 283 258 -64
2022-08-11 06:56:06 GMT 49.839981 8.088901 3,750 274 260 0
2022-08-11 06:56:03 GMT 49.839249 8.094394 3,750 278 259 -64
2022-08-11 06:56:00 GMT 49.838921 8.098928 3,775 274 260 0
2022-08-11 06:55:57 GMT 49.838699 8.104730 3,750 271 262 192
2022-08-11 06:55:55 GMT 49.838638 8.110434 3,750 262 264 64
2022-08-11 06:55:52 GMT 49.838699 8.112608 3,750 261 265 0
2022-08-11 06:55:50 GMT 49.839012 8.118006 3,750 261 265 0
2022-08-11 06:55:47 GMT 49.839615 8.123522 3,750 256 266 -64
2022-08-11 06:55:43 GMT 49.841171 8.131979 3,750 250 275 -64
2022-08-11 06:55:39 GMT 49.842590 8.138195 3,750 250 273 -64
2022-08-11 06:55:37 GMT 49.843479 8.141760 3,775 250 274 -64
2022-08-11 06:55:33 GMT 49.845520 8.150121 3,775 250 281 -192
2022-08-11 06:55:30 GMT 49.846645 8.154751 3,775 250 283 -256
2022-08-11 06:55:28 GMT 49.847858 8.159650 3,800 250 284 -320
2022-08-11 06:55:25 GMT 49.848770 8.163565 3,925 250 291 -1536
2022-08-11 06:55:23 GMT 49.849960 8.168335 3,825 250 288 -640
2022-08-11 06:55:20 GMT 49.852570 8.179177 3,975 250 290 -1216
2022-08-11 06:55:18 GMT 49.852570 8.179177 3,900 250 295 -1536
2022-08-11 06:55:15 GMT 49.853577 8.183224 4,000 250 291 -1472
2022-08-11 06:55:12 GMT 49.855225 8.190019 4,075 250 291 -1536
2022-08-11 06:55:09 GMT 49.856842 8.196617 4,125 250 291 -1536
2022-08-11 06:55:05 GMT 49.858471 8.203447 4,325 250 291 -1536
2022-08-11 06:55:02 GMT 49.860008 8.209682 4,275 250 291 -1536
2022-08-11 06:55:00 GMT 49.860855 8.213292 4,325 250 291 -1536
2022-08-11 06:54:58 GMT 49.862091 8.218352 4,400 250 291 -1600
2022-08-11 06:54:55 GMT 49.863373 8.223628 4,900 250 291 -1600
2022-08-11 06:54:51 GMT 49.865082 8.230616 4,625 250 291 -1600
2022-08-11 06:54:49 GMT 49.865871 8.233882 4,625 250 291 -1600
2022-08-11 06:54:47 GMT 49.866898 8.238084 4,650 250 291 -1600
2022-08-11 06:54:45 GMT 49.868248 8.243680 4,700 250 291 -1472
2022-08-11 06:54:41 GMT 49.869690 8.249648 4,900 250 291 -1472
2022-08-11 06:54:39 GMT 49.870667 8.253627 4,875 250 291 -1408
2022-08-11 06:54:37 GMT 49.871597 8.257562 4,925 250 292 -1408
2022-08-11 06:54:35 GMT 49.873043 8.263426 4,975 250 294 -1344
2022-08-11 06:54:32 GMT 49.873993 8.267212 5,075 250 294 -1344
2022-08-11 06:54:30 GMT 49.876114 8.276046 5,200 250 295 -1472
2022-08-11 06:54:26 GMT 49.877323 8.280945 5,200 250 295 -1600
2022-08-11 06:54:22 GMT 49.879372 8.289481 5,300 250 295 -1600
2022-08-11 06:54:19 GMT 49.880119 8.292451 5,350 250 295 -1600
2022-08-11 06:54:15 GMT 49.882584 8.302546 5,475 250 295 -1600
2022-08-11 06:54:12 GMT 49.883701 8.307297 5,700 250 295 -1472
2022-08-11 06:54:09 GMT 49.884979 8.312603 5,600 250 295 -1472
2022-08-11 06:54:07 GMT 49.886169 8.317467 5,700 250 295 -1472
2022-08-11 06:54:04 GMT 49.887798 8.324148 5,750 250 295 -1472
2022-08-11 06:54:01 GMT 49.888962 8.328865 5,800 250 297 -1408
2022-08-11 06:53:58 GMT 49.890823 8.336470 5,900 250 298 -1408
2022-08-11 06:53:54 GMT 49.892452 8.343300 5,975 250 299 -1408
2022-08-11 06:53:51 GMT 49.893944 8.349461 6,050 250 299 -1600
2022-08-11 06:53:48 GMT 49.895527 8.355845 6,150 250 299 -1600
2022-08-11 06:53:44 GMT 49.897900 8.365718 6,275 250 299 -1600
2022-08-11 06:53:41 GMT 49.899078 8.370642 6,325 250 299 -1600
2022-08-11 06:53:37 GMT 49.900787 8.377818 6,425 250 299 -1600
2022-08-11 06:53:35 GMT 49.903244 8.387989 6,500 250 299 -1472
2022-08-11 06:53:32 GMT 49.903244 8.387989 6,550 250 299 -1472
2022-08-11 06:53:30 GMT 49.904388 8.392760 6,625 250 302 -1472
2022-08-11 06:53:27 GMT 49.905350 8.396747 6,650 250 300 -1344
2022-08-11 06:53:25 GMT 49.906792 8.402759 6,725 250 302 -1472
2022-08-11 06:53:21 GMT 49.908516 8.409886 6,800 250 303 -1408
2022-08-11 06:53:17 GMT 49.910282 8.417160 6,900 250 304 -1408
2022-08-11 06:53:15 GMT 49.911530 8.422394 6,950 250 307 -1408
2022-08-11 06:53:13 GMT 49.913589 8.430893 7,050 250 306 -1344
2022-08-11 06:53:11 GMT 49.913589 8.430893 7,050 250 307 -1408
2022-08-11 06:53:09 GMT 49.915310 8.438094 7,350 250 308 -1536
2022-08-11 06:53:07 GMT 49.916847 8.444478 7,150 250 308 -1536
2022-08-11 06:53:04 GMT 49.916847 8.444478 7,250 250 309 -1664
2022-08-11 06:53:01 GMT 49.918671 8.452317 7,300 250 309 -1600
2022-08-11 06:52:58 GMT 49.920479 8.459844 7,350 250 309 -1600
2022-08-11 06:52:56 GMT 49.920479 8.459844 7,400 250 310 -1600
2022-08-11 06:52:54 GMT 49.923477 8.472483 7,525 250 310 -1664
2022-08-11 06:52:50 GMT 49.923477 8.472483 7,575 250 310 -1664
2022-08-11 06:52:47 GMT 49.925308 8.480144 7,675 250 309 -1728
2022-08-11 06:52:45 GMT 49.926579 8.485454 7,800 250 309 -1728
2022-08-11 06:52:43 GMT 49.927094 8.487661 7,775 250 309 -1600
2022-08-11 06:52:41 GMT 49.928486 8.493322 7,850 250 308 -1536
2022-08-11 06:52:39 GMT 49.929428 8.497419 7,900 250 308 -1280
2022-08-11 06:52:36 GMT 49.930618 8.502406 7,925 250 307 -1088
2022-08-11 06:52:34 GMT 49.932442 8.509876 8,025 250 306 -192
2022-08-11 06:52:29 GMT 49.934212 8.517299 8,025 250 306 -320
2022-08-11 06:52:27 GMT 49.936817 8.528211 8,025 250 306 -256
2022-08-11 06:52:24 GMT 49.936817 8.528211 8,050 250 306 -320
2022-08-11 06:52:22 GMT 49.937515 8.531032 8,050 250 307 -448
2022-08-11 06:52:19 GMT 49.939270 8.538401 8,075 250 307 -576
2022-08-11 06:52:17 GMT 49.940277 8.542521 8,100 250 308 -1024
2022-08-11 06:52:13 GMT 49.941940 8.549442 8,175 250 308 -1024
2022-08-11 06:52:11 GMT 49.943253 8.554663 8,200 250 308 -1024
2022-08-11 06:52:08 GMT 49.944580 8.560301 8,300 250 308 -1024
2022-08-11 06:52:06 GMT 49.945770 8.565216 8,300 250 309 -1024
2022-08-11 06:52:03 GMT 49.947479 8.572379 8,325 250 309 -1024
2022-08-11 06:52:00 GMT 49.948784 8.577798 8,375 250 310 -1088
2022-08-11 06:51:55 GMT 49.950668 8.585815 8,475 250 310 -1088
2022-08-11 06:51:53 GMT 49.952042 8.591531 8,500 250 310 -1024
2022-08-11 06:51:50 GMT 49.953735 8.598753 8,575 250 310 -1024
2022-08-11 06:51:47 GMT 49.954742 8.602945 8,600 250 310 -1024
2022-08-11 06:51:44 GMT 49.956696 8.611129 8,675 250 309 -960
2022-08-11 06:51:42 GMT 49.957535 8.614582 8,700 250 309 -960
2022-08-11 06:51:39 GMT 49.959000 8.620798 8,750 250 309 -960
2022-08-11 06:51:36 GMT 49.960739 8.628098 8,800 250 309 -960
2022-08-11 06:51:33 GMT 49.962002 8.633398 8,850 250 308 -960
2022-08-11 06:51:30 GMT 49.963715 8.640530 8,900 250 308 -960
2022-08-11 06:51:28 GMT 49.964722 8.644867 8,925 250 308 -960
2022-08-11 06:51:26 GMT 49.965454 8.647830 8,975 250 308 -960
2022-08-11 06:51:24 GMT 49.966473 8.652030 9,000 250 309 -960
2022-08-11 06:51:22 GMT 49.967422 8.656070 9,025 250 309 -1024
2022-08-11 06:51:20 GMT 49.968613 8.660938 9,100 250 309 -1088
2022-08-11 06:51:18 GMT 49.969666 8.665249 9,150 250 311 -1088
2022-08-11 06:51:14 GMT 49.971687 8.673632 9,175 250 312 -1088
2022-08-11 06:51:10 GMT 49.974758 8.686474 9,275 253 315 -1280
2022-08-11 06:51:08 GMT 49.974758 8.686474 9,300 252 314 -1152
2022-08-11 06:51:05 GMT 49.975891 8.691703 9,450 256 315 -1536
2022-08-11 06:51:03 GMT 49.976898 8.696273 9,425 260 315 -1792
2022-08-11 06:51:01 GMT 49.978016 8.703102 9,500 262 315 -1792
2022-08-11 06:50:58 GMT 49.978344 8.706442 9,700 265 315 -1856
2022-08-11 06:50:54 GMT 49.979042 8.717429 9,675 271 314 -1792
2022-08-11 06:50:52 GMT 49.978867 8.728710 9,825 278 312 -1792
2022-08-11 06:50:49 GMT 49.978867 8.728710 9,825 278 312 -1792
2022-08-11 06:50:47 GMT 49.978622 8.732201 9,875 281 312 -1728
2022-08-11 06:50:45 GMT 49.978249 8.736358 9,925 280 312 -1728
2022-08-11 06:50:42 GMT 49.977493 8.742226 9,975 284 311 -1664
2022-08-11 06:50:39 GMT 49.976154 8.750313 10,075 287 312 -1216
2022-08-11 06:50:36 GMT 49.975159 8.755598 10,200 287 313 -1024
2022-08-11 06:50:32 GMT 49.973595 8.763824 10,200 287 314 -1024
2022-08-11 06:50:29 GMT 49.972092 8.771933 10,250 287 316 -896
2022-08-11 06:50:27 GMT 49.970810 8.778654 10,300 287 318 -832
2022-08-11 06:50:25 GMT 49.970810 8.778654 10,300 287 319 -704
2022-08-11 06:50:22 GMT 49.969528 8.785449 10,350 287 319 -704
2022-08-11 06:50:19 GMT 49.968063 8.793182 10,400 287 322 -704
2022-08-11 06:50:17 GMT 49.967449 8.796411 10,400 287 326 -704
2022-08-11 06:50:15 GMT 49.966660 8.800568 10,425 287 325 -768
2022-08-11 06:50:12 GMT 49.964146 8.814004 10,475 287 326 -704
2022-08-11 06:50:10 GMT 49.964146 8.814004 10,500 287 328 -704
2022-08-11 06:50:08 GMT 49.962051 8.825065 10,525 287 331 -704
2022-08-11 06:50:05 GMT 49.962051 8.825065 10,550 287 331 -704
2022-08-11 06:50:02 GMT 49.960922 8.830912 10,575 287 332 -704
2022-08-11 06:49:58 GMT 49.959366 8.839151 10,625 287 335 -640
2022-08-11 06:49:56 GMT 49.958130 8.845873 10,675 287 337 -704
2022-08-11 06:49:53 GMT 49.957031 8.851656 10,675 287 339 -704
2022-08-11 06:49:51 GMT 49.956345 8.855125 10,700 287 340 -704
2022-08-11 06:49:48 GMT 49.953762 8.868639 10,775 287 343 -704
2022-08-11 06:49:45 GMT 49.953762 8.868639 11,100 287 362 -768
2022-08-11 06:49:42 GMT 49.952042 8.877844 10,800 287 347 -704
2022-08-11 06:49:38 GMT 49.950256 8.887072 10,850 287 350 -704
2022-08-11 06:49:36 GMT 49.949295 8.892059 10,875 287 354 -704
2022-08-11 06:49:32 GMT 49.947151 8.903380 10,925 287 355 -704
2022-08-11 06:49:29 GMT 49.945988 8.909392 10,975 287 358 -704
2022-08-11 06:49:27 GMT 49.945057 8.914292 11,000 287 360 -704
2022-08-11 06:49:25 GMT 49.944580 8.916923 11,050 287 360 -704
2022-08-11 06:49:22 GMT 49.942749 8.926536 11,050 287 362 -768
2022-08-11 06:49:20 GMT 49.942017 8.930511 11,075 287 363 -768
2022-08-11 06:49:17 GMT 49.938446 8.949015 11,125 287 367 -832
2022-08-11 06:49:13 GMT 49.937531 8.953857 11,250 287 370 -1216
2022-08-11 06:49:08 GMT 49.936066 8.961447 11,300 287 370 -1600
2022-08-11 06:49:06 GMT 49.935059 8.966795 11,350 287 371 -2112
2022-08-11 06:49:03 GMT 49.933548 8.974674 11,450 287 371 -2048
2022-08-11 06:49:00 GMT 49.932037 8.982335 11,725 287 371 -2112
2022-08-11 06:48:57 GMT 49.930893 8.988479 11,725 287 371 -2112
2022-08-11 06:48:55 GMT 49.929794 8.994044 11,950 287 371 -2112
2022-08-11 06:48:52 GMT 49.928055 9.003007 11,825 287 371 -2176
2022-08-11 06:48:50 GMT 49.927094 9.008066 11,875 287 371 -2240
2022-08-11 06:48:47 GMT 49.925831 9.014579 12,000 287 371 -2304
2022-08-11 06:48:45 GMT 49.924900 9.019404 12,075 287 371 -2368
2022-08-11 06:48:41 GMT 49.922928 9.029750 12,225 287 371 -2368
2022-08-11 06:48:38 GMT 49.921455 9.037517 12,350 287 370 -2368
2022-08-11 06:48:36 GMT 49.920292 9.043604 12,450 287 371 -2176
2022-08-11 06:48:34 GMT 49.919548 9.047687 12,500 287 371 -2176
2022-08-11 06:48:32 GMT 49.918663 9.052289 12,575 287 371 -2048
2022-08-11 06:48:28 GMT 49.916473 9.063721 12,725 287 372 -1920
2022-08-11 06:48:25 GMT 49.915146 9.070804 12,800 287 373 -1792
2022-08-11 06:48:20 GMT 49.912537 9.084609 12,950 287 374 -1536
2022-08-11 06:48:17 GMT 49.911026 9.092560 13,050 287 376 -1408
2022-08-11 06:48:14 GMT 49.910004 9.097867 13,075 287 381 -2048
2022-08-11 06:48:10 GMT 49.907955 9.108483 13,300 287 380 -1856
2022-08-11 06:48:08 GMT 49.906586 9.115617 13,250 287 379 -1728
2022-08-11 06:48:06 GMT 49.904606 9.126150 13,325 287 380 -1856
2022-08-11 06:48:04 GMT 49.904606 9.126150 13,375 287 380 -1856
2022-08-11 06:48:01 GMT 49.903625 9.131123 13,425 287 380 -1856
2022-08-11 06:47:59 GMT 49.902184 9.138695 13,525 287 380 -1984
2022-08-11 06:47:57 GMT 49.901207 9.143891 13,575 287 381 -1984
2022-08-11 06:47:55 GMT 49.900181 9.149162 13,675 287 381 -1984
2022-08-11 06:47:52 GMT 49.898895 9.156093 13,725 287 381 -1984
2022-08-11 06:47:49 GMT 49.897713 9.162226 13,825 287 381 -2048
2022-08-11 06:47:47 GMT 49.896194 9.170187 13,925 287 381 -2112
2022-08-11 06:47:45 GMT 49.895645 9.173078 13,950 287 381 -2112
2022-08-11 06:47:43 GMT 49.894684 9.178065 14,025 287 381 -2112
2022-08-11 06:47:40 GMT 49.892967 9.187094 14,225 287 384 -1856
2022-08-11 06:47:37 GMT 49.891251 9.195918 14,225 287 383 -1856
2022-08-11 06:47:35 GMT 49.890106 9.201917 14,325 287 384 -1920
2022-08-11 06:47:32 GMT 49.888775 9.208621 14,400 287 384 -1984
2022-08-11 06:47:30 GMT 49.887798 9.213669 14,475 287 384 -1984
2022-08-11 06:47:27 GMT 49.886494 9.220499 14,650 287 385 -2240
2022-08-11 06:47:24 GMT 49.884613 9.230106 14,625 287 385 -2240
2022-08-11 06:47:20 GMT 49.882629 9.240541 14,825 287 385 -2368
2022-08-11 06:47:18 GMT 49.881134 9.248320 14,975 287 384 -2368
2022-08-11 06:47:15 GMT 49.880070 9.253680 15,025 287 384 -2304
2022-08-11 06:47:12 GMT 49.878479 9.261981 15,150 287 384 -2176
2022-08-11 06:47:09 GMT 49.877232 9.268452 15,225 287 384 -2176
2022-08-11 06:47:07 GMT 49.876022 9.274762 15,325 287 385 -1856
2022-08-11 06:47:05 GMT 49.874996 9.280033 15,550 287 384 -1920
2022-08-11 06:47:03 GMT 49.874065 9.285080 15,500 287 386 -1600
2022-08-11 06:47:00 GMT 49.872532 9.293023 15,575 288 389 -1536
2022-08-11 06:46:57 GMT 49.869644 9.308022 15,675 288 389 -1536
2022-08-11 06:46:53 GMT 49.869129 9.310765 15,775 289 390 -1536
2022-08-11 06:46:50 GMT 49.867630 9.318358 15,775 289 390 -1536
2022-08-11 06:46:47 GMT 49.865524 9.328477 15,900 294 390 -1856
2022-08-11 06:46:45 GMT 49.864288 9.333681 15,925 295 390 -1920
2022-08-11 06:46:43 GMT 49.863312 9.337414 15,975 295 390 -1920
2022-08-11 06:46:40 GMT 49.861450 9.344095 16,150 298 389 -1984
2022-08-11 06:46:37 GMT 49.858566 9.353557 16,250 301 389 -1920
2022-08-11 06:46:34 GMT 49.855911 9.361147 16,250 300 389 -1920
2022-08-11 06:46:31 GMT 49.853577 9.367435 16,500 303 390 -1728
2022-08-11 06:46:29 GMT 49.851254 9.373194 16,450 305 391 -1536
2022-08-11 06:46:26 GMT 49.849209 9.378093 16,500 305 391 -1536
2022-08-11 06:46:24 GMT 49.846481 9.384276 16,725 305 395 -1600
2022-08-11 06:46:21 GMT 49.843388 9.391306 16,625 305 393 -1408
2022-08-11 06:46:19 GMT 49.841248 9.396131 16,675 305 395 -1600
2022-08-11 06:46:15 GMT 49.837009 9.405707 16,800 305 396 -1792
2022-08-11 06:46:13 GMT 49.834396 9.411669 16,850 305 396 -1856
2022-08-11 06:46:10 GMT 49.831890 9.417362 16,950 305 397 -2112
2022-08-11 06:46:07 GMT 49.828678 9.424636 17,050 305 397 -2112
2022-08-11 06:46:02 GMT 49.824005 9.435304 17,300 305 397 -2368
2022-08-11 06:45:59 GMT 49.821075 9.441882 17,600 305 397 -2432
2022-08-11 06:45:57 GMT 49.815399 9.454747 17,650 305 396 -2304
2022-08-11 06:45:54 GMT 49.815399 9.454747 17,550 305 396 -2240
2022-08-11 06:45:50 GMT 49.811966 9.462569 17,950 305 398 -1792
2022-08-11 06:45:47 GMT 49.807217 9.473407 21,275 305 398 -1856
2022-08-11 06:45:44 GMT 49.805122 9.478083 17,875 305 399 -1728
2022-08-11 06:45:41 GMT 49.802143 9.484913 17,950 305 400 -1728
2022-08-11 06:45:39 GMT 49.800522 9.488574 18,025 305 400 -1728
2022-08-11 06:45:37 GMT 49.797859 9.494563 21,275 305 402 -1920
2022-08-11 06:45:34 GMT 49.794891 9.501295 18,175 305 402 -1920
2022-08-11 06:45:31 GMT 49.791668 9.508519 18,275 305 402 -1984
2022-08-11 06:45:29 GMT 49.789665 9.513047 18,375 305 404 -2112
2022-08-11 06:45:26 GMT 49.785645 9.522183 18,550 305 403 -2048
2022-08-11 06:45:23 GMT 49.783615 9.526854 18,525 305 403 -2048
2022-08-11 06:45:20 GMT 49.780449 9.533980 18,625 305 404 -2112
2022-08-11 06:45:18 GMT 49.778214 9.538954 19,025 305 404 -2432
2022-08-11 06:45:15 GMT 49.774979 9.546252 18,950 305 404 -2368
2022-08-11 06:45:11 GMT 49.770302 9.556844 19,000 305 404 -2432
2022-08-11 06:45:07 GMT 49.765553 9.567533 19,350 305 405 -2368
2022-08-11 06:45:04 GMT 49.761223 9.577332 19,375 305 405 -2368
2022-08-11 06:45:00 GMT 49.758152 9.584235 19,475 305 405 -2112
2022-08-11 06:44:57 GMT 49.756058 9.589060 19,525 305 407 -1984
2022-08-11 06:44:55 GMT 49.754009 9.593588 19,675 305 408 -1984
2022-08-11 06:44:52 GMT 49.746964 9.609568 19,750 305 408 -1920
2022-08-11 06:44:49 GMT 49.746964 9.609568 19,800 305 408 -1920
2022-08-11 06:44:47 GMT 49.742138 9.620535 19,875 305 410 -1600
2022-08-11 06:44:44 GMT 49.742138 9.620535 19,975 305 412 -1600
2022-08-11 06:44:42 GMT 49.740051 9.625180 20,100 305 412 -1600
2022-08-11 06:44:39 GMT 49.736549 9.633080 20,125 305 413 -1664
2022-08-11 06:44:36 GMT 49.733433 9.640058 20,175 305 413 -1664
2022-08-11 06:44:33 GMT 49.730080 9.647629 20,350 305 417 -1792
2022-08-11 06:44:30 GMT 49.726959 9.654597 20,350 305 417 -1792
2022-08-11 06:44:27 GMT 49.723656 9.662030 20,425 305 417 -1792
2022-08-11 06:44:25 GMT 49.721420 9.667029 20,500 305 418 -1856
2022-08-11 06:44:22 GMT 49.719131 9.672161 20,925 305 419 -2368
2022-08-11 06:44:19 GMT 49.714783 9.681991 20,750 305 419 -2304
2022-08-11 06:44:16 GMT 49.711830 9.688531 20,850 305 419 -2368
2022-08-11 06:44:13 GMT 49.708511 9.696085 20,950 305 419 -2304
2022-08-11 06:44:10 GMT 49.704987 9.703963 21,025 305 419 -2176
2022-08-11 06:44:08 GMT 49.702614 9.709242 21,200 305 421 -2112
2022-08-11 06:44:05 GMT 49.696198 9.723695 21,300 305 421 -2048
2022-08-11 06:44:02 GMT 49.696198 9.723695 21,300 305 421 -2048
2022-08-11 06:44:00 GMT 49.693954 9.728610 21,375 305 422 -1984
2022-08-11 06:43:57 GMT 49.690521 9.736272 21,475 305 422 -1984
2022-08-11 06:43:55 GMT 49.686218 9.745957 21,725 305 425 -1472
2022-08-11 06:43:53 GMT 49.686218 9.745957 21,650 305 423 -1728
2022-08-11 06:43:50 GMT 49.682968 9.753185 21,675 305 424 -1600
2022-08-11 06:43:48 GMT 49.680595 9.758532 21,725 305 425 -1408
2022-08-11 06:43:45 GMT 49.677292 9.765906 21,800 305 425 -1216
2022-08-11 06:43:41 GMT 49.674179 9.772917 21,850 305 426 -1088
2022-08-11 06:43:39 GMT 49.671329 9.779317 21,875 305 426 -960
2022-08-11 06:43:35 GMT 49.666168 9.790914 21,975 305 429 -64
2022-08-11 06:43:31 GMT 49.659576 9.805804 21,975 305 429 -64
2022-08-11 06:43:29 GMT 49.659576 9.805804 21,975 305 429 -64
2022-08-11 06:43:25 GMT 49.655224 9.815468 22,000 305 428 0
2022-08-11 06:43:22 GMT 49.651966 9.822742 22,000 305 428 0
2022-08-11 06:43:20 GMT 49.648705 9.830017 22,000 305 428 0
2022-08-11 06:43:16 GMT 49.645386 9.837462 22,000 305 428 0
2022-08-11 06:43:12 GMT 49.640350 9.848737 22,000 305 428 -64
2022-08-11 06:43:08 GMT 49.635113 9.860452 22,025 305 427 -64
2022-08-11 06:43:05 GMT 49.631790 9.867819 22,025 305 427 -64
2022-08-11 06:43:02 GMT 49.628922 9.874185 22,025 305 427 -64
2022-08-11 06:42:59 GMT 49.625610 9.881624 22,025 305 427 -128
2022-08-11 06:42:55 GMT 49.620495 9.892966 22,050 305 428 -256
2022-08-11 06:42:52 GMT 49.617142 9.900344 22,075 305 438 -960
2022-08-11 06:42:48 GMT 49.614395 9.906476 22,075 305 429 -704
2022-08-11 06:42:46 GMT 49.611649 9.912631 22,100 305 429 -896
2022-08-11 06:42:44 GMT 49.609406 9.917691 22,175 305 430 -1024
2022-08-11 06:42:42 GMT 49.605927 9.925331 22,175 305 429 -1024
2022-08-11 06:42:39 GMT 49.603500 9.930773 22,225 305 430 -1024
2022-08-11 06:42:36 GMT 49.600758 9.936911 22,275 305 431 -1024
2022-08-11 06:42:34 GMT 49.597412 9.944362 22,325 305 431 -1024
2022-08-11 06:42:31 GMT 49.594288 9.951312 22,400 305 432 -960
2022-08-11 06:42:29 GMT 49.590958 9.958745 22,425 305 432 -960
2022-08-11 06:42:24 GMT 49.585281 9.971394 22,525 305 434 -960
2022-08-11 06:42:21 GMT 49.583160 9.976031 22,750 305 434 -960
2022-08-11 06:42:19 GMT 49.580704 9.981513 22,675 305 436 -1024
2022-08-11 06:42:16 GMT 49.577156 9.989467 22,950 305 434 -1024
2022-08-11 06:42:13 GMT 49.574501 9.995332 22,700 305 434 -1024
2022-08-11 06:42:10 GMT 49.570965 10.003200 22,700 305 436 -1024
2022-08-11 06:42:07 GMT 49.566029 10.014187 22,800 305 436 -1088
2022-08-11 06:42:04 GMT 49.562531 10.021916 22,825 305 437 -1088
2022-08-11 06:42:01 GMT 49.558815 10.030221 22,875 305 437 -1088
2022-08-11 06:41:58 GMT 49.552017 10.045290 23,000 305 437 -1088
2022-08-11 06:41:54 GMT 49.552017 10.045290 22,975 305 437 -1088
2022-08-11 06:41:51 GMT 49.544895 10.061175 23,100 305 438 -1024
2022-08-11 06:41:48 GMT 49.539505 10.073017 23,250 305 438 -960
2022-08-11 06:41:44 GMT 49.539505 10.073017 23,175 305 438 -960
2022-08-11 06:41:41 GMT 49.537079 10.078438 23,200 305 438 -960
2022-08-11 06:41:37 GMT 49.532417 10.088790 23,275 305 438 -896
2022-08-11 06:41:33 GMT 49.527512 10.099616 23,425 305 438 -896
2022-08-11 06:41:30 GMT 49.525017 10.105121 23,400 305 438 -896
2022-08-11 06:41:28 GMT 49.522133 10.111505 23,400 305 436 -960
2022-08-11 06:41:26 GMT 49.519943 10.116330 23,450 305 436 -960
2022-08-11 06:41:21 GMT 49.514145 10.129178 23,525 305 436 -1024
2022-08-11 06:41:19 GMT 49.511284 10.135407 23,550 305 436 -1024
2022-08-11 06:41:16 GMT 49.508537 10.141569 23,625 305 436 -1024
2022-08-11 06:41:13 GMT 49.504715 10.150066 23,850 305 435 -1088
2022-08-11 06:41:10 GMT 49.501881 10.156341 23,725 305 436 -1088
2022-08-11 06:41:08 GMT 49.497437 10.166112 23,825 305 436 -1088
2022-08-11 06:41:03 GMT 49.493130 10.175641 23,925 305 435 -768
2022-08-11 06:41:00 GMT 49.490288 10.182025 23,875 305 436 -1024
2022-08-11 06:40:57 GMT 49.486313 10.190759 23,975 305 435 -704
2022-08-11 06:40:54 GMT 49.483292 10.197336 23,975 305 435 -704
2022-08-11 06:40:51 GMT 49.478745 10.207338 23,975 305 435 -320
2022-08-11 06:40:48 GMT 49.476322 10.212683 24,000 305 434 0
2022-08-11 06:40:46 GMT 49.472878 10.220254 24,000 305 434 0
2022-08-11 06:40:44 GMT 49.471893 10.222417 24,000 305 434 0
2022-08-11 06:40:41 GMT 49.467407 10.232247 24,000 306 433 64
2022-08-11 06:40:38 GMT 49.464432 10.238752 24,000 306 433 64
2022-08-11 06:40:35 GMT 49.461613 10.244974 24,000 305 433 0
2022-08-11 06:40:32 GMT 49.458023 10.252846 24,000 305 433 0
2022-08-11 06:40:29 GMT 49.454632 10.260265 24,000 306 432 0
2022-08-11 06:40:26 GMT 49.451183 10.267837 24,000 305 431 0
2022-08-11 06:40:23 GMT 49.448181 10.274457 24,000 305 430 -64
2022-08-11 06:40:20 GMT 49.443550 10.284614 24,000 305 430 0
2022-08-11 06:40:18 GMT 49.441269 10.289587 24,025 305 430 -64
2022-08-11 06:40:16 GMT 49.434494 10.304525 24,025 305 430 -64
2022-08-11 06:40:13 GMT 49.434494 10.304525 24,025 306 444 -1920
2022-08-11 06:40:10 GMT 49.431587 10.310892 24,025 305 431 -192
2022-08-11 06:40:07 GMT 49.429214 10.316162 24,300 305 436 -1088
2022-08-11 06:40:04 GMT 49.425980 10.323275 24,400 305 432 -448
2022-08-11 06:40:01 GMT 49.422134 10.331796 24,150 305 433 -512
2022-08-11 06:39:58 GMT 49.418179 10.340520 24,100 305 433 -704
2022-08-11 06:39:56 GMT 49.416412 10.344403 24,175 305 436 -1280
2022-08-11 06:39:52 GMT 49.408871 10.360975 24,225 305 438 -1408
2022-08-11 06:39:49 GMT 49.408871 10.360975 24,475 305 438 -1600
2022-08-11 06:39:46 GMT 49.405285 10.368781 24,450 305 439 -1664
2022-08-11 06:39:43 GMT 49.401699 10.376731 24,375 305 439 -1856
2022-08-11 06:39:40 GMT 49.398117 10.384610 24,625 306 442 -1920
2022-08-11 06:39:38 GMT 49.395950 10.389334 24,750 305 443 -1920
2022-08-11 06:39:35 GMT 49.392654 10.396517 24,875 305 445 -1920
2022-08-11 06:39:31 GMT 49.387779 10.407161 24,875 305 445 -1920
2022-08-11 06:39:28 GMT 49.383778 10.415906 24,900 306 444 -1920
2022-08-11 06:39:24 GMT 49.379772 10.424652 25,000 305 446 -1984
2022-08-11 06:39:22 GMT 49.373631 10.438096 25,150 306 448 -1984
2022-08-11 06:39:19 GMT 49.373631 10.438096 25,200 306 447 -1984
2022-08-11 06:39:17 GMT 49.370232 10.445613 25,375 306 448 -1984
2022-08-11 06:39:13 GMT 49.365482 10.456021 25,475 302 460 -1984
2022-08-11 06:39:09 GMT 49.360886 10.466027 25,525 305 450 -1984
2022-08-11 06:39:06 GMT 49.357407 10.473562 25,700 305 452 -2048
2022-08-11 06:39:03 GMT 49.353287 10.482547 25,750 305 452 -2048
2022-08-11 06:38:59 GMT 49.349331 10.491221 25,850 305 454 -2112
2022-08-11 06:38:57 GMT 49.346813 10.496714 25,925 305 454 -2112
2022-08-11 06:38:55 GMT 49.344906 10.500978 26,075 304 456 -2112
2022-08-11 06:38:52 GMT 49.341888 10.507719 26,150 303 457 -2048
2022-08-11 06:38:49 GMT 49.337219 10.518494 26,275 303 457 -2048
2022-08-11 06:38:46 GMT 49.334850 10.524035 26,275 303 458 -2048
2022-08-11 06:38:43 GMT 49.330429 10.534732 26,500 302 459 -2048
2022-08-11 06:38:40 GMT 49.326984 10.543261 26,525 301 461 -1984
2022-08-11 06:38:38 GMT 49.325912 10.545959 26,650 301 462 -1984
2022-08-11 06:38:36 GMT 49.323772 10.551356 26,775 301 463 -1920
2022-08-11 06:38:33 GMT 49.320515 10.559813 26,950 300 464 -1920
2022-08-11 06:38:30 GMT 49.316368 10.570944 26,850 300 464 -1920
2022-08-11 06:38:27 GMT 49.313110 10.579834 26,950 300 465 -1920
2022-08-11 06:38:25 GMT 49.310925 10.585833 27,000 300 465 -1920
2022-08-11 06:38:22 GMT 49.307831 10.594271 27,100 300 467 -1920
2022-08-11 06:38:19 GMT 49.304626 10.602933 27,200 300 467 -1984
2022-08-11 06:38:15 GMT 49.300121 10.615106 27,375 300 468 -1984
2022-08-11 06:38:12 GMT 49.296959 10.623779 27,500 300 469 -1984
2022-08-11 06:38:09 GMT 49.293732 10.632582 27,575 300 469 -1984
2022-08-11 06:38:06 GMT 49.291809 10.637794 27,600 300 470 -1984
2022-08-11 06:38:02 GMT 49.287552 10.649344 27,700 300 471 -2048
2022-08-11 06:37:59 GMT 49.284119 10.658569 27,850 300 471 -2048
2022-08-11 06:37:56 GMT 49.281143 10.666739 28,475 300 471 -832
2022-08-11 06:37:52 GMT 49.275879 10.680894 28,175 300 473 -2048
2022-08-11 06:37:48 GMT 49.271542 10.692661 28,325 300 472 -2048
2022-08-11 06:37:45 GMT 49.269150 10.699205 28,325 300 472 -2048
2022-08-11 06:37:42 GMT 49.265076 10.710261 28,475 300 473 -1984
2022-08-11 06:37:39 GMT 49.261112 10.720849 28,600 300 473 -1984
2022-08-11 06:37:36 GMT 49.256241 10.734065 28,750 300 473 -1984
2022-08-11 06:37:33 GMT 49.256241 10.734065 28,950 300 474 -1984
2022-08-11 06:37:30 GMT 49.250034 10.750845 29,000 300 471 -960
2022-08-11 06:37:27 GMT 49.250034 10.750845 28,950 300 474 -1984
2022-08-11 06:37:25 GMT 49.243423 10.768714 29,300 300 474 -2112
2022-08-11 06:37:22 GMT 49.243423 10.768714 29,150 300 474 -2048
2022-08-11 06:37:19 GMT 49.240402 10.776884 29,200 300 474 -2112
2022-08-11 06:37:16 GMT 49.238300 10.782575 29,275 300 474 -2112
2022-08-11 06:37:14 GMT 49.234772 10.792025 29,400 300 474 -2048
2022-08-11 06:37:11 GMT 49.232208 10.799068 29,525 300 474 -2048
2022-08-11 06:37:08 GMT 49.229038 10.807656 29,575 300 474 -2048
2022-08-11 06:37:06 GMT 49.226849 10.813438 29,750 300 471 -896
2022-08-11 06:37:04 GMT 49.223694 10.822026 29,825 300 473 -1920
2022-08-11 06:37:01 GMT 49.221130 10.828998 29,975 300 472 -1664
2022-08-11 06:36:58 GMT 49.217911 10.837579 29,900 300 473 -1728
2022-08-11 06:36:56 GMT 49.215446 10.844229 29,975 300 472 -1472
2022-08-11 06:36:52 GMT 49.207855 10.864704 30,075 300 472 -1088
2022-08-11 06:36:49 GMT 49.207855 10.864704 30,125 300 471 -896
2022-08-11 06:36:47 GMT 49.206181 10.869165 30,150 300 471 -896
2022-08-11 06:36:44 GMT 49.202316 10.879573 30,225 300 471 -832
2022-08-11 06:36:41 GMT 49.199661 10.886676 30,225 300 471 -832
2022-08-11 06:36:37 GMT 49.196499 10.895185 30,275 300 471 -832
2022-08-11 06:36:35 GMT 49.193798 10.902413 30,300 300 471 -896
2022-08-11 06:36:33 GMT 49.191467 10.908649 30,475 300 471 -960
2022-08-11 06:36:30 GMT 49.187714 10.918720 30,375 300 471 -960
2022-08-11 06:36:27 GMT 49.184628 10.926987 30,425 300 471 -960
2022-08-11 06:36:24 GMT 49.181442 10.935481 30,475 300 471 -1024
2022-08-11 06:36:21 GMT 49.177086 10.947225 30,550 300 471 -1024
2022-08-11 06:36:18 GMT 49.174347 10.954566 30,650 300 471 -1024
2022-08-11 06:36:15 GMT 49.171646 10.961820 30,675 300 471 -960
2022-08-11 06:36:12 GMT 49.167309 10.973535 30,700 300 471 -1024
2022-08-11 06:36:09 GMT 49.165100 10.979426 30,825 300 471 -1024
2022-08-11 06:36:06 GMT 49.162308 10.986962 30,800 300 471 -1024
2022-08-11 06:36:02 GMT 49.158005 10.998512 30,900 300 471 -960
2022-08-11 06:35:59 GMT 49.155304 11.005695 30,900 300 471 -960
2022-08-11 06:35:56 GMT 49.152134 11.014228 30,975 300 471 -960
2022-08-11 06:35:54 GMT 49.148849 11.023020 30,975 300 471 -960
2022-08-11 06:35:51 GMT 49.145645 11.031682 31,225 300 470 -960
2022-08-11 06:35:48 GMT 49.142944 11.038865 31,100 300 470 -960
2022-08-11 06:35:46 GMT 49.139893 11.047042 31,625 300 469 -896
2022-08-11 06:35:43 GMT 49.136169 11.057035 31,225 300 470 -960
2022-08-11 06:35:40 GMT 49.134430 11.061613 31,225 300 470 -896
2022-08-11 06:35:37 GMT 49.130394 11.072412 31,275 300 470 -896
2022-08-11 06:35:34 GMT 49.128433 11.077740 31,325 300 470 -832
2022-08-11 06:35:31 GMT 49.124622 11.087952 31,400 300 469 -896
2022-08-11 06:35:28 GMT 49.118568 11.104070 31,450 300 469 -896
2022-08-11 06:35:25 GMT 49.118568 11.104070 31,450 300 469 -896
2022-08-11 06:35:22 GMT 49.113922 11.116544 31,500 300 469 -960
2022-08-11 06:35:18 GMT 49.110123 11.126615 31,550 300 469 -960
2022-08-11 06:35:16 GMT 49.109028 11.129584 31,550 300 469 -960
2022-08-11 06:35:13 GMT 49.105766 11.138185 31,625 300 470 -960
2022-08-11 06:35:10 GMT 49.100647 11.151827 31,700 300 470 -1024
2022-08-11 06:35:07 GMT 49.097759 11.159435 31,700 300 470 -1024
2022-08-11 06:35:04 GMT 49.095619 11.165145 31,750 300 470 -1024
2022-08-11 06:35:01 GMT 49.092453 11.173589 31,800 300 470 -1024
2022-08-11 06:34:58 GMT 49.089661 11.181054 31,850 300 470 -1024
2022-08-11 06:34:55 GMT 49.085609 11.191816 31,950 300 470 -1024
2022-08-11 06:34:52 GMT 49.079327 11.208440 32,100 300 470 -1024
2022-08-11 06:34:49 GMT 49.079327 11.208440 32,025 300 470 -1024
2022-08-11 06:34:46 GMT 49.076115 11.217041 32,125 300 469 -960
2022-08-11 06:34:43 GMT 49.073044 11.225210 32,925 300 470 -768
2022-08-11 06:34:40 GMT 49.069565 11.234366 32,200 300 469 -896
2022-08-11 06:34:37 GMT 49.066772 11.241831 32,250 300 469 -896
2022-08-11 06:34:34 GMT 49.062561 11.252958 32,350 300 468 -832
2022-08-11 06:34:30 GMT 49.058842 11.262793 32,325 300 468 -832
2022-08-11 06:34:27 GMT 49.052216 11.280353 32,400 300 468 -896
2022-08-11 06:34:24 GMT 49.049057 11.288663 32,425 300 468 -896
2022-08-11 06:34:21 GMT 49.049057 11.288663 32,475 300 469 -960
2022-08-11 06:34:18 GMT 49.045853 11.297255 32,500 300 469 -896
2022-08-11 06:34:15 GMT 49.040039 11.312678 32,575 300 469 -960
2022-08-11 06:34:12 GMT 49.040039 11.312678 32,575 300 469 -960
2022-08-11 06:34:09 GMT 49.034958 11.326130 32,700 300 470 -1024
2022-08-11 06:34:06 GMT 49.032867 11.331675 32,675 300 470 -1024
2022-08-11 06:34:04 GMT 49.030746 11.337257 32,750 300 470 -1088
2022-08-11 06:34:01 GMT 49.026718 11.347891 32,825 300 470 -1088
2022-08-11 06:33:57 GMT 49.022964 11.357891 32,875 300 470 -1024
2022-08-11 06:33:55 GMT 49.020767 11.363596 32,875 300 470 -1024
2022-08-11 06:33:52 GMT 49.017975 11.371061 32,925 300 470 -768
2022-08-11 06:33:49 GMT 49.013718 11.382188 32,950 301 469 -512
2022-08-11 06:33:46 GMT 49.010941 11.389497 32,975 301 469 -384
2022-08-11 06:33:43 GMT 49.007683 11.398099 33,000 301 469 -64
2022-08-11 06:33:40 GMT 48.999630 11.419204 33,000 301 469 0
2022-08-11 06:33:36 GMT 48.999630 11.419204 33,000 301 469 0
2022-08-11 06:33:34 GMT 48.995857 11.429251 33,000 300 470 0
2022-08-11 06:33:32 GMT 48.995857 11.429251 33,000 301 469 0
2022-08-11 06:33:29 GMT 48.992340 11.438528 33,000 300 470 0
2022-08-11 06:33:26 GMT 48.989761 11.445224 33,000 300 470 0
2022-08-11 06:33:24 GMT 48.986984 11.452543 33,000 300 470 0
2022-08-11 06:33:21 GMT 48.983803 11.460981 33,000 301 471 0
2022-08-11 06:33:17 GMT 48.980404 11.469871 33,000 300 470 0
2022-08-11 06:33:14 GMT 48.976166 11.481002 33,000 301 471 0
2022-08-11 06:33:12 GMT 48.974167 11.486276 33,000 301 471 0
2022-08-11 06:33:09 GMT 48.971329 11.493742 33,000 301 471 0
2022-08-11 06:33:06 GMT 48.967461 11.503914 33,000 301 471 0
2022-08-11 06:33:04 GMT 48.962246 11.517647 33,000 301 471 0
2022-08-11 06:33:01 GMT 48.962246 11.517647 33,000 300 472 0
2022-08-11 06:32:58 GMT 48.958282 11.528109 33,000 300 472 0
2022-08-11 06:32:55 GMT 48.955124 11.536419 33,000 300 472 0
2022-08-11 06:32:52 GMT 48.952377 11.543532 33,000 300 472 0
2022-08-11 06:32:48 GMT 48.947117 11.557473 33,000 300 472 0
2022-08-11 06:32:45 GMT 48.945351 11.562098 33,000 300 472 0
2022-08-11 06:32:42 GMT 48.941711 11.571702 33,000 301 471 0
2022-08-11 06:32:40 GMT 48.939606 11.577125 33,000 301 472 0
2022-08-11 06:32:36 GMT 48.934315 11.591082 33,000 301 472 0
2022-08-11 06:32:33 GMT 48.932034 11.597081 33,000 301 472 0
2022-08-11 06:32:30 GMT 48.929150 11.604526 33,000 301 472 0
2022-08-11 06:32:27 GMT 48.925186 11.615014 33,000 301 472 0
2022-08-11 06:32:24 GMT 48.920883 11.626211 33,000 301 472 -64
2022-08-11 06:32:21 GMT 48.918823 11.631634 33,000 301 471 -64
2022-08-11 06:32:18 GMT 48.914200 11.643677 33,000 301 472 -64
2022-08-11 06:32:15 GMT 48.912140 11.649099 33,000 301 471 -64
2022-08-11 06:32:13 GMT 48.909531 11.656001 33,000 301 470 -64
2022-08-11 06:32:09 GMT 48.904663 11.668709 33,025 301 470 -64
2022-08-11 06:32:04 GMT 48.899075 11.683237 33,025 301 470 -192
2022-08-11 06:32:00 GMT 48.896210 11.690791 33,050 301 470 -256
2022-08-11 06:31:57 GMT 48.891953 11.701918 33,050 301 470 -448
2022-08-11 06:31:54 GMT 48.888042 11.712004 33,100 301 470 -704
2022-08-11 06:31:51 GMT 48.884628 11.720933 33,125 301 469 -896
2022-08-11 06:31:48 GMT 48.881386 11.729351 33,175 301 468 -896
2022-08-11 06:31:45 GMT 48.876114 11.743117 33,325 301 472 -64
2022-08-11 06:31:42 GMT 48.876114 11.743117 33,325 301 472 -64
2022-08-11 06:31:40 GMT 48.873753 11.749227 33,350 301 468 -960
2022-08-11 06:31:37 GMT 48.870956 11.756600 33,350 301 468 -960
2022-08-11 06:31:34 GMT 48.866638 11.767766 33,350 301 468 -960
2022-08-11 06:31:31 GMT 48.864029 11.774597 33,425 301 468 -960
2022-08-11 06:31:28 GMT 48.856995 11.792811 33,525 301 468 -1024
2022-08-11 06:31:25 GMT 48.856995 11.792811 33,500 301 468 -1024
2022-08-11 06:31:22 GMT 48.854004 11.800654 33,600 301 468 -1024
2022-08-11 06:31:19 GMT 48.847542 11.817458 33,650 301 469 -1088
2022-08-11 06:31:16 GMT 48.847542 11.817458 33,700 301 470 -1024
2022-08-11 06:31:13 GMT 48.844299 11.825867 33,850 301 470 -1088
2022-08-11 06:31:11 GMT 48.841957 11.831986 33,750 301 470 -1088
2022-08-11 06:31:08 GMT 48.836136 11.847020 33,875 301 470 -704
2022-08-11 06:31:06 GMT 48.836136 11.847020 33,875 301 470 -704
2022-08-11 06:31:02 GMT 48.832321 11.856995 33,925 301 470 -704
2022-08-11 06:30:59 GMT 48.827866 11.868474 33,975 301 470 -576
2022-08-11 06:30:56 GMT 48.824871 11.876365 33,975 301 471 -320
2022-08-11 06:30:53 GMT 48.820354 11.888002 34,000 301 471 -64
2022-08-11 06:30:51 GMT 48.820354 11.888002 34,000 301 471 0
2022-08-11 06:30:48 GMT 48.817566 11.895306 34,000 301 471 0
2022-08-11 06:30:45 GMT 48.813793 11.905132 34,000 301 471 0
2022-08-11 06:30:42 GMT 48.810486 11.913661 34,000 294 479 -64
2022-08-11 06:30:39 GMT 48.806252 11.924792 34,000 301 472 0
2022-08-11 06:30:36 GMT 48.804016 11.930502 34,000 301 472 -64
2022-08-11 06:30:33 GMT 48.800430 11.939898 34,000 301 472 -64
2022-08-11 06:30:31 GMT 48.797699 11.946928 34,000 301 472 -64
2022-08-11 06:30:28 GMT 48.795589 11.952474 34,000 301 472 -64
2022-08-11 06:30:26 GMT 48.793442 11.958055 34,000 301 472 -64
2022-08-11 06:30:23 GMT 48.789368 11.968548 34,000 301 472 -64
2022-08-11 06:30:21 GMT 48.787170 11.974253 34,000 301 472 -64
2022-08-11 06:30:18 GMT 48.784370 11.981458 34,000 301 472 -64
2022-08-11 06:30:15 GMT 48.780460 11.991505 34,025 301 472 -64
2022-08-11 06:30:11 GMT 48.776093 12.002775 34,025 301 472 -64
2022-08-11 06:30:08 GMT 48.773293 12.010008 34,025 301 473 -64
2022-08-11 06:30:05 GMT 48.768906 12.021297 34,025 300 473 0
2022-08-11 06:30:02 GMT 48.766773 12.026849 34,025 300 473 0
2022-08-11 06:30:00 GMT 48.764145 12.033903 34,025 299 474 0
2022-08-11 06:29:57 GMT 48.760483 12.044114 34,025 298 475 0
2022-08-11 06:29:54 GMT 48.754349 12.062143 34,025 296 477 0
2022-08-11 06:29:51 GMT 48.754349 12.062143 34,025 295 479 -64
2022-08-11 06:29:48 GMT 48.748528 12.081130 34,025 295 479 -64
2022-08-11 06:29:45 GMT 48.748528 12.081130 34,025 292 481 -64
2022-08-11 06:29:42 GMT 48.745918 12.090020 34,025 293 481 -64
2022-08-11 06:29:39 GMT 48.741669 12.105736 34,025 289 485 0
2022-08-11 06:29:36 GMT 48.741669 12.105736 34,025 291 483 0
2022-08-11 06:29:33 GMT 48.739307 12.115029 34,025 290 484 0
2022-08-11 06:29:30 GMT 48.736561 12.126377 34,025 289 485 0
2022-08-11 06:29:27 GMT 48.734802 12.134259 34,025 289 486 0
2022-08-11 06:29:24 GMT 48.732605 12.144259 34,025 289 486 0
2022-08-11 06:29:22 GMT 48.731323 12.150034 34,025 289 486 0
2022-08-11 06:29:20 GMT 48.729584 12.158062 34,025 289 486 0
2022-08-11 06:29:17 GMT 48.725204 12.178200 34,025 289 486 0
2022-08-11 06:29:14 GMT 48.725204 12.178200 34,025 289 486 0
2022-08-11 06:29:10 GMT 48.720749 12.198698 34,025 289 486 0
2022-08-11 06:29:07 GMT 48.720749 12.198698 34,025 289 486 0
2022-08-11 06:29:04 GMT 48.717850 12.212026 34,025 289 486 0
2022-08-11 06:29:01 GMT 48.716400 12.218628 34,025 289 486 0
2022-08-11 06:28:58 GMT 48.713753 12.230891 34,025 289 485 0
2022-08-11 06:28:55 GMT 48.712372 12.237220 34,025 289 486 0
2022-08-11 06:28:52 GMT 48.709854 12.248770 34,025 289 486 0
2022-08-11 06:28:49 GMT 48.707520 12.259404 34,025 289 486 0
2022-08-11 06:28:46 GMT 48.706116 12.266019 34,025 289 485 0
2022-08-11 06:28:43 GMT 48.704315 12.274193 34,025 289 486 0
2022-08-11 06:28:40 GMT 48.701752 12.285814 34,025 289 486 0
2022-08-11 06:28:37 GMT 48.699039 12.298255 34,025 289 485 0
2022-08-11 06:28:34 GMT 48.697174 12.306730 34,000 290 482 64
2022-08-11 06:28:31 GMT 48.694897 12.317047 34,025 289 485 0
2022-08-11 06:28:27 GMT 48.690800 12.335695 34,025 289 485 0
2022-08-11 06:28:24 GMT 48.690800 12.335695 34,025 289 485 0
2022-08-11 06:28:21 GMT 48.688053 12.348271 34,025 289 485 64
2022-08-11 06:28:18 GMT 48.686287 12.356294 34,025 289 485 0
2022-08-11 06:28:15 GMT 48.684448 12.364760 34,025 289 485 0
2022-08-11 06:28:12 GMT 48.681492 12.378122 34,025 289 485 0
2022-08-11 06:28:09 GMT 48.679825 12.385676 34,025 289 485 0
2022-08-11 06:28:06 GMT 48.677811 12.394973 34,025 289 484 64
2022-08-11 06:28:02 GMT 48.672729 12.418072 34,025 289 484 0
2022-08-11 06:27:59 GMT 48.672729 12.418072 34,025 289 484 0
2022-08-11 06:27:56 GMT 48.669022 12.435115 34,000 289 484 0
2022-08-11 06:27:53 GMT 48.669022 12.435115 34,025 289 483 64
2022-08-11 06:27:50 GMT 48.666550 12.446383 34,025 289 484 0
2022-08-11 06:27:47 GMT 48.664032 12.457933 34,025 289 483 64
2022-08-11 06:27:44 GMT 48.661972 12.467511 34,025 290 482 64
2022-08-11 06:27:41 GMT 48.659843 12.476927 34,000 290 482 64
2022-08-11 06:27:38 GMT 48.657120 12.488849 34,000 291 482 64
2022-08-11 06:27:34 GMT 48.655190 12.496948 34,000 292 480 0
2022-08-11 06:27:29 GMT 48.650116 12.517160 34,000 292 480 0
2022-08-11 06:27:26 GMT 48.648159 12.524848 34,000 292 481 0
2022-08-11 06:27:23 GMT 48.646576 12.531064 34,000 292 480 0
2022-08-11 06:27:20 GMT 48.644016 12.541110 34,000 292 480 0
2022-08-11 06:27:18 GMT 48.642517 12.546880 34,000 292 480 0
2022-08-11 06:27:15 GMT 48.639084 12.560409 34,000 292 479 0
2022-08-11 06:27:11 GMT 48.636292 12.571176 34,000 292 479 0
2022-08-11 06:27:09 GMT 48.635448 12.574431 34,000 292 479 0
2022-08-11 06:27:05 GMT 48.632053 12.587875 34,000 292 479 0
2022-08-11 06:27:02 GMT 48.629772 12.596548 34,000 292 478 0
2022-08-11 06:26:59 GMT 48.627304 12.606233 34,000 292 478 0
2022-08-11 06:26:56 GMT 48.623978 12.619136 34,000 292 478 0
2022-08-11 06:26:53 GMT 48.621532 12.628567 34,000 292 477 0
2022-08-11 06:26:49 GMT 48.618622 12.639911 34,000 292 477 0
2022-08-11 06:26:46 GMT 48.616131 12.649673 34,000 292 476 0
2022-08-11 06:26:43 GMT 48.613712 12.658997 34,000 292 477 0
2022-08-11 06:26:40 GMT 48.611897 12.666080 34,000 292 477 0
2022-08-11 06:26:38 GMT 48.609924 12.673645 34,000 292 476 0
2022-08-11 06:26:35 GMT 48.607334 12.683716 34,000 292 476 0
2022-08-11 06:26:32 GMT 48.605804 12.689772 34,000 292 476 0
2022-08-11 06:26:29 GMT 48.603104 12.700266 34,000 292 475 0
2022-08-11 06:26:26 GMT 48.598022 12.720055 34,000 292 475 0
2022-08-11 06:26:23 GMT 48.594204 12.734672 34,000 292 475 0
2022-08-11 06:26:18 GMT 48.594204 12.734672 34,000 292 474 0
2022-08-11 06:26:15 GMT 48.591476 12.745267 34,000 292 474 0
2022-08-11 06:26:12 GMT 48.587906 12.759141 34,000 292 474 0
2022-08-11 06:26:08 GMT 48.586212 12.765620 34,000 292 474 0
2022-08-11 06:26:05 GMT 48.583778 12.775004 34,000 292 473 0
2022-08-11 06:26:02 GMT 48.578293 12.796326 34,000 292 473 0
2022-08-11 06:25:59 GMT 48.578293 12.796326 34,000 292 473 0
2022-08-11 06:25:55 GMT 48.576237 12.804204 34,000 292 473 0
2022-08-11 06:25:52 GMT 48.573441 12.815059 34,000 292 473 0
2022-08-11 06:25:49 GMT 48.570698 12.825671 34,000 292 473 0
2022-08-11 06:25:46 GMT 48.568787 12.832971 34,000 292 472 0
2022-08-11 06:25:43 GMT 48.565575 12.845258 34,000 292 472 0
2022-08-11 06:25:39 GMT 48.563141 12.854567 34,000 292 472 0
2022-08-11 06:25:37 GMT 48.561493 12.861046 34,000 292 472 0
2022-08-11 06:25:34 GMT 48.558701 12.871751 34,000 292 472 0
2022-08-11 06:25:31 GMT 48.557465 12.876329 34,000 292 472 0
2022-08-11 06:25:28 GMT 48.554947 12.886118 34,000 292 478 192
2022-08-11 06:25:25 GMT 48.552170 12.896720 34,000 292 473 0
2022-08-11 06:25:22 GMT 48.549271 12.907879 34,000 292 473 0
2022-08-11 06:25:18 GMT 48.546249 12.919570 34,000 292 473 0
2022-08-11 06:25:15 GMT 48.544209 12.927367 34,000 292 473 0
2022-08-11 06:25:11 GMT 48.541416 12.938136 34,000 292 474 64
2022-08-11 06:25:07 GMT 48.537827 12.951754 34,000 292 475 64
2022-08-11 06:25:04 GMT 48.534340 12.965168 33,975 292 475 64
2022-08-11 06:25:01 GMT 48.533081 12.970083 33,975 292 476 64
2022-08-11 06:24:57 GMT 48.526936 12.993574 33,950 292 478 576
2022-08-11 06:24:54 GMT 48.526936 12.993574 33,950 292 478 256
2022-08-11 06:24:51 GMT 48.524841 13.001597 33,950 292 478 320
2022-08-11 06:24:48 GMT 48.522400 13.011052 33,875 292 478 768
2022-08-11 06:24:45 GMT 48.520329 13.018943 33,900 292 478 832
2022-08-11 06:24:43 GMT 48.516556 13.033399 33,850 292 478 1024
2022-08-11 06:24:40 GMT 48.516556 13.033399 33,750 292 478 1088
2022-08-11 06:24:37 GMT 48.513977 13.043166 33,775 292 478 1152
2022-08-11 06:24:35 GMT 48.511551 13.052462 33,625 292 478 1216
2022-08-11 06:24:32 GMT 48.509338 13.060937 33,650 292 478 1152
2022-08-11 06:24:29 GMT 48.507759 13.067153 33,575 292 478 1216
2022-08-11 06:24:26 GMT 48.505096 13.077181 33,525 292 479 1216
2022-08-11 06:24:23 GMT 48.502079 13.088764 33,475 292 479 1216
2022-08-11 06:24:20 GMT 48.499924 13.096971 32,450 292 479 1152
2022-08-11 06:24:16 GMT 48.496445 13.110281 33,350 292 479 1088
2022-08-11 06:24:13 GMT 48.493977 13.119772 33,275 292 479 1024
2022-08-11 06:24:10 GMT 48.491776 13.128310 33,125 292 479 1024
2022-08-11 06:24:07 GMT 48.489349 13.137606 33,150 292 479 960
2022-08-11 06:24:04 GMT 48.486694 13.147818 33,075 292 479 1152
2022-08-11 06:24:01 GMT 48.484482 13.156345 33,075 292 479 1152
2022-08-11 06:23:58 GMT 48.477547 13.182654 32,975 292 479 1280
2022-08-11 06:23:53 GMT 48.477547 13.182654 32,825 292 480 1344
2022-08-11 06:23:50 GMT 48.475067 13.192115 32,825 292 480 1344
2022-08-11 06:23:47 GMT 48.472984 13.200001 32,750 292 480 1344
2022-08-11 06:23:44 GMT 48.470516 13.209325 32,650 292 480 1216
2022-08-11 06:23:40 GMT 48.467331 13.221271 32,625 292 481 960
2022-08-11 06:23:37 GMT 48.464882 13.230358 32,575 292 481 832
2022-08-11 06:23:35 GMT 48.463581 13.235345 32,550 292 481 768
2022-08-11 06:23:32 GMT 48.460739 13.246259 32,500 291 481 576
2022-08-11 06:23:29 GMT 48.458633 13.254512 32,475 290 481 384
2022-08-11 06:23:26 GMT 48.455944 13.265341 32,475 290 481 384
2022-08-11 06:23:24 GMT 48.454514 13.271414 32,450 290 480 320
2022-08-11 06:23:21 GMT 48.450359 13.289554 32,425 289 479 384
2022-08-11 06:23:18 GMT 48.450359 13.289554 32,425 289 479 384
2022-08-11 06:23:14 GMT 48.444763 13.316064 32,300 287 479 960
2022-08-11 06:23:10 GMT 48.442795 13.325923 32,300 287 480 1216
2022-08-11 06:23:07 GMT 48.442795 13.325923 32,250 286 480 1600
2022-08-11 06:23:05 GMT 48.442108 13.329444 32,225 286 480 1664
2022-08-11 06:23:02 GMT 48.439819 13.341698 32,075 285 483 1856
2022-08-11 06:22:59 GMT 48.438080 13.351347 31,900 284 487 2112
2022-08-11 06:22:56 GMT 48.436432 13.360784 31,925 284 485 2048
2022-08-11 06:22:53 GMT 48.435043 13.369133 31,825 284 486 2048
2022-08-11 06:22:50 GMT 48.433041 13.381637 31,700 283 489 2176
2022-08-11 06:22:47 GMT 48.430622 13.397827 31,550 283 491 2368
2022-08-11 06:22:44 GMT 48.430622 13.397827 31,400 282 493 2368
2022-08-11 06:22:41 GMT 48.428970 13.409729 31,300 281 495 2304
2022-08-11 06:22:38 GMT 48.426178 13.431279 31,175 280 497 1344
2022-08-11 06:22:33 GMT 48.425594 13.436207 31,125 280 498 1408
2022-08-11 06:22:30 GMT 48.423065 13.458534 30,950 280 497 1344
2022-08-11 06:22:27 GMT 48.423065 13.458534 31,000 280 497 1088
2022-08-11 06:22:25 GMT 48.422012 13.468041 30,950 280 497 960
2022-08-11 06:22:22 GMT 48.421234 13.474872 30,900 280 497 1024
2022-08-11 06:22:19 GMT 48.419266 13.492619 30,825 280 497 896
2022-08-11 06:22:16 GMT 48.419266 13.492619 30,825 280 496 896
2022-08-11 06:22:14 GMT 48.418167 13.502479 30,750 280 496 768
2022-08-11 06:22:11 GMT 48.417023 13.512691 30,725 280 495 704
2022-08-11 06:22:08 GMT 48.415741 13.524240 30,700 280 495 640
2022-08-11 06:22:05 GMT 48.415009 13.530649 30,650 280 494 704
2022-08-11 06:22:02 GMT 48.413773 13.541847 30,650 280 494 704
2022-08-11 06:21:59 GMT 48.412262 13.555368 30,550 280 492 768
2022-08-11 06:21:56 GMT 48.411163 13.565369 30,550 280 492 832
2022-08-11 06:21:53 GMT 48.410339 13.572622 30,550 280 492 896
2022-08-11 06:21:51 GMT 48.409580 13.579463 30,500 280 491 896
2022-08-11 06:21:48 GMT 48.408417 13.589943 30,425 280 490 960
2022-08-11 06:21:45 GMT 48.407299 13.599701 30,400 280 485 512
2022-08-11 06:21:42 GMT 48.406181 13.609603 30,350 280 490 960
2022-08-11 06:21:39 GMT 48.405018 13.620011 30,300 280 491 896
2022-08-11 06:21:36 GMT 48.403152 13.636639 30,225 280 490 896
2022-08-11 06:21:31 GMT 48.402008 13.646710 30,175 280 490 896
2022-08-11 06:21:28 GMT 48.400864 13.656428 30,125 280 489 896
2022-08-11 06:21:25 GMT 48.399712 13.666631 30,075 280 488 832
2022-08-11 06:21:22 GMT 48.398117 13.680514 30,050 280 487 768
2022-08-11 06:21:19 GMT 48.397198 13.688676 30,025 280 486 704
2022-08-11 06:21:16 GMT 48.396263 13.696988 29,950 280 483 448
2022-08-11 06:21:13 GMT 48.394867 13.709177 29,925 280 484 448
2022-08-11 06:21:10 GMT 48.394077 13.715997 29,950 280 484 512
2022-08-11 06:21:06 GMT 48.392357 13.731103 29,875 280 483 448
2022-08-11 06:21:01 GMT 48.390518 13.747136 29,875 280 483 448
2022-08-11 06:20:58 GMT 48.389328 13.757485 29,850 280 480 512
2022-08-11 06:20:54 GMT 48.387886 13.769989 29,825 280 480 576
2022-08-11 06:20:51 GMT 48.386765 13.779672 29,775 280 478 640
2022-08-11 06:20:48 GMT 48.385651 13.789360 29,675 280 477 704
2022-08-11 06:20:45 GMT 48.384476 13.799462 29,725 280 476 768
2022-08-11 06:20:40 GMT 48.382580 13.816320 29,625 280 476 768
2022-08-11 06:20:37 GMT 48.380718 13.832438 29,575 280 474 896
2022-08-11 06:20:34 GMT 48.380718 13.832438 29,575 280 474 896
2022-08-11 06:20:31 GMT 48.379181 13.845954 29,525 280 474 896
2022-08-11 06:20:27 GMT 48.377884 13.857140 29,475 280 473 960
2022-08-11 06:20:24 GMT 48.376621 13.867999 29,400 280 472 960
2022-08-11 06:20:20 GMT 48.374943 13.882527 29,200 280 472 832
2022-08-11 06:20:17 GMT 48.374012 13.890333 29,325 280 472 896
2022-08-11 06:20:14 GMT 48.371918 13.908402 29,250 280 472 832
2022-08-11 06:20:11 GMT 48.371918 13.908402 29,225 280 471 832
2022-08-11 06:20:08 GMT 48.370663 13.919316 29,175 280 470 768
2022-08-11 06:20:05 GMT 48.369553 13.929185 29,150 280 470 832
2022-08-11 06:20:02 GMT 48.368408 13.938833 29,150 280 470 832
2022-08-11 06:19:59 GMT 48.367310 13.948130 29,000 280 469 896
2022-08-11 06:19:56 GMT 48.366257 13.957426 29,000 280 468 896
2022-08-11 06:19:52 GMT 48.364796 13.969694 28,975 280 468 832
2022-08-11 06:19:49 GMT 48.363556 13.980384 28,925 281 466 640
2022-08-11 06:19:46 GMT 48.362183 13.992216 28,900 281 466 576
2022-08-11 06:19:43 GMT 48.361404 13.998836 28,875 280 463 640
2022-08-11 06:19:40 GMT 48.360489 14.006794 28,850 280 463 704
2022-08-11 06:19:37 GMT 48.358795 14.021020 28,775 280 461 704
2022-08-11 06:19:34 GMT 48.357719 14.030336 28,750 280 460 704
2022-08-11 06:19:29 GMT 48.355820 14.046232 28,700 281 460 832
2022-08-11 06:19:26 GMT 48.355133 14.052218 28,625 281 459 896
2022-08-11 06:19:23 GMT 48.353714 14.064472 28,600 281 459 1024
2022-08-11 06:19:19 GMT 48.352180 14.077173 28,525 281 459 1216
2022-08-11 06:19:16 GMT 48.351059 14.086656 28,425 281 458 1344
2022-08-11 06:19:13 GMT 48.349945 14.096254 28,400 281 458 1344
2022-08-11 06:19:10 GMT 48.348862 14.105459 28,325 281 458 1152
2022-08-11 06:19:07 GMT 48.347710 14.115336 28,275 281 458 1088
2022-08-11 06:19:04 GMT 48.346939 14.122009 28,175 281 457 1024
2022-08-11 06:19:01 GMT 48.345615 14.133116 28,175 281 457 960
2022-08-11 06:18:58 GMT 48.344696 14.141095 28,125 280 456 896
2022-08-11 06:18:55 GMT 48.343689 14.149475 28,000 280 455 960
2022-08-11 06:18:52 GMT 48.342590 14.158992 28,025 281 454 1088
2022-08-11 06:18:49 GMT 48.341381 14.168894 27,950 281 454 1088
2022-08-11 06:18:46 GMT 48.340347 14.177786 27,925 281 453 960
2022-08-11 06:18:43 GMT 48.339287 14.186891 27,825 281 452 960
2022-08-11 06:18:40 GMT 48.337841 14.198962 27,825 281 452 960
2022-08-11 06:18:37 GMT 48.336864 14.207346 27,800 281 451 896
2022-08-11 06:18:33 GMT 48.335606 14.218116 27,700 281 450 832
2022-08-11 06:18:30 GMT 48.334072 14.230764 27,675 281 449 896
2022-08-11 06:18:26 GMT 48.333187 14.238426 27,600 281 449 1088
2022-08-11 06:18:23 GMT 48.331879 14.249338 27,550 281 449 1152
2022-08-11 06:18:20 GMT 48.330963 14.257014 27,275 281 449 1152
2022-08-11 06:18:18 GMT 48.330139 14.264057 27,450 281 448 1216
2022-08-11 06:18:15 GMT 48.328999 14.273336 27,375 281 448 1216
2022-08-11 06:18:12 GMT 48.327530 14.285748 27,350 281 448 1216
2022-08-11 06:18:09 GMT 48.326900 14.291117 27,275 281 447 1152
2022-08-11 06:18:06 GMT 48.326019 14.298706 27,250 281 447 1152
2022-08-11 06:18:03 GMT 48.324341 14.312728 27,175 281 446 1088
2022-08-11 06:18:00 GMT 48.323593 14.318707 27,150 281 446 1088
2022-08-11 06:17:58 GMT 48.322678 14.326313 27,075 281 445 1088
2022-08-11 06:17:55 GMT 48.320709 14.342722 27,025 281 445 1088
2022-08-11 06:17:52 GMT 48.319595 14.351975 26,850 281 444 1152
2022-08-11 06:17:49 GMT 48.318104 14.364624 26,900 281 444 1152
2022-08-11 06:17:46 GMT 48.317139 14.372371 26,725 281 443 1280
2022-08-11 06:17:43 GMT 48.317139 14.372371 26,775 281 443 1344
2022-08-11 06:17:40 GMT 48.316086 14.381104 26,700 281 442 1408
2022-08-11 06:17:37 GMT 48.314938 14.390644 26,650 281 442 1408
2022-08-11 06:17:34 GMT 48.314209 14.396808 26,550 281 442 1472
2022-08-11 06:17:31 GMT 48.312744 14.408921 26,500 281 442 1408
2022-08-11 06:17:28 GMT 48.311874 14.416387 26,300 281 441 1216
2022-08-11 06:17:25 GMT 48.310608 14.426784 26,350 281 438 1216
2022-08-11 06:17:22 GMT 48.309490 14.436180 26,325 281 440 1152
2022-08-11 06:17:19 GMT 48.308746 14.442179 26,275 281 440 1216
2022-08-11 06:17:16 GMT 48.307526 14.452233 26,125 281 436 1216
2022-08-11 06:17:12 GMT 48.306278 14.462561 26,100 281 438 1216
2022-08-11 06:17:08 GMT 48.304649 14.476077 26,000 281 438 1088
2022-08-11 06:17:05 GMT 48.303349 14.486775 25,850 281 437 1088
2022-08-11 06:17:02 GMT 48.302307 14.495615 25,925 281 437 1088
2022-08-11 06:16:59 GMT 48.301579 14.501736 25,900 281 437 1088
2022-08-11 06:16:57 GMT 48.300972 14.506796 25,725 281 436 1216
2022-08-11 06:16:54 GMT 48.299667 14.517204 25,725 281 435 1408
2022-08-11 06:16:51 GMT 48.298553 14.526383 25,700 281 435 1408
2022-08-11 06:16:48 GMT 48.297226 14.537518 25,625 281 435 1344
2022-08-11 06:16:45 GMT 48.295303 14.553223 25,550 281 433 1408
2022-08-11 06:16:42 GMT 48.295303 14.553223 25,500 281 434 1216
2022-08-11 06:16:39 GMT 48.294270 14.561655 25,450 281 434 1216
2022-08-11 06:16:36 GMT 48.292694 14.574491 25,375 281 433 1408
2022-08-11 06:16:32 GMT 48.291615 14.583483 25,175 281 432 1472
2022-08-11 06:16:28 GMT 48.290497 14.592590 25,225 281 432 1536
2022-08-11 06:16:25 GMT 48.289379 14.601770 25,150 281 432 1472
2022-08-11 06:16:22 GMT 48.287052 14.620851 25,000 281 429 1280
2022-08-11 06:16:19 GMT 48.287052 14.620851 25,000 281 430 1280
2022-08-11 06:16:15 GMT 48.285187 14.635972 24,850 281 430 2112
2022-08-11 06:16:12 GMT 48.284546 14.641254 24,825 281 429 1408
2022-08-11 06:16:09 GMT 48.283329 14.651353 24,750 281 428 1536
2022-08-11 06:16:07 GMT 48.282440 14.658790 24,700 281 428 1728
2022-08-11 06:16:03 GMT 48.281342 14.667523 24,375 281 428 1792
2022-08-11 06:16:00 GMT 48.280334 14.675692 24,450 281 429 1984
2022-08-11 06:15:57 GMT 48.278908 14.687564 24,250 281 430 2176
2022-08-11 06:15:54 GMT 48.278183 14.693580 24,250 281 430 2112
2022-08-11 06:15:51 GMT 48.277138 14.701875 24,200 281 430 1984
2022-08-11 06:15:48 GMT 48.275974 14.711272 24,050 281 431 1920
2022-08-11 06:15:45 GMT 48.273506 14.731220 22,725 281 433 1664
2022-08-11 06:15:42 GMT 48.273506 14.731220 23,900 281 431 1856
2022-08-11 06:15:39 GMT 48.272854 14.736786 23,775 281 432 1984
2022-08-11 06:15:36 GMT 48.271599 14.746760 23,225 281 432 2304
2022-08-11 06:15:33 GMT 48.270760 14.753844 23,575 281 432 2432
2022-08-11 06:15:30 GMT 48.269642 14.762662 23,425 281 434 1984
2022-08-11 06:15:27 GMT 48.268478 14.772130 23,400 281 434 1664
2022-08-11 06:15:24 GMT 48.267059 14.783795 23,300 281 433 1600
2022-08-11 06:15:21 GMT 48.265919 14.792729 23,200 281 433 1664
2022-08-11 06:15:18 GMT 48.264862 14.801471 23,150 281 433 1664
2022-08-11 06:15:15 GMT 48.262985 14.816364 22,925 281 432 1792
2022-08-11 06:15:12 GMT 48.262985 14.816364 23,000 281 432 1792
2022-08-11 06:15:08 GMT 48.261402 14.829302 22,850 281 432 1920
2022-08-11 06:15:05 GMT 48.259914 14.841084 22,725 281 434 2368
2022-08-11 06:15:02 GMT 48.258865 14.849783 22,600 281 433 2368
2022-08-11 06:14:58 GMT 48.257633 14.859370 22,475 281 435 2240
2022-08-11 06:14:55 GMT 48.256348 14.869573 22,250 281 435 1536
2022-08-11 06:14:52 GMT 48.255630 14.875344 22,300 281 435 1728
2022-08-11 06:14:48 GMT 48.253922 14.889080 22,175 281 435 1536
2022-08-11 06:14:45 GMT 48.252777 14.898236 22,100 281 434 1280
2022-08-11 06:14:42 GMT 48.251812 14.905845 22,050 281 434 1216
2022-08-11 06:14:37 GMT 48.250031 14.920138 21,950 281 433 1216
2022-08-11 06:14:34 GMT 48.248882 14.929408 21,875 281 432 1280
2022-08-11 06:14:30 GMT 48.247101 14.943942 21,775 281 431 1280
2022-08-11 06:14:27 GMT 48.245342 14.957886 20,975 281 429 1664
2022-08-11 06:14:25 GMT 48.245342 14.957886 21,650 281 430 1536
2022-08-11 06:14:22 GMT 48.244400 14.965351 21,525 281 429 1664
2022-08-11 06:14:19 GMT 48.243389 14.973353 21,525 281 429 1664
2022-08-11 06:14:16 GMT 48.242340 14.981689 21,450 281 429 1536
2022-08-11 06:14:12 GMT 48.240501 14.996410 21,325 281 428 1280
2022-08-11 06:14:07 GMT 48.239151 15.006891 21,250 281 427 1216
2022-08-11 06:14:04 GMT 48.237892 15.016793 21,175 281 426 1216
2022-08-11 06:14:01 GMT 48.236847 15.025071 21,125 281 425 1344
2022-08-11 06:13:57 GMT 48.235332 15.037031 21,025 281 425 1536
2022-08-11 06:13:55 GMT 48.234634 15.042813 20,925 281 424 1728
2022-08-11 06:13:52 GMT 48.233238 15.053799 20,825 281 424 1728
2022-08-11 06:13:48 GMT 48.231705 15.065942 20,750 281 424 1728
2022-08-11 06:13:45 GMT 48.230988 15.071552 20,675 281 423 1728
2022-08-11 06:13:41 GMT 48.227978 15.095576 20,500 281 423 1792
2022-08-11 06:13:37 GMT 48.227978 15.095576 20,450 281 423 1728
2022-08-11 06:13:33 GMT 48.226536 15.106779 20,325 281 422 1664
2022-08-11 06:13:29 GMT 48.224579 15.122030 20,175 281 422 1600
2022-08-11 06:13:25 GMT 48.223755 15.128737 20,150 281 421 1600
2022-08-11 06:13:21 GMT 48.222015 15.142188 19,975 281 420 1600
2022-08-11 06:13:18 GMT 48.221275 15.148050 19,875 281 420 1600
2022-08-11 06:13:15 GMT 48.220001 15.157893 19,800 281 419 1536
2022-08-11 06:13:12 GMT 48.218761 15.167782 19,750 281 419 1536
2022-08-11 06:13:09 GMT 48.218018 15.173782 19,650 281 418 1536
2022-08-11 06:13:06 GMT 48.216705 15.183880 19,600 281 418 1472
2022-08-11 06:13:03 GMT 48.215469 15.193528 19,325 281 417 1600
2022-08-11 06:13:00 GMT 48.214573 15.200452 19,475 281 416 1664
2022-08-11 06:12:56 GMT 48.212814 15.214515 19,325 281 416 1664
2022-08-11 06:12:51 GMT 48.211487 15.224656 18,975 281 414 1600
2022-08-11 06:12:48 GMT 48.210011 15.236086 19,100 281 414 1664
2022-08-11 06:12:45 GMT 48.209152 15.243037 19,050 281 414 1664
2022-08-11 06:12:39 GMT 48.207047 15.259306 18,900 281 413 1664
2022-08-11 06:12:35 GMT 48.205627 15.270574 18,675 281 412 1664
2022-08-11 06:12:32 GMT 48.204239 15.281043 18,675 281 412 1664
2022-08-11 06:12:30 GMT 48.203476 15.287123 18,475 281 411 1600
2022-08-11 06:12:27 GMT 48.202560 15.294377 18,550 281 411 1600
2022-08-11 06:12:25 GMT 48.202003 15.298679 18,500 281 411 1600
2022-08-11 06:12:22 GMT 48.200745 15.308147 18,175 281 409 1728
2022-08-11 06:12:19 GMT 48.199768 15.315953 18,175 281 409 1728
2022-08-11 06:12:15 GMT 48.198139 15.328457 18,075 281 409 1792
2022-08-11 06:12:12 GMT 48.197159 15.336139 18,100 281 408 1856
2022-08-11 06:12:09 GMT 48.196091 15.344286 17,725 281 406 1728
2022-08-11 06:12:05 GMT 48.194641 15.355577 17,850 281 407 1728
2022-08-11 06:12:02 GMT 48.193203 15.366765 17,800 281 407 1728
2022-08-11 06:11:59 GMT 48.192135 15.375077 17,700 281 405 1792
2022-08-11 06:11:56 GMT 48.191620 15.379028 17,475 281 405 1792
2022-08-11 06:11:53 GMT 48.190269 15.389677 17,550 281 405 1792
2022-08-11 06:11:50 GMT 48.189331 15.396705 17,475 281 405 1856
2022-08-11 06:11:47 GMT 48.188271 15.405073 17,375 281 404 1920
2022-08-11 06:11:44 GMT 48.187088 15.414241 17,275 281 404 1920
2022-08-11 06:11:41 GMT 48.185989 15.422636 17,175 281 404 1920
2022-08-11 06:11:37 GMT 48.184731 15.432249 16,975 282 403 1920
2022-08-11 06:11:34 GMT 48.183517 15.441707 16,950 282 403 1856
2022-08-11 06:11:30 GMT 48.182312 15.451114 16,850 282 403 1920
2022-08-11 06:11:27 GMT 48.181412 15.457834 16,775 282 402 1920
2022-08-11 06:11:24 GMT 48.180038 15.468468 16,625 282 402 2048
2022-08-11 06:11:19 GMT 48.178528 15.480229 16,475 282 402 2112
2022-08-11 06:11:16 GMT 48.177292 15.489807 16,325 278 366 1216
2022-08-11 06:11:14 GMT 48.176353 15.497011 16,275 282 401 1984
2022-08-11 06:11:10 GMT 48.175049 15.506639 16,175 282 401 2048
2022-08-11 06:11:06 GMT 48.173630 15.517555 16,025 282 400 2048
2022-08-11 06:11:04 GMT 48.172813 15.523971 15,950 282 400 1984
2022-08-11 06:11:01 GMT 48.171696 15.532355 15,850 282 400 1856
2022-08-11 06:10:58 GMT 48.169743 15.547317 15,675 282 399 1728
2022-08-11 06:10:55 GMT 48.169743 15.547317 15,675 282 399 1728
2022-08-11 06:10:53 GMT 48.169006 15.552556 15,625 282 398 1600
2022-08-11 06:10:49 GMT 48.167786 15.561917 15,475 282 396 1408
2022-08-11 06:10:46 GMT 48.166534 15.571430 15,475 282 396 1408
2022-08-11 06:10:43 GMT 48.165413 15.579914 15,375 282 394 1664
2022-08-11 06:10:40 GMT 48.163559 15.594177 15,250 282 393 1920
2022-08-11 06:10:37 GMT 48.163559 15.594177 15,100 282 393 1920
2022-08-11 06:10:34 GMT 48.162231 15.604318 15,100 282 393 1920
2022-08-11 06:10:32 GMT 48.161877 15.607163 15,100 282 392 1856
2022-08-11 06:10:28 GMT 48.160339 15.618826 14,950 282 391 1792
2022-08-11 06:10:25 GMT 48.158058 15.636080 14,750 282 390 1984
2022-08-11 06:10:22 GMT 48.158058 15.636080 14,725 282 390 1984
2022-08-11 06:10:19 GMT 48.157127 15.642982 14,550 282 389 2112
2022-08-11 06:10:15 GMT 48.155640 15.654419 14,475 282 389 2112
2022-08-11 06:10:12 GMT 48.154770 15.661011 13,950 282 387 1920
2022-08-11 06:10:08 GMT 48.153397 15.671310 13,900 282 387 1920
2022-08-11 06:10:05 GMT 48.151913 15.682490 13,500 278 366 1216
2022-08-11 06:10:02 GMT 48.151245 15.687584 14,050 282 386 1984
2022-08-11 06:09:57 GMT 48.149368 15.702003 13,700 282 385 2048
2022-08-11 06:09:51 GMT 48.147583 15.715324 13,625 282 383 1984
2022-08-11 06:09:48 GMT 48.146420 15.724323 13,500 282 383 1920
2022-08-11 06:09:45 GMT 48.144138 15.741155 13,425 282 383 1984
2022-08-11 06:09:42 GMT 48.143021 15.749817 13,300 282 382 2048
2022-08-11 06:09:38 GMT 48.143021 15.749817 13,175 282 382 1920
2022-08-11 06:09:35 GMT 48.141857 15.758620 13,125 281 380 1920
2022-08-11 06:09:31 GMT 48.140739 15.767001 12,900 279 379 2240
2022-08-11 06:09:28 GMT 48.139435 15.778269 12,900 279 379 2048
2022-08-11 06:09:24 GMT 48.138691 15.785029 12,800 279 380 2176
2022-08-11 06:09:21 GMT 48.137741 15.794769 12,625 278 378 2112
2022-08-11 06:09:16 GMT 48.136368 15.809807 12,450 278 379 2176
2022-08-11 06:09:13 GMT 48.136131 15.812566 12,400 278 378 2176
2022-08-11 06:09:11 GMT 48.134548 15.830383 12,075 278 377 2176
2022-08-11 06:09:08 GMT 48.134548 15.830383 12,150 278 377 2112
2022-08-11 06:09:05 GMT 48.133347 15.843727 12,050 278 377 2112
2022-08-11 06:09:02 GMT 48.133347 15.843727 11,975 278 376 2112
2022-08-11 06:08:58 GMT 48.132221 15.856722 11,800 278 375 2112
2022-08-11 06:08:55 GMT 48.131756 15.861582 11,475 278 374 2048
2022-08-11 06:08:51 GMT 48.130592 15.874681 11,550 278 373 1984
2022-08-11 06:08:46 GMT 48.129639 15.884789 11,450 278 370 1664
2022-08-11 06:08:43 GMT 48.128265 15.899757 11,075 278 362 960
2022-08-11 06:08:40 GMT 48.128265 15.899757 11,075 278 362 960
2022-08-11 06:08:36 GMT 48.126728 15.916513 11,150 278 363 1024
2022-08-11 06:08:33 GMT 48.126728 15.916513 11,100 278 362 960
2022-08-11 06:08:30 GMT 48.125935 15.925035 11,075 278 361 960
2022-08-11 06:08:26 GMT 48.124401 15.941796 11,000 279 357 1024
2022-08-11 06:08:23 GMT 48.124401 15.941796 10,850 278 356 960
2022-08-11 06:08:19 GMT 48.123608 15.950317 10,325 278 328 1024
2022-08-11 06:08:16 GMT 48.122723 15.959473 10,850 279 349 960
2022-08-11 06:08:13 GMT 48.121372 15.974332 10,775 278 345 960
2022-08-11 06:08:10 GMT 48.121372 15.974332 10,750 278 343 960
2022-08-11 06:08:07 GMT 48.120438 15.983734 10,675 278 339 1024
2022-08-11 06:08:03 GMT 48.119019 15.999252 10,600 278 335 1024
2022-08-11 06:08:00 GMT 48.119019 15.999252 10,325 278 328 1024
2022-08-11 06:07:55 GMT 48.118256 16.007996 10,475 278 327 1024
2022-08-11 06:07:52 GMT 48.117737 16.013329 10,450 278 327 1024
2022-08-11 06:07:49 GMT 48.116959 16.022324 10,325 278 318 1024
2022-08-11 06:07:45 GMT 48.116253 16.030392 10,275 278 318 1024
2022-08-11 06:07:42 GMT 48.115768 16.035988 10,275 278 318 1024
2022-08-11 06:07:39 GMT 48.115089 16.044193 10,025 278 309 1024
2022-08-11 06:07:35 GMT 48.113926 16.058138 10,125 277 306 1088
2022-08-11 06:07:32 GMT 48.113926 16.058138 10,075 277 306 1088
2022-08-11 06:07:29 GMT 48.113132 16.067364 10,025 277 304 1088
2022-08-11 06:07:25 GMT 48.112530 16.074900 9,975 278 300 1152
2022-08-11 06:07:21 GMT 48.111786 16.083778 9,875 278 296 1472
2022-08-11 06:07:18 GMT 48.111412 16.087999 9,525 278 288 1472
2022-08-11 06:07:15 GMT 48.110806 16.095041 9,700 278 293 1600
2022-08-11 06:07:12 GMT 48.110390 16.099831 9,625 278 290 1664
2022-08-11 06:07:09 GMT 48.109688 16.107647 9,525 278 288 1472
2022-08-11 06:07:05 GMT 48.109177 16.113422 9,450 278 286 1536
2022-08-11 06:07:02 GMT 48.108582 16.119965 9,400 278 284 1728
2022-08-11 06:06:58 GMT 48.107941 16.127174 9,125 278 280 2240
2022-08-11 06:06:55 GMT 48.107361 16.133072 9,100 278 281 2240
2022-08-11 06:06:52 GMT 48.106384 16.143585 9,000 278 280 2240
2022-08-11 06:06:49 GMT 48.106384 16.143585 8,875 279 279 2112
2022-08-11 06:06:46 GMT 48.105560 16.152237 8,750 278 278 2240
2022-08-11 06:06:43 GMT 48.104507 16.163704 8,650 278 278 2368
2022-08-11 06:06:40 GMT 48.104507 16.163704 8,575 278 278 2496
2022-08-11 06:06:37 GMT 48.104195 16.167368 8,475 278 277 2560
2022-08-11 06:06:34 GMT 48.103500 16.174896 8,300 278 277 2624
2022-08-11 06:06:31 GMT 48.103180 16.178673 8,175 278 277 2624
2022-08-11 06:06:28 GMT 48.102676 16.184578 8,000 277 276 2560
2022-08-11 06:06:25 GMT 48.102173 16.190277 7,900 277 276 2560
2022-08-11 06:06:22 GMT 48.101685 16.195890 7,775 276 277 2560
2022-08-11 06:06:19 GMT 48.101212 16.201881 7,600 274 275 2624
2022-08-11 06:06:16 GMT 48.100845 16.207792 7,525 274 276 2688
2022-08-11 06:06:13 GMT 48.100571 16.213417 7,375 272 277 2624
2022-08-11 06:06:10 GMT 48.100433 16.219185 7,225 272 276 2624
2022-08-11 06:06:07 GMT 48.100330 16.224764 5,750 272 276 2624
2022-08-11 06:06:03 GMT 48.100193 16.232794 6,975 272 275 2624
2022-08-11 06:05:59 GMT 48.100052 16.241173 6,775 272 275 2624
2022-08-11 06:05:56 GMT 48.099960 16.246454 6,675 272 275 2624
2022-08-11 06:05:52 GMT 48.099838 16.253929 6,500 272 274 2688
2022-08-11 06:05:48 GMT 48.099701 16.262306 6,275 272 274 2816
2022-08-11 06:05:45 GMT 48.099586 16.266739 6,175 272 274 3008
2022-08-11 06:05:41 GMT 48.099518 16.273430 5,900 272 275 3008
2022-08-11 06:05:38 GMT 48.099400 16.280190 5,700 272 275 2816
2022-08-11 06:05:35 GMT 48.099171 16.291388 5,650 272 275 2752
2022-08-11 06:05:32 GMT 48.099171 16.291388 5,475 272 275 2624
2022-08-11 06:05:29 GMT 48.099121 16.296881 5,425 272 274 2624
2022-08-11 06:05:25 GMT 48.098969 16.305496 5,225 272 273 2560
2022-08-11 06:05:21 GMT 48.098888 16.311810 5,075 272 273 2560
2022-08-11 06:05:18 GMT 48.098785 16.319435 4,900 272 271 2560
2022-08-11 06:05:14 GMT 48.098648 16.329735 4,725 272 271 2560
2022-08-11 06:05:11 GMT 48.098602 16.335297 4,625 271 270 2688
2022-08-11 06:05:08 GMT 48.098564 16.341530 4,400 271 270 3136
2022-08-11 06:05:05 GMT 48.098564 16.341530 4,375 271 270 3136
2022-08-11 06:05:02 GMT 48.098518 16.348080 4,150 271 270 3200
2022-08-11 06:04:59 GMT 48.098465 16.353355 3,850 269 272 2880
2022-08-11 06:04:56 GMT 48.098469 16.357939 3,850 269 272 2880
2022-08-11 06:04:53 GMT 48.098423 16.363361 3,725 267 271 2752
2022-08-11 06:04:50 GMT 48.098602 16.369286 3,025 264 271 2624
2022-08-11 06:04:46 GMT 48.099197 16.377800 3,375 256 265 1920
2022-08-11 06:04:42 GMT 48.100067 16.384117 3,300 256 263 1728
2022-08-11 06:04:39 GMT 48.101215 16.391178 3,225 256 262 1536
2022-08-11 06:04:36 GMT 48.102009 16.395758 3,100 256 252 1024
2022-08-11 06:04:31 GMT 48.103592 16.405052 3,075 256 250 1088
2022-08-11 06:04:28 GMT 48.104195 16.408434 3,025 256 247 960
2022-08-11 06:04:24 GMT 48.105312 16.414843 2,975 256 237 320
2022-08-11 06:04:20 GMT 48.106430 16.421402 2,950 256 233 384
2022-08-11 06:04:16 GMT 48.107876 16.429350 2,850 255 225 1152
2022-08-11 06:04:12 GMT 48.108807 16.434490 2,825 255 222 1216
2022-08-11 06:04:08 GMT 48.109818 16.440079 2,750 255 219 1152
2022-08-11 06:04:04 GMT 48.110901 16.445971 2,675 256 216 1152
2022-08-11 06:04:00 GMT 48.112152 16.452988 2,575 256 211 1152
2022-08-11 06:03:57 GMT 48.112530 16.455196 2,550 256 209 1152
2022-08-11 06:03:54 GMT 48.113297 16.459442 2,500 256 207 1152
2022-08-11 06:03:50 GMT 48.114437 16.465759 2,400 255 203 1088
2022-08-11 06:03:47 GMT 48.114990 16.468849 2,375 255 200 1088
2022-08-11 06:03:44 GMT 48.115833 16.473436 2,300 255 198 1088
2022-08-11 06:03:38 GMT 48.117512 16.482874 2,175 256 192 1088
2022-08-11 06:03:35 GMT 48.118210 16.486887 2,025 257 186 1088
2022-08-11 06:03:31 GMT 48.118999 16.491323 2,050 257 186 1088
2022-08-11 06:03:27 GMT 48.119606 16.495197 2,000 257 182 1024
2022-08-11 06:03:24 GMT 48.120258 16.499210 1,925 258 181 1152
2022-08-11 06:03:20 GMT 48.120956 16.504141 1,825 261 175 1344
2022-08-11 06:03:17 GMT 48.121445 16.507713 1,775 261 175 1344
2022-08-11 06:03:11 GMT 48.122269 16.515335 1,625 263 172 1600
2022-08-11 06:03:08 GMT 48.122543 16.518562 1,550 263 171 1600
2022-08-11 06:03:05 GMT 48.122818 16.521858 1,475 268 165 1472
2022-08-11 06:03:01 GMT 48.123001 16.527662 1,325 277 162 2368
2022-08-11 06:02:57 GMT 48.122818 16.530853 1,200 288 161 2496
2022-08-11 06:02:53 GMT 48.122086 16.535110 1,025 294 162 2624
2022-08-11 06:02:46 GMT 48.119980 16.542101 725 297 168 2624
2022-08-11 06:02:43 GMT 48.118580 16.546326 525 297 168 2624
2022-08-11 06:01:37 GMT 48.109165 16.575430 0 225 7
2022-08-11 06:01:26 GMT 48.109509 16.575794 0 205 10
2022-08-11 06:00:34 GMT 48.111679 16.574003 0 115 21
2022-08-11 06:00:10 GMT 48.112728 16.570816 0 115 22
2022-08-11 06:00:09 GMT 48.112808 16.570570 0 115 21
2022-08-11 05:59:39 GMT 48.113995 16.566902 0 115 20
2022-08-11 05:59:29 GMT 48.114407 16.565649 0 115 20
2022-08-11 05:59:14 GMT 48.114986 16.563879 0 115 20
2022-08-11 05:58:42 GMT 48.116230 16.560041 0 115 18
We lost coverage of the aircraft here for a total of 66 minutes
2022-08-11 04:53:04 GMT 48.108215 16.578232 400 296 145 -640
2022-08-11 04:52:55 GMT 48.106663 16.583017 450 296 146 -768
2022-08-11 04:52:46 GMT 48.103638 16.592239 600 297 150 -832
2022-08-11 04:52:35 GMT 48.100525 16.601784 725 297 150 -768
2022-08-11 04:52:31 GMT 48.099335 16.605423 800 296 150 -640
2022-08-11 04:52:28 GMT 48.098465 16.608101 825 296 150 -640
2022-08-11 04:52:25 GMT 48.097538 16.610975 875 297 152 -768
2022-08-11 04:52:22 GMT 48.096561 16.614004 925 297 159 -832
2022-08-11 04:52:17 GMT 48.094887 16.619217 1,000 297 159 -832
2022-08-11 04:52:13 GMT 48.093395 16.623653 1,050 296 163 -1024
2022-08-11 04:52:09 GMT 48.092045 16.627808 1,125 296 163 -1024
2022-08-11 04:52:05 GMT 48.090790 16.631750 1,175 296 164 -960
2022-08-11 04:52:00 GMT 48.089626 16.635344 1,250 296 165 -960
2022-08-11 04:51:57 GMT 48.088463 16.638794 1,300 296 167 -960
2022-08-11 04:51:54 GMT 48.087437 16.642035 1,350 296 169 -896
2022-08-11 04:51:51 GMT 48.086182 16.645836 1,375 296 173 -896
2022-08-11 04:51:46 GMT 48.084644 16.650555 1,450 296 178 -960
2022-08-11 04:51:38 GMT 48.081573 16.659922 1,550 297 187 -960
2022-08-11 04:51:35 GMT 48.080643 16.662668 1,600 297 190 -1088
2022-08-11 04:51:31 GMT 48.076916 16.674076 1,750 296 199 -960
2022-08-11 04:51:26 GMT 48.076916 16.674076 1,775 297 201 -768
2022-08-11 04:51:20 GMT 48.074112 16.682739 1,975 296 207 -1088
2022-08-11 04:51:15 GMT 48.072540 16.687387 1,975 296 210 -1024
2022-08-11 04:51:10 GMT 48.070221 16.694550 2,250 296 220 -1536
2022-08-11 04:51:06 GMT 48.068398 16.700134 2,300 297 220 -1472
2022-08-11 04:51:03 GMT 48.067245 16.703613 2,175 296 219 -1408
2022-08-11 04:51:00 GMT 48.065323 16.709587 2,300 296 220 -1536
2022-08-11 04:50:57 GMT 48.064674 16.711542 2,375 296 220 -1600
2022-08-11 04:50:54 GMT 48.063080 16.716385 2,425 296 220 -1536
2022-08-11 04:50:50 GMT 48.061295 16.721878 2,525 296 220 -1408
2022-08-11 04:50:46 GMT 48.059418 16.727715 2,600 297 222 -896
2022-08-11 04:50:40 GMT 48.056805 16.735558 2,750 297 226 -832
2022-08-11 04:50:35 GMT 48.054062 16.743797 2,750 297 227 -512
2022-08-11 04:50:32 GMT 48.053127 16.746614 2,750 297 227 -256
2022-08-11 04:50:29 GMT 48.051773 16.750580 2,750 297 227 0
2022-08-11 04:50:26 GMT 48.049942 16.755936 2,750 298 228 0
2022-08-11 04:50:23 GMT 48.048523 16.760124 2,750 298 230 0
2022-08-11 04:50:19 GMT 48.045074 16.770138 2,750 298 238 64
2022-08-11 04:50:15 GMT 48.045074 16.770138 2,750 298 238 64
2022-08-11 04:50:12 GMT 48.043533 16.774544 2,750 298 241 64
2022-08-11 04:50:08 GMT 48.041443 16.780489 2,750 299 247 -128
2022-08-11 04:50:05 GMT 48.039909 16.784857 2,750 299 247 -64
2022-08-11 04:50:02 GMT 48.038231 16.789503 2,750 301 247 128
2022-08-11 04:49:58 GMT 48.035385 16.796791 2,750 304 250 -64
2022-08-11 04:49:55 GMT 48.033855 16.800348 2,800 312 321 0
2022-08-11 04:49:50 GMT 48.030670 16.806610 2,800 311 257 -576
2022-08-11 04:49:47 GMT 48.027969 16.811348 2,825 312 260 -832
2022-08-11 04:49:44 GMT 48.026176 16.814363 2,850 312 260 -832
2022-08-11 04:49:37 GMT 48.020233 16.824463 2,975 312 265 -1024
2022-08-11 04:49:34 GMT 48.017700 16.828800 3,025 312 266 -960
2022-08-11 04:49:28 GMT 48.009975 16.842041 3,175 311 277 -896
2022-08-11 04:49:25 GMT 48.009975 16.842041 3,175 311 277 -896
2022-08-11 04:49:21 GMT 48.006042 16.848770 3,225 311 284 -832
2022-08-11 04:49:17 GMT 48.003597 16.852957 3,300 311 289 -640
2022-08-11 04:49:14 GMT 48.001053 16.857353 3,300 311 292 -512
2022-08-11 04:49:11 GMT 47.998428 16.861830 3,325 311 297 -384
2022-08-11 04:49:07 GMT 47.994705 16.868311 3,350 311 304 -192
2022-08-11 04:49:04 GMT 47.991989 16.872940 3,375 311 309 -192
2022-08-11 04:49:00 GMT 47.988144 16.879532 3,400 312 316 -896
2022-08-11 04:48:56 GMT 47.984344 16.886055 3,450 312 318 -896
2022-08-11 04:48:53 GMT 47.981323 16.891205 3,500 312 319 -960
2022-08-11 04:48:50 GMT 47.978622 16.895874 3,575 312 323 -960
2022-08-11 04:48:47 GMT 47.976223 16.899931 3,625 312 325 -960
2022-08-11 04:48:44 GMT 47.972641 16.905987 3,650 312 330 -1216
2022-08-11 04:48:37 GMT 47.965942 16.917503 3,825 312 331 -1344
2022-08-11 04:48:34 GMT 47.962631 16.923100 3,850 312 333 -1472
2022-08-11 04:48:26 GMT 47.951782 16.941622 4,100 312 338 -1408
2022-08-11 04:48:23 GMT 47.951782 16.941622 4,100 312 338 -1408
2022-08-11 04:48:18 GMT 47.946716 16.950325 4,450 311 340 -1408
2022-08-11 04:48:14 GMT 47.941261 16.959721 4,475 311 343 -1408
2022-08-11 04:48:06 GMT 47.933258 16.973385 4,550 311 348 -1408
2022-08-11 04:48:03 GMT 47.926369 16.985146 4,675 311 349 -1472
2022-08-11 04:47:59 GMT 47.926369 16.985146 4,675 311 351 -1408
2022-08-11 04:47:56 GMT 47.922684 16.991455 4,775 311 354 -1472
2022-08-11 04:47:53 GMT 47.920406 16.995358 4,950 311 357 -1536
2022-08-11 04:47:50 GMT 47.916229 17.002510 4,925 312 357 -1536
2022-08-11 04:47:46 GMT 47.912495 17.008879 5,025 312 360 -1600
2022-08-11 04:47:43 GMT 47.909134 17.014595 5,075 312 362 -1728
2022-08-11 04:47:39 GMT 47.904877 17.021942 5,200 312 363 -1856
2022-08-11 04:47:35 GMT 47.899181 17.031626 5,375 311 362 -2112
2022-08-11 04:47:32 GMT 47.894058 17.040289 5,450 312 363 -1664
2022-08-11 04:47:29 GMT 47.894058 17.040289 5,525 312 363 -1664
2022-08-11 04:47:26 GMT 47.890045 17.047142 5,700 312 365 -1216
2022-08-11 04:47:23 GMT 47.886147 17.053740 5,675 312 365 -960
2022-08-11 04:47:18 GMT 47.881393 17.061905 5,725 312 366 -576
2022-08-11 04:47:13 GMT 47.876091 17.070923 5,775 312 367 -128
2022-08-11 04:47:10 GMT 47.871853 17.078106 5,775 312 367 0
2022-08-11 04:47:05 GMT 47.866974 17.086418 5,775 312 367 0
2022-08-11 04:47:02 GMT 47.863632 17.092117 5,775 312 367 0
2022-08-11 04:46:57 GMT 47.857727 17.102142 5,775 312 367 0
2022-08-11 04:46:53 GMT 47.853928 17.108597 5,775 312 367 0
2022-08-11 04:46:50 GMT 47.850449 17.114502 5,775 312 367 0
2022-08-11 04:46:45 GMT 47.844669 17.124306 5,775 312 367 0
2022-08-11 04:46:42 GMT 47.841549 17.129658 5,775 312 367 0
2022-08-11 04:46:39 GMT 47.838776 17.134277 5,750 312 367 0
2022-08-11 04:46:35 GMT 47.833820 17.142757 5,775 312 367 0
2022-08-11 04:46:32 GMT 47.830563 17.148251 5,750 312 367 0
2022-08-11 04:46:29 GMT 47.827255 17.153954 5,750 312 367 0
2022-08-11 04:46:23 GMT 47.820553 17.165363 5,750 312 367 0
2022-08-11 04:46:19 GMT 47.816437 17.172318 5,750 312 367 0
2022-08-11 04:46:12 GMT 47.808243 17.186256 5,750 312 367 0
2022-08-11 04:46:09 GMT 47.805145 17.191490 5,750 312 369 0
2022-08-11 04:46:05 GMT 47.800674 17.199097 5,750 312 369 0
2022-08-11 04:46:02 GMT 47.797348 17.204659 5,750 312 369 -64
2022-08-11 04:45:58 GMT 47.791443 17.214615 5,775 312 369 0
2022-08-11 04:45:53 GMT 47.786430 17.223042 5,775 312 367 -128
2022-08-11 04:45:50 GMT 47.782566 17.229591 5,775 312 367 -128
2022-08-11 04:45:47 GMT 47.773537 17.244944 5,775 312 367 -128
2022-08-11 04:45:42 GMT 47.773537 17.244944 5,800 312 367 -320
2022-08-11 04:45:39 GMT 47.770844 17.249565 5,800 312 367 -704
2022-08-11 04:45:32 GMT 47.763611 17.261925 5,925 312 367 -960
2022-08-11 04:45:28 GMT 47.758408 17.270720 5,975 312 369 -2688
2022-08-11 04:45:22 GMT 47.752399 17.281000 6,150 312 367 -1088
2022-08-11 04:45:19 GMT 47.747086 17.289940 6,150 312 366 -1088
2022-08-11 04:45:15 GMT 47.743092 17.296705 6,225 312 366 -1152
2022-08-11 04:45:12 GMT 47.736526 17.307762 6,375 312 364 -1152
2022-08-11 04:45:09 GMT 47.729824 17.319031 6,450 312 364 -1088
2022-08-11 04:45:02 GMT 47.729824 17.319031 6,450 312 364 -1472
2022-08-11 04:44:58 GMT 47.724976 17.327225 6,575 312 364 -1728
2022-08-11 04:44:53 GMT 47.719349 17.336637 7,075 312 365 -2304
2022-08-11 04:44:50 GMT 47.715160 17.343679 6,850 312 366 -2432
2022-08-11 04:44:46 GMT 47.710876 17.350933 7,075 312 366 -2560
2022-08-11 04:44:43 GMT 47.704559 17.361557 7,625 312 369 -2688
2022-08-11 04:44:40 GMT 47.704559 17.361557 7,250 312 367 -2624
2022-08-11 04:44:37 GMT 47.701675 17.366501 7,500 312 367 -2496
2022-08-11 04:44:34 GMT 47.697468 17.373610 7,500 312 367 -2496
2022-08-11 04:44:31 GMT 47.694675 17.378328 7,625 312 368 -2624
2022-08-11 04:44:28 GMT 47.690781 17.384903 7,900 312 369 -2752
2022-08-11 04:44:22 GMT 47.684200 17.396006 8,050 312 369 -2624
2022-08-11 04:44:19 GMT 47.681213 17.401108 8,150 312 369 -2752
2022-08-11 04:44:15 GMT 47.676819 17.408524 8,325 312 370 -2816
2022-08-11 04:44:12 GMT 47.672703 17.415443 8,500 312 370 -2880
2022-08-11 04:44:05 GMT 47.662788 17.431993 8,925 312 371 -2496
2022-08-11 04:44:02 GMT 47.662788 17.431993 8,900 312 373 -2304
2022-08-11 04:43:59 GMT 47.657249 17.441290 9,075 312 374 -1984
2022-08-11 04:43:56 GMT 47.655106 17.444811 9,200 312 376 -1792
2022-08-11 04:43:51 GMT 47.649628 17.453979 9,300 312 379 -1408
2022-08-11 04:43:48 GMT 47.646076 17.459881 9,350 312 381 -1408
2022-08-11 04:43:45 GMT 47.641434 17.467575 9,425 312 381 -1664
2022-08-11 04:43:39 GMT 47.636169 17.476364 9,775 312 384 -1024
2022-08-11 04:43:36 GMT 47.631413 17.484320 9,625 312 384 -1024
2022-08-11 04:43:33 GMT 47.629177 17.488050 9,675 312 384 -1088
2022-08-11 04:43:30 GMT 47.624615 17.495728 9,750 312 385 -576
2022-08-11 04:43:27 GMT 47.619827 17.503761 9,750 312 386 -256
2022-08-11 04:43:24 GMT 47.612595 17.515846 9,775 312 386 -64
2022-08-11 04:43:20 GMT 47.610184 17.519955 9,775 312 386 0
2022-08-11 04:43:17 GMT 47.610184 17.519955 9,775 312 386 0
2022-08-11 04:43:13 GMT 47.604736 17.529108 9,775 312 386 0
2022-08-11 04:43:10 GMT 47.601665 17.534250 9,775 312 386 0
2022-08-11 04:43:07 GMT 47.596962 17.542137 9,775 312 386 0
2022-08-11 04:43:04 GMT 47.594650 17.546059 9,750 312 381 -64
2022-08-11 04:43:00 GMT 47.584030 17.563843 9,750 312 386 0
2022-08-11 04:42:56 GMT 47.581055 17.568787 9,775 312 386 0
2022-08-11 04:42:53 GMT 47.581055 17.568787 9,750 312 386 0
2022-08-11 04:42:48 GMT 47.575920 17.577421 9,750 312 386 0
2022-08-11 04:42:44 GMT 47.569172 17.588690 9,750 312 386 0
2022-08-11 04:42:39 GMT 47.561417 17.601608 9,750 312 385 0
2022-08-11 04:42:36 GMT 47.561417 17.601608 9,750 312 385 0
2022-08-11 04:42:32 GMT 47.556702 17.609436 9,750 312 383 0
2022-08-11 04:42:29 GMT 47.551849 17.617470 9,750 312 383 0
2022-08-11 04:42:25 GMT 47.543800 17.630873 9,750 312 377 -64
2022-08-11 04:42:21 GMT 47.543800 17.630873 9,750 312 377 -64
2022-08-11 04:42:17 GMT 47.539169 17.638481 9,775 312 374 -64
2022-08-11 04:42:13 GMT 47.534164 17.646860 9,775 312 369 -64
2022-08-11 04:42:08 GMT 47.528870 17.655647 9,775 312 366 0
2022-08-11 04:42:05 GMT 47.524529 17.662846 9,750 312 363 64
2022-08-11 04:42:02 GMT 47.521591 17.667732 9,750 312 363 64
2022-08-11 04:41:58 GMT 47.517963 17.673761 9,750 312 363 0
2022-08-11 04:41:55 GMT 47.510422 17.686369 9,750 312 363 0
2022-08-11 04:41:52 GMT 47.510422 17.686369 9,750 312 363 0
2022-08-11 04:41:46 GMT 47.503235 17.698357 9,750 312 363 0
2022-08-11 04:41:43 GMT 47.499664 17.704330 9,750 312 364 0
2022-08-11 04:41:38 GMT 47.494171 17.713394 9,775 312 364 -64
2022-08-11 04:41:35 GMT 47.491428 17.717918 9,775 312 364 -64
2022-08-11 04:41:32 GMT 47.488586 17.722664 9,775 312 364 -64
2022-08-11 04:41:29 GMT 47.484558 17.729393 9,775 312 364 -256
2022-08-11 04:41:26 GMT 47.481354 17.734749 9,800 312 364 -192
2022-08-11 04:41:23 GMT 47.476959 17.742027 9,825 312 364 -320
2022-08-11 04:41:20 GMT 47.475227 17.744892 9,825 312 364 -320
2022-08-11 04:41:17 GMT 47.471317 17.751371 9,850 312 364 -768
2022-08-11 04:41:14 GMT 47.467175 17.758272 9,900 312 364 -896
2022-08-11 04:41:11 GMT 47.464966 17.761871 9,925 312 365 -1088
2022-08-11 04:41:07 GMT 47.460022 17.770042 10,725 312 374 -2240
2022-08-11 04:41:03 GMT 47.455902 17.776978 10,100 312 366 -1728
2022-08-11 04:41:00 GMT 47.452377 17.782745 10,200 312 367 -1920
2022-08-11 04:40:57 GMT 47.448578 17.789131 10,325 312 369 -1920
2022-08-11 04:40:51 GMT 47.442966 17.798414 10,475 312 370 -1984
2022-08-11 04:40:45 GMT 47.435429 17.810881 10,700 312 371 -1984
2022-08-11 04:40:42 GMT 47.431137 17.817970 10,825 312 373 -2112
2022-08-11 04:40:35 GMT 47.424580 17.828909 11,200 312 394 -1088
2022-08-11 04:40:31 GMT 47.419415 17.837502 11,200 312 375 -2240
2022-08-11 04:40:24 GMT 47.411175 17.851093 11,475 312 377 -1920
2022-08-11 04:40:21 GMT 47.407726 17.856869 11,525 312 378 -1856
2022-08-11 04:40:13 GMT 47.398544 17.872078 11,750 312 382 -1600
2022-08-11 04:40:10 GMT 47.395576 17.877008 11,825 312 384 -1408
2022-08-11 04:40:05 GMT 47.388687 17.888418 11,925 312 390 -960
2022-08-11 04:40:00 GMT 47.383713 17.896591 12,000 312 393 -1024
2022-08-11 04:39:54 GMT 47.374100 17.912453 12,150 312 398 -1216
2022-08-11 04:39:51 GMT 47.371094 17.917435 12,225 312 401 -1408
2022-08-11 04:39:43 GMT 47.362152 17.932081 12,475 312 403 -2880
2022-08-11 04:39:40 GMT 47.358032 17.938957 12,625 312 403 -2880
2022-08-11 04:39:33 GMT 47.350342 17.952072 12,950 310 404 -3008
2022-08-11 04:39:30 GMT 47.346325 17.959476 14,025 306 405 -3008
2022-08-11 04:39:24 GMT 47.338577 17.975212 13,450 303 408 -2496
2022-08-11 04:39:21 GMT 47.336517 17.979813 13,550 303 408 -2496
2022-08-11 04:39:17 GMT 47.332500 17.989056 13,700 302 409 -2304
2022-08-11 04:39:11 GMT 47.327133 18.001991 13,950 302 411 -2432
2022-08-11 04:39:08 GMT 47.324215 18.009056 14,800 302 415 -2816
2022-08-11 04:39:01 GMT 47.316696 18.027122 14,400 302 414 -2624
2022-08-11 04:38:58 GMT 47.313507 18.034691 14,950 302 415 -2816
2022-08-11 04:38:54 GMT 47.308899 18.045677 14,700 302 414 -2816
2022-08-11 04:38:50 GMT 47.305252 18.054451 14,875 302 415 -2816
2022-08-11 04:38:47 GMT 47.302551 18.060974 15,000 302 415 -2816
2022-08-11 04:38:43 GMT 47.298378 18.070959 15,250 302 416 -2688
2022-08-11 04:38:40 GMT 47.295349 18.078215 15,450 302 416 -2688
2022-08-11 04:38:37 GMT 47.292835 18.084200 15,450 302 417 -2624
2022-08-11 04:38:32 GMT 47.287445 18.097160 15,750 302 418 -2624
2022-08-11 04:38:29 GMT 47.283760 18.106031 15,825 302 419 -2624
2022-08-11 04:38:23 GMT 47.278244 18.119270 16,075 302 421 -2688
2022-08-11 04:38:19 GMT 47.274078 18.129295 16,250 302 421 -2624
2022-08-11 04:38:16 GMT 47.271423 18.135612 16,325 302 429 -2496
2022-08-11 04:38:11 GMT 47.266434 18.147629 16,700 302 423 -2752
2022-08-11 04:38:08 GMT 47.262997 18.155823 16,750 302 423 -2816
2022-08-11 04:38:01 GMT 47.255920 18.172794 17,050 302 425 -2752
2022-08-11 04:37:58 GMT 47.253315 18.178923 17,250 302 426 -2752
2022-08-11 04:37:55 GMT 47.249451 18.188141 17,350 302 426 -2688
2022-08-11 04:37:52 GMT 47.245586 18.197445 17,500 302 430 -2496
2022-08-11 04:37:49 GMT 47.240326 18.210051 17,700 302 429 -2624
2022-08-11 04:37:46 GMT 47.240326 18.210051 17,725 302 429 -2496
2022-08-11 04:37:43 GMT 47.237366 18.217186 17,900 302 433 -2688
2022-08-11 04:37:40 GMT 47.234344 18.224396 17,975 302 431 -2496
2022-08-11 04:37:37 GMT 47.230270 18.234077 18,125 302 433 -2560
2022-08-11 04:37:34 GMT 47.227665 18.240263 18,250 302 433 -2560
2022-08-11 04:37:30 GMT 47.223404 18.250351 18,500 302 435 -2624
2022-08-11 04:37:27 GMT 47.220634 18.257025 18,750 302 436 -2560
2022-08-11 04:37:22 GMT 47.215393 18.269508 18,750 302 436 -2560
2022-08-11 04:37:19 GMT 47.211185 18.279490 19,150 302 441 -2944
2022-08-11 04:37:16 GMT 47.209042 18.284559 19,000 302 440 -2624
2022-08-11 04:37:10 GMT 47.202667 18.299843 19,375 302 442 -2944
2022-08-11 04:37:07 GMT 47.198959 18.308647 19,450 302 442 -2944
2022-08-11 04:37:00 GMT 47.188095 18.334633 19,875 302 444 -2880
2022-08-11 04:36:57 GMT 47.188095 18.334633 19,950 302 445 -2816
2022-08-11 04:36:49 GMT 47.179764 18.354422 20,300 302 448 -2560
2022-08-11 04:36:46 GMT 47.176598 18.361958 20,350 302 448 -2560
2022-08-11 04:36:40 GMT 47.170074 18.377312 20,675 302 451 -2688
2022-08-11 04:36:36 GMT 47.165680 18.387749 20,850 302 452 -2752
2022-08-11 04:36:30 GMT 47.159180 18.403542 21,200 300 456 -2752
2022-08-11 04:36:27 GMT 47.156021 18.411507 21,550 299 459 -3008
2022-08-11 04:36:24 GMT 47.153000 18.419334 21,550 299 459 -3008
2022-08-11 04:36:20 GMT 47.143799 18.444260 21,775 298 460 -3072
2022-08-11 04:36:16 GMT 47.143799 18.444260 21,875 298 461 -3136
2022-08-11 04:36:11 GMT 47.138809 18.458405 22,150 298 462 -3264
2022-08-11 04:36:08 GMT 47.136189 18.465694 22,300 298 462 -3136
2022-08-11 04:36:05 GMT 47.134277 18.471176 22,375 298 463 -3072
2022-08-11 04:36:00 GMT 47.129013 18.485939 22,800 298 465 -2880
2022-08-11 04:35:55 GMT 47.123978 18.500221 22,900 298 467 -2752
2022-08-11 04:35:49 GMT 47.118641 18.515202 23,625 298 470 -3776
2022-08-11 04:35:45 GMT 47.113953 18.528374 23,400 298 470 -3456
2022-08-11 04:35:40 GMT 47.109001 18.542316 23,700 298 470 -3904
2022-08-11 04:35:36 GMT 47.105209 18.552887 24,025 298 470 -4096
2022-08-11 04:35:33 GMT 47.102112 18.561543 24,175 298 470 -4352
2022-08-11 04:35:30 GMT 47.099350 18.569229 24,450 298 467 -4800
2022-08-11 04:35:27 GMT 47.096340 18.577669 24,700 298 467 -4672
2022-08-11 04:35:24 GMT 47.092384 18.588726 24,925 298 466 -4672
2022-08-11 04:35:18 GMT 47.087585 18.601982 25,425 298 464 -4480
2022-08-11 04:35:15 GMT 47.084145 18.611614 25,800 298 463 -4352
2022-08-11 04:35:12 GMT 47.080650 18.621332 25,800 298 463 -4352
2022-08-11 04:35:09 GMT 47.078156 18.628075 26,200 299 462 -4352
2022-08-11 04:35:06 GMT 47.074081 18.639473 26,275 299 462 -4352
2022-08-11 04:35:03 GMT 47.072067 18.644966 26,425 299 461 -4288
2022-08-11 04:34:58 GMT 47.067261 18.658218 26,975 299 460 -4032
2022-08-11 04:34:55 GMT 47.063736 18.667831 27,100 299 460 -3968
2022-08-11 04:34:52 GMT 47.059021 18.680740 27,300 299 459 -3904
2022-08-11 04:34:47 GMT 47.056026 18.688801 27,550 299 459 -3968
2022-08-11 04:34:44 GMT 47.052109 18.699623 27,750 299 458 -4032
2022-08-11 04:34:38 GMT 47.042805 18.725140 28,300 299 455 -3456
2022-08-11 04:34:35 GMT 47.042805 18.725140 28,375 299 456 -3648
2022-08-11 04:34:31 GMT 47.038986 18.735493 28,600 299 456 -3456
2022-08-11 04:34:27 GMT 47.036011 18.743874 28,825 299 457 -3520
2022-08-11 04:34:24 GMT 47.032974 18.752014 29,000 299 457 -3584
2022-08-11 04:34:21 GMT 47.028561 18.764154 29,225 299 455 -3776
2022-08-11 04:34:18 GMT 47.025604 18.772133 29,550 299 455 -3776
2022-08-11 04:34:15 GMT 47.023727 18.777283 29,550 299 455 -3904
2022-08-11 04:34:12 GMT 47.020973 18.784790 29,675 299 455 -3968
2022-08-11 04:34:08 GMT 47.016968 18.795565 30,000 299 453 -4096
2022-08-11 04:34:05 GMT 47.012920 18.806271 30,225 300 451 -4288
2022-08-11 04:34:02 GMT 47.010872 18.811623 30,300 300 451 -4288
2022-08-11 04:33:59 GMT 47.007751 18.819862 30,750 300 449 -4288
2022-08-11 04:33:56 GMT 47.003860 18.830086 31,125 300 448 -4032
2022-08-11 04:33:52 GMT 47.001373 18.836554 31,125 300 446 -3904
2022-08-11 04:33:49 GMT 46.996811 18.848454 31,325 300 445 -3904
2022-08-11 04:33:45 GMT 46.992966 18.858582 31,575 300 444 -3904
2022-08-11 04:33:42 GMT 46.990387 18.865215 31,725 300 443 -3904
2022-08-11 04:33:37 GMT 46.984894 18.879581 32,125 300 442 -3648
2022-08-11 04:33:34 GMT 46.982380 18.886131 32,225 300 442 -3648
2022-08-11 04:33:31 GMT 46.979828 18.892776 32,375 300 441 -3584
2022-08-11 04:33:27 GMT 46.975304 18.904303 32,750 300 441 -3520
2022-08-11 04:33:23 GMT 46.971954 18.912964 32,875 300 440 -3392
2022-08-11 04:33:19 GMT 46.965683 18.928894 33,275 300 440 -2624
2022-08-11 04:33:15 GMT 46.963017 18.935640 33,225 300 440 -2624
2022-08-11 04:33:12 GMT 46.959824 18.943863 33,400 300 440 -2432
2022-08-11 04:33:06 GMT 46.954823 18.956697 33,600 300 441 -1856
2022-08-11 04:33:03 GMT 46.950256 18.968445 33,725 300 441 -1728
2022-08-11 04:33:00 GMT 46.948814 18.972191 33,750 300 441 -1600
2022-08-11 04:32:57 GMT 46.945724 18.980118 33,975 300 442 -1216
2022-08-11 04:32:54 GMT 46.942841 18.987671 33,900 300 443 -896
2022-08-11 04:32:51 GMT 46.939365 18.996630 33,950 300 443 -768
2022-08-11 04:32:48 GMT 46.934898 19.008390 34,000 299 443 -384
2022-08-11 04:32:43 GMT 46.931313 19.017826 33,975 294 441 0
2022-08-11 04:32:40 GMT 46.928890 19.024446 34,025 298 444 0
2022-08-11 04:32:37 GMT 46.925121 19.035082 34,025 296 445 0
2022-08-11 04:32:34 GMT 46.922699 19.042191 34,025 296 445 0
2022-08-11 04:32:31 GMT 46.919117 19.053181 34,025 295 444 0
2022-08-11 04:32:27 GMT 46.915970 19.063133 34,025 294 445 64
2022-08-11 04:32:24 GMT 46.911945 19.076422 34,000 294 445 64
2022-08-11 04:32:21 GMT 46.909386 19.084942 34,000 294 445 64
2022-08-11 04:32:15 GMT 46.904663 19.101036 34,000 294 445 64
2022-08-11 04:32:12 GMT 46.904663 19.101036 34,000 294 445 0
2022-08-11 04:32:09 GMT 46.902283 19.109070 35,975 294 444 0
2022-08-11 04:32:06 GMT 46.899891 19.117197 34,000 294 444 0
2022-08-11 04:32:03 GMT 46.897156 19.126373 34,000 294 444 0
2022-08-11 04:32:00 GMT 46.894115 19.136705 34,000 294 444 0
2022-08-11 04:31:55 GMT 46.890701 19.148071 34,000 294 443 0
2022-08-11 04:31:52 GMT 46.888596 19.155212 34,000 294 443 0
2022-08-11 04:31:49 GMT 46.885693 19.165016 34,000 294 443 0
2022-08-11 04:31:46 GMT 46.882233 19.176636 34,000 294 443 0
2022-08-11 04:31:43 GMT 46.880127 19.183777 34,000 294 443 64
2022-08-11 04:31:40 GMT 46.877655 19.191948 34,000 294 443 64
2022-08-11 04:31:37 GMT 46.872940 19.207878 34,000 294 442 0
2022-08-11 04:31:34 GMT 46.872940 19.207878 34,000 294 442 0
2022-08-11 04:31:31 GMT 46.870468 19.216215 33,975 294 442 64
2022-08-11 04:31:28 GMT 46.868141 19.224173 33,975 294 442 0
2022-08-11 04:31:25 GMT 46.865982 19.231365 33,975 294 442 0
2022-08-11 04:31:22 GMT 46.863602 19.239338 33,975 294 442 0
2022-08-11 04:31:17 GMT 46.859997 19.251480 33,975 294 441 0
2022-08-11 04:31:13 GMT 46.856140 19.264460 33,975 294 441 0
2022-08-11 04:31:10 GMT 46.854176 19.271118 33,975 294 441 0
2022-08-11 04:31:07 GMT 46.851746 19.279198 33,975 294 441 64
2022-08-11 04:31:04 GMT 46.848682 19.289383 33,975 294 440 0
2022-08-11 04:31:01 GMT 46.846680 19.296181 33,975 294 440 0
2022-08-11 04:30:58 GMT 46.843872 19.305592 33,975 294 440 0
2022-08-11 04:30:54 GMT 46.839836 19.319046 33,975 294 440 0
2022-08-11 04:30:51 GMT 46.838535 19.323441 33,975 294 440 -64
2022-08-11 04:30:47 GMT 46.835693 19.332916 33,975 294 440 -64
2022-08-11 04:30:44 GMT 46.832977 19.342033 33,975 294 439 0
2022-08-11 04:30:41 GMT 46.829727 19.352886 33,975 294 439 0
2022-08-11 04:30:38 GMT 46.827667 19.359718 33,975 294 439 0
2022-08-11 04:30:33 GMT 46.823544 19.373360 33,975 294 439 0
2022-08-11 04:30:30 GMT 46.821167 19.381357 33,975 294 439 0
2022-08-11 04:30:26 GMT 46.818611 19.389908 33,975 294 439 0
2022-08-11 04:30:23 GMT 46.815632 19.399864 33,975 294 439 0
2022-08-11 04:30:20 GMT 46.813255 19.407829 33,975 294 439 0
2022-08-11 04:30:17 GMT 46.810043 19.418535 33,975 294 438 0
2022-08-11 04:30:14 GMT 46.808807 19.422556 33,975 294 438 0
2022-08-11 04:30:11 GMT 46.805420 19.433945 33,975 294 438 -64
2022-08-11 04:30:08 GMT 46.803062 19.441681 33,975 294 439 0
2022-08-11 04:30:05 GMT 46.801384 19.447311 33,975 294 439 0
2022-08-11 04:30:01 GMT 46.798325 19.457457 34,000 294 437 -64
2022-08-11 04:29:57 GMT 46.794495 19.470039 33,975 294 438 -64
2022-08-11 04:29:53 GMT 46.788723 19.489197 34,000 294 437 -64
2022-08-11 04:29:50 GMT 46.788723 19.489197 34,000 294 437 0
2022-08-11 04:29:46 GMT 46.785049 19.501469 34,000 294 437 -64
2022-08-11 04:29:43 GMT 46.782997 19.508354 34,000 294 437 -64
2022-08-11 04:29:40 GMT 46.780624 19.516182 34,000 294 437 0
2022-08-11 04:29:36 GMT 46.777908 19.525251 34,000 294 437 0
2022-08-11 04:29:31 GMT 46.772709 19.542618 34,000 294 437 0
2022-08-11 04:29:28 GMT 46.766556 19.562899 34,000 294 437 0
2022-08-11 04:29:22 GMT 46.766556 19.562899 34,000 294 437 0
2022-08-11 04:29:19 GMT 46.764282 19.570564 34,000 294 437 0
2022-08-11 04:29:15 GMT 46.759781 19.585543 34,000 294 437 0
2022-08-11 04:29:12 GMT 46.756973 19.594666 34,000 294 437 0
2022-08-11 04:29:09 GMT 46.755066 19.600983 34,000 294 437 0
2022-08-11 04:29:04 GMT 46.750626 19.615620 34,000 294 437 0
2022-08-11 04:29:01 GMT 46.749107 19.620689 34,000 294 437 0
2022-08-11 04:28:58 GMT 46.746498 19.629204 34,000 294 437 0
2022-08-11 04:28:54 GMT 46.743210 19.640072 34,000 294 437 0
2022-08-11 04:28:51 GMT 46.740772 19.648087 34,000 294 437 -64
2022-08-11 04:28:48 GMT 46.738354 19.656052 34,000 294 437 -64
2022-08-11 04:28:43 GMT 46.733418 19.672462 34,000 294 437 0
2022-08-11 04:28:39 GMT 46.729797 19.684418 34,000 294 436 0
2022-08-11 04:28:35 GMT 46.727829 19.690849 34,000 294 437 0
2022-08-11 04:28:31 GMT 46.722061 19.709816 34,000 294 437 -64
2022-08-11 04:28:28 GMT 46.722061 19.709816 34,000 294 437 0
2022-08-11 04:28:23 GMT 46.717896 19.723608 34,000 294 437 0
2022-08-11 04:28:20 GMT 46.715916 19.730072 34,000 294 437 0
2022-08-11 04:28:17 GMT 46.713680 19.737488 34,000 294 437 0
2022-08-11 04:28:13 GMT 46.710388 19.748327 34,000 294 437 -64
2022-08-11 04:28:10 GMT 46.707535 19.757607 34,000 294 437 -64
2022-08-11 04:28:07 GMT 46.703159 19.772095 34,000 294 437 -64
2022-08-11 04:28:04 GMT 46.703159 19.772095 34,000 294 437 -64
2022-08-11 04:28:00 GMT 46.699017 19.785622 34,025 294 436 -64
2022-08-11 04:27:57 GMT 46.696968 19.792488 34,025 294 437 0
2022-08-11 04:27:54 GMT 46.693817 19.802856 34,025 294 437 0
2022-08-11 04:27:50 GMT 46.690964 19.812263 34,025 294 436 0
2022-08-11 04:27:47 GMT 46.688690 19.819738 34,025 294 436 0
2022-08-11 04:27:43 GMT 46.685516 19.830048 34,025 294 436 0
2022-08-11 04:27:40 GMT 46.682678 19.839455 34,025 294 436 0
2022-08-11 04:27:36 GMT 46.680119 19.847763 34,025 294 436 0
2022-08-11 04:27:33 GMT 46.677658 19.855911 34,000 294 436 0
2022-08-11 04:27:29 GMT 46.673832 19.868500 34,025 294 436 -64
2022-08-11 04:27:26 GMT 46.668823 19.884851 34,025 295 436 -64
2022-08-11 04:27:22 GMT 46.668823 19.884851 34,025 295 436 0
2022-08-11 04:27:19 GMT 46.664803 19.897820 34,025 294 436 64
2022-08-11 04:27:14 GMT 46.660706 19.911209 34,025 295 436 -64
2022-08-11 04:27:10 GMT 46.658657 19.917870 34,025 294 436 -64
2022-08-11 04:27:06 GMT 46.654980 19.929886 34,025 294 436 64
2022-08-11 04:27:00 GMT 46.650192 19.945612 34,025 294 436 64
2022-08-11 04:26:56 GMT 46.647018 19.955910 34,025 294 436 64
2022-08-11 04:26:53 GMT 46.644318 19.964699 34,025 294 436 64
2022-08-11 04:26:50 GMT 46.642044 19.972073 34,025 294 435 64
2022-08-11 04:26:43 GMT 46.636265 19.990929 34,000 295 436 64
2022-08-11 04:26:39 GMT 46.633530 19.999872 34,025 295 436 64
2022-08-11 04:26:36 GMT 46.630508 20.009789 34,000 295 436 64
2022-08-11 04:26:32 GMT 46.627140 20.020660 34,000 295 436 64
2022-08-11 04:26:29 GMT 46.619087 20.046822 34,000 295 436 0
2022-08-11 04:26:23 GMT 46.619087 20.046822 34,000 295 437 0
2022-08-11 04:26:18 GMT 46.615688 20.057945 34,000 295 436 0
2022-08-11 04:26:14 GMT 46.612427 20.068403 34,000 295 436 0
2022-08-11 04:26:08 GMT 46.607262 20.085205 34,000 295 435 0
2022-08-11 04:26:04 GMT 46.603958 20.095869 34,000 295 435 0
2022-08-11 04:26:01 GMT 46.601631 20.103470 34,000 295 436 0
2022-08-11 04:25:58 GMT 46.599117 20.111641 34,000 295 436 0
2022-08-11 04:25:54 GMT 46.596508 20.120018 34,000 295 436 0
2022-08-11 04:25:49 GMT 46.591690 20.135662 34,000 295 436 0
2022-08-11 04:25:45 GMT 46.587666 20.148582 34,000 295 435 0
2022-08-11 04:25:42 GMT 46.585056 20.157097 34,000 295 435 0
2022-08-11 04:25:37 GMT 46.579239 20.175922 34,000 295 435 64
2022-08-11 04:25:34 GMT 46.579239 20.175922 34,000 295 435 0
2022-08-11 04:25:31 GMT 46.576817 20.183739 34,000 295 435 0
2022-08-11 04:25:28 GMT 46.571091 20.202415 34,000 295 435 64
2022-08-11 04:25:24 GMT 46.571091 20.202415 34,000 295 435 0
2022-08-11 04:25:21 GMT 46.568672 20.210106 34,000 295 435 0
2022-08-11 04:25:16 GMT 46.564945 20.222191 34,000 295 435 0
2022-08-11 04:25:13 GMT 46.562618 20.229813 34,000 295 435 0
2022-08-11 04:25:10 GMT 46.560104 20.237955 34,000 295 435 0
2022-08-11 04:25:07 GMT 46.557171 20.247322 34,000 295 433 0
2022-08-11 04:25:04 GMT 46.554752 20.255081 34,000 295 434 0
2022-08-11 04:25:00 GMT 46.551819 20.264482 34,000 295 434 0
2022-08-11 04:24:57 GMT 46.549397 20.272316 34,000 295 434 0
2022-08-11 04:24:54 GMT 46.546555 20.281500 34,000 295 434 0
2022-08-11 04:24:51 GMT 46.543396 20.291548 34,000 295 434 0
2022-08-11 04:24:47 GMT 46.540974 20.299370 34,000 295 434 0
2022-08-11 04:24:43 GMT 46.537666 20.309944 34,000 295 434 0
2022-08-11 04:24:40 GMT 46.535065 20.318342 34,000 295 434 0
2022-08-11 04:24:37 GMT 46.531754 20.328896 34,000 295 434 0
2022-08-11 04:24:32 GMT 46.527740 20.341856 34,000 295 433 0
2022-08-11 04:24:29 GMT 46.526493 20.345993 34,000 295 433 0
2022-08-11 04:24:26 GMT 46.523514 20.355537 34,000 295 433 0
2022-08-11 04:24:23 GMT 46.521141 20.363159 34,000 295 433 0
2022-08-11 04:24:20 GMT 46.518265 20.372271 34,000 295 433 0
2022-08-11 04:24:14 GMT 46.509598 20.400169 34,000 295 433 0
2022-08-11 04:24:10 GMT 46.509598 20.400169 34,000 295 433 0
2022-08-11 04:24:07 GMT 46.507874 20.405731 34,000 295 433 0
2022-08-11 04:24:03 GMT 46.504566 20.416306 34,000 295 432 0
2022-08-11 04:24:00 GMT 46.501968 20.424589 34,000 295 432 0
2022-08-11 04:23:57 GMT 46.499542 20.432373 34,000 295 432 0
2022-08-11 04:23:53 GMT 46.496292 20.442810 34,000 295 432 0
2022-08-11 04:23:49 GMT 46.492996 20.453327 34,000 295 432 0
2022-08-11 04:23:41 GMT 46.486404 20.474428 34,000 295 432 0
2022-08-11 04:23:38 GMT 46.483978 20.482065 34,000 295 431 0
2022-08-11 04:23:33 GMT 46.479675 20.495731 34,000 295 431 0
2022-08-11 04:23:28 GMT 46.475967 20.507589 34,000 295 431 0
2022-08-11 04:23:21 GMT 46.469608 20.527679 34,000 295 431 0
2022-08-11 04:23:16 GMT 46.465652 20.540314 34,000 295 431 0
2022-08-11 04:23:13 GMT 46.459488 20.559841 34,000 295 431 0
2022-08-11 04:23:08 GMT 46.459488 20.559841 34,000 295 431 0
2022-08-11 04:23:04 GMT 46.455830 20.571419 34,000 295 431 0
2022-08-11 04:23:01 GMT 46.453316 20.579453 34,000 295 431 0
2022-08-11 04:22:58 GMT 46.450752 20.587555 34,000 295 431 0
2022-08-11 04:22:53 GMT 46.447075 20.599297 34,000 295 430 0
2022-08-11 04:22:50 GMT 46.444290 20.608208 34,000 295 431 0
2022-08-11 04:22:45 GMT 46.439442 20.623535 34,000 295 431 0
2022-08-11 04:22:42 GMT 46.437580 20.629578 34,000 295 431 64
2022-08-11 04:22:38 GMT 46.433949 20.641113 34,000 295 430 64
2022-08-11 04:22:34 GMT 46.430828 20.650932 33,975 295 429 64
2022-08-11 04:22:31 GMT 46.428772 20.657513 33,975 295 430 64
2022-08-11 04:22:27 GMT 46.425476 20.668030 33,975 295 430 64
2022-08-11 04:22:24 GMT 46.422684 20.676956 33,975 295 429 64
2022-08-11 04:22:21 GMT 46.419659 20.686432 33,975 295 430 0
2022-08-11 04:22:13 GMT 46.413979 20.704422 33,975 295 429 0
2022-08-11 04:22:10 GMT 46.411102 20.713583 33,975 295 430 -64
2022-08-11 04:22:05 GMT 46.407322 20.725433 33,975 295 430 -64
2022-08-11 04:22:01 GMT 46.404007 20.736025 33,975 295 430 0
2022-08-11 04:21:57 GMT 46.399887 20.749086 33,975 295 429 0
2022-08-11 04:21:54 GMT 46.397171 20.757568 33,975 295 428 0
2022-08-11 04:21:49 GMT 46.391464 20.775682 33,975 295 429 0
2022-08-11 04:21:46 GMT 46.391464 20.775682 33,975 295 429 0
2022-08-11 04:21:43 GMT 46.388607 20.784622 33,975 295 429 0
2022-08-11 04:21:38 GMT 46.384781 20.796783 33,975 295 429 0
2022-08-11 04:21:35 GMT 46.382416 20.804192 33,975 295 429 0
2022-08-11 04:21:31 GMT 46.378876 20.815384 33,975 295 429 0
2022-08-11 04:21:26 GMT 46.375031 20.827465 33,975 295 429 0
2022-08-11 04:21:23 GMT 46.372032 20.837013 33,975 295 429 0
2022-08-11 04:21:19 GMT 46.369171 20.845955 33,975 295 429 0
2022-08-11 04:21:15 GMT 46.366196 20.855333 33,975 295 429 0
2022-08-11 04:21:11 GMT 46.362076 20.868328 33,975 295 429 0
2022-08-11 04:21:06 GMT 46.357635 20.882263 33,975 295 429 0
2022-08-11 04:21:00 GMT 46.353367 20.895653 33,975 295 428 0
2022-08-11 04:20:57 GMT 46.351089 20.902761 33,975 295 428 0
2022-08-11 04:20:53 GMT 46.346802 20.916458 33,975 295 427 0
2022-08-11 04:20:49 GMT 46.343719 20.926208 33,975 295 428 0
2022-08-11 04:20:45 GMT 46.340744 20.935520 33,975 295 428 0
2022-08-11 04:20:42 GMT 46.338329 20.943100 34,000 295 428 0
2022-08-11 04:20:36 GMT 46.333908 20.956970 33,975 295 428 0
2022-08-11 04:20:33 GMT 46.331486 20.964455 33,975 295 428 0
2022-08-11 04:20:29 GMT 46.327904 20.975647 34,000 295 428 0
2022-08-11 04:20:25 GMT 46.323853 20.988241 33,975 295 428 0
2022-08-11 04:20:21 GMT 46.321384 20.995972 33,975 295 428 0
2022-08-11 04:20:17 GMT 46.317707 21.007439 33,975 295 428 0
2022-08-11 04:20:11 GMT 46.313053 21.021927 34,000 295 428 0
2022-08-11 04:20:07 GMT 46.309845 21.031918 34,000 295 428 0
2022-08-11 04:20:04 GMT 46.306999 21.040878 34,000 295 428 0
2022-08-11 04:20:00 GMT 46.302841 21.053757 34,000 295 429 0
2022-08-11 04:19:57 GMT 46.301514 21.057911 33,975 295 429 0
2022-08-11 04:19:54 GMT 46.298950 21.065948 33,975 295 429 0
2022-08-11 04:19:51 GMT 46.295780 21.075966 33,975 295 429 0
2022-08-11 04:19:46 GMT 46.292198 21.087090 33,975 295 429 0
2022-08-11 04:19:43 GMT 46.289749 21.094822 33,975 295 429 0
2022-08-11 04:19:39 GMT 46.286331 21.105560 34,000 295 429 0
2022-08-11 04:19:34 GMT 46.281490 21.120667 34,000 295 429 0
2022-08-11 04:19:31 GMT 46.279301 21.127533 34,000 295 428 0
2022-08-11 04:19:28 GMT 46.277298 21.133743 34,000 295 429 0
2022-08-11 04:19:21 GMT 46.270782 21.154037 34,000 295 428 0
2022-08-11 04:19:18 GMT 46.269058 21.159468 34,000 295 429 0
2022-08-11 04:19:12 GMT 46.264034 21.175255 34,000 295 430 0
2022-08-11 04:19:08 GMT 46.260544 21.185995 34,000 295 430 -64
2022-08-11 04:19:02 GMT 46.255932 21.200455 34,000 295 429 0
2022-08-11 04:18:59 GMT 46.252350 21.211517 34,000 296 430 0
2022-08-11 04:18:53 GMT 46.246761 21.228745 34,000 296 430 0
2022-08-11 04:18:50 GMT 46.245228 21.233414 34,000 296 430 0
2022-08-11 04:18:47 GMT 46.243195 21.239788 34,000 296 430 0
2022-08-11 04:18:43 GMT 46.239685 21.250580 34,000 295 430 0
2022-08-11 04:18:40 GMT 46.236847 21.259575 34,000 295 429 0
2022-08-11 04:18:37 GMT 46.234634 21.266315 34,000 295 430 0
2022-08-11 04:18:30 GMT 46.228233 21.286354 34,000 295 431 0
2022-08-11 04:18:26 GMT 46.225433 21.294920 34,000 295 431 0
2022-08-11 04:18:21 GMT 46.221313 21.307714 34,000 295 431 0
2022-08-11 04:18:18 GMT 46.218201 21.317295 34,000 296 431 0
2022-08-11 04:18:15 GMT 46.216415 21.322788 34,000 296 431 0
2022-08-11 04:18:11 GMT 46.213058 21.333046 34,000 296 431 -64
2022-08-11 04:18:08 GMT 46.209732 21.343353 34,000 296 431 -64
2022-08-11 04:18:04 GMT 46.207123 21.351460 34,000 296 431 0
2022-08-11 04:17:59 GMT 46.202072 21.366898 34,025 296 432 0
2022-08-11 04:17:55 GMT 46.197929 21.379669 34,025 296 432 0
2022-08-11 04:17:49 GMT 46.193645 21.392853 34,000 296 432 0
2022-08-11 04:17:46 GMT 46.191879 21.398287 34,025 296 432 0
2022-08-11 04:17:40 GMT 46.186848 21.413795 34,025 296 432 0
2022-08-11 04:17:37 GMT 46.183731 21.423477 34,025 296 432 0
2022-08-11 04:17:33 GMT 46.180752 21.432610 34,025 296 432 0
2022-08-11 04:17:29 GMT 46.176701 21.445244 34,025 296 432 0
2022-08-11 04:17:26 GMT 46.174839 21.450874 34,025 296 432 0
2022-08-11 04:17:19 GMT 46.167995 21.472023 34,025 296 433 0
2022-08-11 04:17:16 GMT 46.166107 21.477871 34,025 296 433 0
2022-08-11 04:17:08 GMT 46.159012 21.499626 34,025 296 434 0
2022-08-11 04:17:04 GMT 46.156219 21.508148 34,025 296 434 0
2022-08-11 04:16:59 GMT 46.151871 21.521414 34,025 296 434 0
2022-08-11 04:16:56 GMT 46.148258 21.532379 34,000 296 434 0
2022-08-11 04:16:49 GMT 46.142857 21.548859 34,025 296 434 0
2022-08-11 04:16:46 GMT 46.140701 21.555511 34,025 296 434 0
2022-08-11 04:16:39 GMT 46.134895 21.573097 34,025 296 434 0
2022-08-11 04:16:36 GMT 46.131775 21.582642 34,025 296 434 0
2022-08-11 04:16:28 GMT 46.124561 21.604752 34,000 296 434 0
2022-08-11 04:16:25 GMT 46.122482 21.611113 34,025 296 434 0
2022-08-11 04:16:18 GMT 46.115532 21.632423 34,025 295 433 0
2022-08-11 04:16:14 GMT 46.113529 21.638603 34,000 296 434 0
2022-08-11 04:16:09 GMT 46.108597 21.653778 34,025 296 434 0
2022-08-11 04:16:05 GMT 46.105591 21.663029 34,025 296 434 0
2022-08-11 04:15:56 GMT 46.096680 21.690308 34,025 296 434 0
2022-08-11 04:15:49 GMT 46.088242 21.716019 34,025 296 434 0
2022-08-11 04:15:45 GMT 46.088242 21.716019 34,000 296 434 0
2022-08-11 04:15:39 GMT 46.079639 21.742218 34,000 296 433 0
2022-08-11 04:15:35 GMT 46.079639 21.742218 34,000 296 434 0
2022-08-11 04:15:28 GMT 46.073772 21.759933 34,000 296 434 0
2022-08-11 04:15:24 GMT 46.070793 21.769066 34,000 296 434 0
2022-08-11 04:15:14 GMT 46.061829 21.796339 34,000 296 434 0
2022-08-11 04:15:05 GMT 46.053864 21.820589 34,000 296 433 64
2022-08-11 04:14:54 GMT 46.045097 21.847275 34,000 296 433 64
2022-08-11 04:14:44 GMT 46.035694 21.875702 34,000 296 433 0
2022-08-11 04:14:37 GMT 46.030109 21.892662 34,000 296 432 0
2022-08-11 04:14:34 GMT 46.027222 21.901312 34,000 296 433 0
2022-08-11 04:14:26 GMT 46.019913 21.923561 34,000 296 432 0
2022-08-11 04:14:23 GMT 46.018192 21.928711 34,000 296 432 0
2022-08-11 04:14:16 GMT 46.012207 21.946732 34,000 296 432 0
2022-08-11 04:14:13 GMT 46.009300 21.955421 34,000 296 432 -64
2022-08-11 04:14:07 GMT 46.003155 21.974030 34,000 296 432 -64
2022-08-11 04:14:03 GMT 46.001312 21.979624 34,000 296 432 -64
2022-08-11 04:13:56 GMT 45.994766 21.999250 34,000 296 432 -64
2022-08-11 04:13:53 GMT 45.992588 22.005821 34,000 296 431 -64
2022-08-11 04:13:44 GMT 45.983643 22.032812 34,025 296 431 -64
2022-08-11 04:13:33 GMT 45.975082 22.058418 34,025 296 430 0
2022-08-11 04:13:22 GMT 45.965881 22.086069 34,025 296 430 0
2022-08-11 04:13:16 GMT 45.959427 22.105364 34,025 296 430 0
2022-08-11 04:13:13 GMT 45.957859 22.110123 34,025 296 430 0
2022-08-11 04:13:03 GMT 45.949036 22.136446 34,025 296 430 0
2022-08-11 04:12:53 GMT 45.939972 22.163712 34,025 296 429 0
2022-08-11 04:12:45 GMT 45.930626 22.191765 34,025 296 428 0
2022-08-11 04:12:41 GMT 45.930626 22.191765 34,025 296 428 0
2022-08-11 04:12:32 GMT 45.921688 22.218475 34,025 296 429 0
2022-08-11 04:12:23 GMT 45.915451 22.237152 34,025 296 429 0
2022-08-11 04:12:20 GMT 45.907150 22.261850 34,025 296 428 0
2022-08-11 04:12:14 GMT 45.907150 22.261850 34,025 296 428 0
2022-08-11 04:12:11 GMT 45.903904 22.271416 34,025 296 428 0
2022-08-11 04:12:00 GMT 45.895527 22.296478 34,025 296 428 0
2022-08-11 04:11:56 GMT 45.892136 22.306601 34,025 296 428 0
2022-08-11 04:11:53 GMT 45.889389 22.314774 34,025 296 428 0
2022-08-11 04:11:49 GMT 45.885983 22.324837 34,025 296 427 0
2022-08-11 04:11:43 GMT 45.879978 22.342690 34,025 296 426 0
2022-08-11 04:11:40 GMT 45.877350 22.350479 34,025 296 427 0
2022-08-11 04:11:37 GMT 45.876019 22.354431 34,025 296 427 0
2022-08-11 04:11:31 GMT 45.870667 22.370308 34,025 296 426 0
2022-08-11 04:11:28 GMT 45.867176 22.380661 34,000 296 427 0
2022-08-11 04:11:23 GMT 45.863617 22.391209 34,000 296 427 0
2022-08-11 04:11:17 GMT 45.858517 22.406342 34,000 296 426 0
2022-08-11 04:11:13 GMT 45.852325 22.424606 34,025 296 426 64
2022-08-11 04:11:10 GMT 45.852325 22.424606 34,025 296 426 64
2022-08-11 04:11:07 GMT 45.849766 22.432228 34,000 296 425 64
2022-08-11 04:11:01 GMT 45.844597 22.447403 34,000 296 425 64
2022-08-11 04:10:57 GMT 45.841187 22.457460 34,000 296 426 64
2022-08-11 04:10:50 GMT 45.835335 22.474800 34,000 296 426 0
2022-08-11 04:10:46 GMT 45.832169 22.484207 34,000 296 426 0
2022-08-11 04:10:42 GMT 45.828350 22.495605 34,000 296 425 0
2022-08-11 04:10:39 GMT 45.825699 22.503433 34,000 296 425 0
2022-08-11 04:10:36 GMT 45.822300 22.513596 34,000 296 425 0
2022-08-11 04:10:29 GMT 45.816422 22.530882 34,000 296 424 0
2022-08-11 04:10:25 GMT 45.813828 22.538589 34,000 296 424 0
2022-08-11 04:10:21 GMT 45.810379 22.548769 34,000 296 423 0
2022-08-11 04:10:18 GMT 45.808426 22.554451 34,000 296 423 0
2022-08-11 04:10:15 GMT 45.805801 22.562166 34,000 296 423 0
2022-08-11 04:10:10 GMT 45.801132 22.576033 33,975 296 423 0
2022-08-11 04:10:05 GMT 45.797253 22.587479 33,975 296 422 0
2022-08-11 04:09:59 GMT 45.791759 22.603546 33,975 296 422 0
2022-08-11 04:09:56 GMT 45.788177 22.614052 33,975 296 422 0
2022-08-11 04:09:49 GMT 45.783554 22.627750 33,975 296 422 0
2022-08-11 04:09:45 GMT 45.779938 22.638428 33,975 296 422 0
2022-08-11 04:09:39 GMT 45.774445 22.654427 33,975 297 421 0
2022-08-11 04:09:36 GMT 45.771465 22.663216 33,975 297 421 0
2022-08-11 04:09:30 GMT 45.766251 22.678459 33,975 296 421 0
2022-08-11 04:09:25 GMT 45.762589 22.689314 33,975 296 420 0
2022-08-11 04:09:15 GMT 45.753960 22.714645 34,000 297 419 0
2022-08-11 04:09:09 GMT 45.748901 22.729507 34,000 297 419 0
2022-08-11 04:09:05 GMT 45.745331 22.739958 34,000 297 419 0
2022-08-11 04:08:58 GMT 45.739883 22.755901 34,000 297 419 0
2022-08-11 04:08:54 GMT 45.736496 22.765882 34,000 297 419 0
2022-08-11 04:08:48 GMT 45.731415 22.780754 34,000 297 419 0
2022-08-11 04:08:43 GMT 45.727249 22.792946 34,000 297 419 0
2022-08-11 04:08:37 GMT 45.721893 22.808622 34,000 297 419 0
2022-08-11 04:08:34 GMT 45.718643 22.818068 34,000 297 418 0
2022-08-11 04:08:26 GMT 45.712482 22.836044 34,000 297 419 64
2022-08-11 04:08:23 GMT 45.709854 22.843592 34,000 297 419 64
2022-08-11 04:08:17 GMT 45.704521 22.859116 33,975 297 419 0
2022-08-11 04:08:12 GMT 45.701065 22.869181 33,975 297 419 0
2022-08-11 04:08:06 GMT 45.695679 22.884933 33,975 297 419 0
2022-08-11 04:08:03 GMT 45.692276 22.894705 33,975 297 419 0
2022-08-11 04:07:55 GMT 45.686272 22.912193 34,000 296 419 -64
2022-08-11 04:07:52 GMT 45.683441 22.920494 34,000 297 418 -64
2022-08-11 04:07:46 GMT 45.673889 22.948448 34,000 297 418 0
2022-08-11 04:07:41 GMT 45.673889 22.948448 34,000 297 418 -64
2022-08-11 04:07:35 GMT 45.669525 22.961226 34,000 297 418 -64
2022-08-11 04:07:32 GMT 45.666069 22.971245 34,000 297 419 0
2022-08-11 04:07:23 GMT 45.659271 22.991089 34,000 297 419 0
2022-08-11 04:07:20 GMT 45.656754 22.998337 34,000 297 419 0
2022-08-11 04:07:12 GMT 45.649590 23.019035 34,000 297 419 0
2022-08-11 04:07:08 GMT 45.645584 23.030708 34,000 297 419 0
2022-08-11 04:07:01 GMT 45.640045 23.046703 34,000 297 419 0
2022-08-11 04:06:56 GMT 45.636044 23.058174 34,000 297 419 0
2022-08-11 04:06:53 GMT 45.633362 23.065996 34,000 297 419 0
2022-08-11 04:06:49 GMT 45.630177 23.075272 34,000 297 419 0
2022-08-11 04:06:42 GMT 45.623199 23.095472 34,000 297 419 0
2022-08-11 04:06:39 GMT 45.621368 23.100698 34,000 297 419 0
2022-08-11 04:06:36 GMT 45.619099 23.107269 34,000 297 420 0
2022-08-11 04:06:33 GMT 45.616058 23.116104 34,000 297 420 0
2022-08-11 04:06:30 GMT 45.612766 23.125603 34,000 297 420 0
2022-08-11 04:06:23 GMT 45.607635 23.140356 34,000 297 420 -64
2022-08-11 04:06:20 GMT 45.605484 23.146585 34,000 297 420 -64
2022-08-11 04:06:14 GMT 45.599918 23.162613 34,000 297 420 -64
2022-08-11 04:06:08 GMT 45.594749 23.177444 34,000 297 420 -64
2022-08-11 04:06:00 GMT 45.587212 23.199280 34,000 297 420 -64
2022-08-11 04:05:56 GMT 45.579300 23.222015 34,000 297 420 -64
2022-08-11 04:05:50 GMT 45.579300 23.222015 34,000 297 420 -64
2022-08-11 04:05:42 GMT 45.572731 23.241028 34,025 297 420 0
2022-08-11 04:05:40 GMT 45.570217 23.248169 34,025 297 420 0
2022-08-11 04:05:35 GMT 45.565098 23.262794 34,025 297 419 0
2022-08-11 04:05:31 GMT 45.563232 23.268171 34,025 297 421 64
2022-08-11 04:05:29 GMT 45.560989 23.274603 34,025 297 421 64
2022-08-11 04:05:26 GMT 45.558746 23.281101 34,025 297 422 0
2022-08-11 04:05:22 GMT 45.555359 23.290749 34,025 297 422 0
2022-08-11 04:05:19 GMT 45.552807 23.298088 34,025 297 422 0
2022-08-11 04:05:16 GMT 45.550110 23.305779 34,025 297 422 0
2022-08-11 04:05:13 GMT 45.546799 23.315332 34,000 297 423 0
2022-08-11 04:05:07 GMT 45.540752 23.332684 34,000 297 423 0
2022-08-11 04:05:02 GMT 45.537231 23.342743 34,000 297 423 0
2022-08-11 04:04:56 GMT 45.532013 23.357718 34,000 297 423 0
2022-08-11 04:04:53 GMT 45.529301 23.365576 34,000 297 423 0
2022-08-11 04:04:46 GMT 45.524048 23.380608 34,000 297 423 0
2022-08-11 04:04:42 GMT 45.519802 23.392706 34,000 297 423 0
2022-08-11 04:04:38 GMT 45.516632 23.401794 34,000 297 423 0
2022-08-11 04:04:35 GMT 45.513565 23.410660 34,000 297 423 0
2022-08-11 04:04:32 GMT 45.511887 23.415417 34,000 297 423 0
2022-08-11 04:04:25 GMT 45.504997 23.435043 34,000 297 423 0
2022-08-11 04:04:18 GMT 45.499134 23.451792 34,000 297 423 0
2022-08-11 04:04:14 GMT 45.495163 23.463070 34,000 297 423 0
2022-08-11 04:04:08 GMT 45.490288 23.476912 34,000 297 423 0
2022-08-11 04:04:04 GMT 45.486557 23.487461 34,000 297 423 0
2022-08-11 04:04:00 GMT 45.483765 23.495440 34,000 297 423 0
2022-08-11 04:03:57 GMT 45.481209 23.502769 34,000 297 423 64
2022-08-11 04:03:54 GMT 45.476974 23.514763 34,000 297 423 0
2022-08-11 04:03:50 GMT 45.474182 23.522667 34,000 297 423 0
2022-08-11 04:03:47 GMT 45.472458 23.527691 34,000 297 423 64
2022-08-11 04:03:42 GMT 45.467293 23.542360 34,000 297 423 0
2022-08-11 04:03:38 GMT 45.463100 23.554285 34,000 297 423 0
2022-08-11 04:03:33 GMT 45.459751 23.563730 34,000 297 423 0
2022-08-11 04:03:30 GMT 45.457981 23.568687 34,000 297 423 0
2022-08-11 04:03:27 GMT 45.454582 23.578402 34,000 297 423 0
2022-08-11 04:03:20 GMT 45.449112 23.593924 34,000 297 423 0
2022-08-11 04:03:17 GMT 45.445644 23.603724 34,000 297 423 0
2022-08-11 04:03:11 GMT 45.440384 23.618664 34,000 297 423 0
2022-08-11 04:03:06 GMT 45.436333 23.630117 34,000 297 423 0
2022-08-11 04:03:00 GMT 45.430794 23.645794 34,000 297 423 0
2022-08-11 04:02:57 GMT 45.427231 23.655853 34,000 297 423 0
2022-08-11 04:02:51 GMT 45.422787 23.668369 34,000 297 423 0
2022-08-11 04:02:46 GMT 45.418411 23.680828 34,000 297 423 0
2022-08-11 04:02:41 GMT 45.413849 23.693758 34,000 297 423 0
2022-08-11 04:02:35 GMT 45.409428 23.706219 34,000 297 423 0
2022-08-11 04:02:31 GMT 45.405075 23.718500 34,000 297 424 0
2022-08-11 04:02:24 GMT 45.398766 23.736298 33,975 297 425 0
2022-08-11 04:02:20 GMT 45.395462 23.745640 34,000 297 425 0
2022-08-11 04:02:15 GMT 45.391365 23.757198 34,000 297 424 0
2022-08-11 04:02:11 GMT 45.387360 23.768530 34,000 297 425 0
2022-08-11 04:02:04 GMT 45.382462 23.782522 34,000 297 425 0
2022-08-11 04:02:00 GMT 45.377151 23.797499 34,000 297 425 0
2022-08-11 04:01:54 GMT 45.373352 23.808159 34,000 297 425 0
2022-08-11 04:01:51 GMT 45.369827 23.818163 34,000 297 425 0
2022-08-11 04:01:49 GMT 45.367996 23.823250 34,000 297 425 0
2022-08-11 04:01:44 GMT 45.363693 23.835297 34,000 297 425 0
2022-08-11 04:01:38 GMT 45.358795 23.849030 34,000 297 425 0
2022-08-11 04:01:34 GMT 45.355564 23.858084 34,000 297 426 0
2022-08-11 04:01:29 GMT 45.349514 23.875032 34,000 297 425 64
2022-08-11 04:01:25 GMT 45.346115 23.884544 34,000 297 425 0
2022-08-11 04:01:18 GMT 45.340485 23.900364 33,975 297 426 64
2022-08-11 04:01:14 GMT 45.337132 23.909666 33,975 297 426 0
2022-08-11 04:01:09 GMT 45.332748 23.922010 33,975 297 427 0
2022-08-11 04:01:04 GMT 45.328262 23.934502 34,000 297 428 0
2022-08-11 04:00:58 GMT 45.322048 23.951870 33,975 297 427 0
2022-08-11 04:00:53 GMT 45.318970 23.960463 34,000 297 427 0
2022-08-11 04:00:50 GMT 45.314987 23.971710 34,000 297 427 0
2022-08-11 04:00:47 GMT 45.312744 23.977922 33,975 297 427 0
2022-08-11 04:00:43 GMT 45.309540 23.986946 34,000 297 427 0
2022-08-11 04:00:39 GMT 45.305923 23.996952 34,000 297 428 -64
2022-08-11 04:00:34 GMT 45.300449 24.012295 34,000 297 428 -64
2022-08-11 04:00:28 GMT 45.295898 24.024942 34,000 297 428 -64
2022-08-11 04:00:25 GMT 45.293793 24.030785 34,000 297 428 -64
2022-08-11 04:00:19 GMT 45.287888 24.047438 34,000 297 428 0
2022-08-11 04:00:16 GMT 45.285095 24.055220 34,000 297 428 0
2022-08-11 04:00:12 GMT 45.282246 24.063072 34,000 298 428 0
2022-08-11 04:00:09 GMT 45.279053 24.071960 34,000 297 427 0
2022-08-11 04:00:05 GMT 45.274384 24.084974 34,000 298 428 0
2022-08-11 04:00:02 GMT 45.272690 24.089682 34,000 298 428 0
2022-08-11 03:59:53 GMT 45.263947 24.113943 34,000 298 428 -64
2022-08-11 03:59:44 GMT 45.256348 24.135000 34,000 297 429 0
2022-08-11 03:59:41 GMT 45.254105 24.141279 34,000 297 429 0
2022-08-11 03:59:37 GMT 45.250214 24.152004 34,000 298 430 -64
2022-08-11 03:59:35 GMT 45.247284 24.160141 34,000 298 431 0
2022-08-11 03:59:32 GMT 45.245499 24.165083 34,000 298 431 0
2022-08-11 03:59:29 GMT 45.242889 24.172340 34,025 298 431 0
2022-08-11 03:59:25 GMT 45.240189 24.179861 34,025 298 431 0
2022-08-11 03:59:21 GMT 45.236206 24.190914 34,025 298 431 0
2022-08-11 03:59:18 GMT 45.233181 24.199329 34,025 297 432 0
2022-08-11 03:59:12 GMT 45.227097 24.216352 34,000 297 432 0
2022-08-11 03:59:09 GMT 45.218700 24.239658 34,025 297 432 0
2022-08-11 03:59:02 GMT 45.218700 24.239658 34,025 297 432 0
2022-08-11 03:58:59 GMT 45.215164 24.249439 34,025 298 432 0
2022-08-11 03:58:53 GMT 45.210415 24.262569 34,025 298 433 0
2022-08-11 03:58:51 GMT 45.208694 24.267324 34,025 298 433 0
2022-08-11 03:58:48 GMT 45.206039 24.274750 34,025 298 433 0
2022-08-11 03:58:44 GMT 45.201942 24.286015 34,025 298 433 0
2022-08-11 03:58:41 GMT 45.199722 24.292210 34,025 298 433 0
2022-08-11 03:58:37 GMT 45.196426 24.301235 34,025 298 435 0
2022-08-11 03:58:32 GMT 45.190018 24.318956 34,025 298 435 0
2022-08-11 03:58:28 GMT 45.187088 24.327000 34,025 298 435 0
2022-08-11 03:58:21 GMT 45.180111 24.346172 34,025 298 436 0
2022-08-11 03:58:17 GMT 45.177456 24.353474 34,025 298 436 -64
2022-08-11 03:58:11 GMT 45.172661 24.366671 34,025 298 436 -64
2022-08-11 03:58:09 GMT 45.170475 24.372766 34,025 298 436 -64
2022-08-11 03:58:06 GMT 45.167404 24.381277 34,025 298 436 -64
2022-08-11 03:58:00 GMT 45.161865 24.396515 34,025 298 436 -64
2022-08-11 03:57:57 GMT 45.158478 24.405867 34,025 298 436 0
2022-08-11 03:57:48 GMT 45.150597 24.427565 34,025 298 437 0
2022-08-11 03:57:45 GMT 45.147758 24.435469 34,025 298 437 0
2022-08-11 03:57:42 GMT 45.145149 24.442570 34,025 298 437 0
2022-08-11 03:57:39 GMT 45.142868 24.448765 34,025 298 437 0
2022-08-11 03:57:35 GMT 45.139145 24.459049 34,025 298 437 0
2022-08-11 03:57:32 GMT 45.136070 24.467424 34,025 298 437 0
2022-08-11 03:57:27 GMT 45.131424 24.480286 34,025 298 437 0
2022-08-11 03:57:22 GMT 45.126892 24.492710 34,025 298 437 64
2022-08-11 03:57:19 GMT 45.123917 24.500820 34,025 298 437 64
2022-08-11 03:57:15 GMT 45.120430 24.510365 34,025 298 437 64
2022-08-11 03:57:11 GMT 45.116776 24.520437 34,025 298 437 64
2022-08-11 03:57:08 GMT 45.114075 24.527761 34,025 298 438 64
2022-08-11 03:57:04 GMT 45.110046 24.538683 34,000 298 439 64
2022-08-11 03:57:01 GMT 45.106613 24.548100 34,000 298 438 64
2022-08-11 03:56:58 GMT 45.104645 24.553461 34,000 298 439 64
2022-08-11 03:56:55 GMT 45.100971 24.563486 34,000 298 439 64
2022-08-11 03:56:50 GMT 45.097275 24.573540 34,000 298 439 64
2022-08-11 03:56:47 GMT 45.094456 24.581306 34,000 298 440 64
2022-08-11 03:56:44 GMT 45.091194 24.590216 34,000 298 440 64
2022-08-11 03:56:41 GMT 45.088440 24.597734 34,000 298 440 64
2022-08-11 03:56:37 GMT 45.085190 24.606562 34,000 298 440 0
2022-08-11 03:56:34 GMT 45.081985 24.615326 34,000 298 440 0
2022-08-11 03:56:29 GMT 45.077591 24.627293 34,000 298 440 0
2022-08-11 03:56:27 GMT 45.075787 24.632286 33,975 298 440 0
2022-08-11 03:56:24 GMT 45.072006 24.642595 33,975 298 440 0
2022-08-11 03:56:21 GMT 45.069504 24.649368 33,975 298 440 0
2022-08-11 03:56:17 GMT 45.066284 24.658159 33,975 298 439 0
2022-08-11 03:56:10 GMT 45.059830 24.675751 33,975 298 439 0
2022-08-11 03:56:08 GMT 45.057350 24.682461 33,975 298 439 0
2022-08-11 03:56:05 GMT 45.055397 24.687820 33,975 298 439 0
2022-08-11 03:56:00 GMT 45.050228 24.701820 33,975 298 439 64
2022-08-11 03:55:56 GMT 45.046738 24.711327 33,975 298 439 0
2022-08-11 03:55:53 GMT 45.042919 24.721649 33,975 298 439 0
2022-08-11 03:55:50 GMT 45.040314 24.728750 33,975 298 439 0
2022-08-11 03:55:45 GMT 45.032501 24.749973 33,975 298 439 0
2022-08-11 03:55:41 GMT 45.032501 24.749973 33,975 298 439 0
2022-08-11 03:55:38 GMT 45.029572 24.757887 33,975 298 439 0
2022-08-11 03:55:35 GMT 45.026871 24.765211 33,975 298 439 0
2022-08-11 03:55:31 GMT 45.023277 24.775042 33,975 298 439 0
2022-08-11 03:55:26 GMT 45.017990 24.789408 33,975 298 439 -64
2022-08-11 03:55:20 GMT 45.013000 24.802877 33,975 298 439 -64
2022-08-11 03:55:17 GMT 45.009125 24.813358 33,975 298 439 0
2022-08-11 03:55:14 GMT 45.007446 24.817982 33,975 298 439 -64
2022-08-11 03:55:10 GMT 45.003586 24.828365 33,975 298 438 0
2022-08-11 03:55:07 GMT 45.000366 24.837080 33,975 298 438 0
2022-08-11 03:55:04 GMT 44.998093 24.843304 33,975 298 438 0
2022-08-11 03:55:01 GMT 44.994553 24.852840 33,975 298 438 0
2022-08-11 03:54:58 GMT 44.991760 24.860426 34,000 298 438 0
2022-08-11 03:54:54 GMT 44.988037 24.870434 33,975 298 438 0
2022-08-11 03:54:51 GMT 44.985058 24.878540 33,975 298 438 0
2022-08-11 03:54:48 GMT 44.982124 24.886377 33,975 298 438 0
2022-08-11 03:54:43 GMT 44.978447 24.896225 34,000 298 438 0
2022-08-11 03:54:40 GMT 44.975281 24.904867 34,000 298 439 0
2022-08-11 03:54:37 GMT 44.972809 24.911564 34,000 298 439 0
2022-08-11 03:54:35 GMT 44.969971 24.919216 34,000 298 439 0
2022-08-11 03:54:31 GMT 44.965549 24.931261 34,000 298 439 -64
2022-08-11 03:54:25 GMT 44.960815 24.944065 34,000 298 439 0
2022-08-11 03:54:22 GMT 44.957870 24.952095 34,000 298 439 0
2022-08-11 03:54:19 GMT 44.956009 24.957014 34,000 298 439 0
2022-08-11 03:54:17 GMT 44.953674 24.963358 34,000 298 439 0
2022-08-11 03:54:15 GMT 44.951797 24.968458 34,000 298 439 0
2022-08-11 03:54:12 GMT 44.949211 24.975407 34,000 298 440 0
2022-08-11 03:54:09 GMT 44.946510 24.982777 34,000 298 440 0
2022-08-11 03:54:06 GMT 44.943581 24.990681 34,000 298 440 0
2022-08-11 03:54:04 GMT 44.941299 24.996777 34,000 298 440 0
2022-08-11 03:53:59 GMT 44.936596 25.009438 34,000 298 440 0
2022-08-11 03:53:56 GMT 44.933212 25.018484 34,000 298 441 0
2022-08-11 03:53:53 GMT 44.930283 25.026333 34,000 298 441 0
2022-08-11 03:53:49 GMT 44.926727 25.035898 34,000 298 441 0
2022-08-11 03:53:46 GMT 44.924881 25.040850 34,000 298 441 0
2022-08-11 03:53:43 GMT 44.921860 25.049025 34,000 298 441 0
2022-08-11 03:53:40 GMT 44.918518 25.057919 34,000 298 442 0
2022-08-11 03:53:37 GMT 44.915134 25.066916 34,000 298 442 0
2022-08-11 03:53:33 GMT 44.911331 25.077274 34,000 298 442 0
2022-08-11 03:53:30 GMT 44.908401 25.085121 34,000 298 442 0
2022-08-11 03:53:25 GMT 44.904846 25.094715 34,000 298 441 0
2022-08-11 03:53:23 GMT 44.902473 25.101080 34,000 298 441 0
2022-08-11 03:53:20 GMT 44.899200 25.109840 34,000 298 440 0
2022-08-11 03:53:15 GMT 44.894558 25.122383 34,000 298 440 0
2022-08-11 03:53:13 GMT 44.893116 25.126202 34,000 298 440 0
2022-08-11 03:53:09 GMT 44.889771 25.135216 34,000 298 440 0
2022-08-11 03:53:05 GMT 44.886017 25.145351 34,000 298 440 -64
2022-08-11 03:53:03 GMT 44.883713 25.151524 34,000 298 440 -64
2022-08-11 03:52:59 GMT 44.880524 25.160000 34,000 298 440 0
2022-08-11 03:52:55 GMT 44.876450 25.171019 34,000 298 439 0
2022-08-11 03:52:53 GMT 44.874077 25.177382 34,000 298 439 0
2022-08-11 03:52:48 GMT 44.870399 25.187229 34,000 298 439 0
2022-08-11 03:52:45 GMT 44.867065 25.196228 34,000 298 439 0
2022-08-11 03:52:42 GMT 44.864578 25.202906 34,000 298 439 0
2022-08-11 03:52:38 GMT 44.860809 25.212954 34,000 298 439 0
2022-08-11 03:52:35 GMT 44.857086 25.222801 34,000 298 439 0
2022-08-11 03:52:33 GMT 44.854706 25.229252 34,000 298 439 0
2022-08-11 03:52:28 GMT 44.851273 25.238407 34,000 298 441 0
2022-08-11 03:52:25 GMT 44.847565 25.248217 34,000 298 441 0
2022-08-11 03:52:22 GMT 44.845215 25.254486 34,000 298 441 64
2022-08-11 03:52:19 GMT 44.841934 25.263191 34,000 298 442 64
2022-08-11 03:52:15 GMT 44.838043 25.273445 34,000 298 443 64
2022-08-11 03:52:12 GMT 44.835114 25.281240 33,975 298 444 64
2022-08-11 03:52:09 GMT 44.832272 25.288719 33,975 298 446 128
2022-08-11 03:52:02 GMT 44.825706 25.306135 33,975 298 446 192
2022-08-11 03:51:58 GMT 44.822296 25.315247 33,950 298 447 320
2022-08-11 03:51:55 GMT 44.818680 25.324825 33,925 298 448 512
2022-08-11 03:51:52 GMT 44.816071 25.331661 33,900 298 449 512
2022-08-11 03:51:49 GMT 44.812534 25.341105 33,850 298 448 512
2022-08-11 03:51:45 GMT 44.808701 25.351213 33,850 298 448 512
2022-08-11 03:51:42 GMT 44.805645 25.359325 33,825 298 448 512
2022-08-11 03:51:38 GMT 44.802155 25.368570 33,800 298 447 512
2022-08-11 03:51:33 GMT 44.798012 25.379623 33,775 298 446 512
2022-08-11 03:51:31 GMT 44.795681 25.385786 33,700 298 446 448
2022-08-11 03:51:28 GMT 44.792332 25.394764 33,725 298 446 448
2022-08-11 03:51:24 GMT 44.788330 25.405426 33,675 298 446 448
2022-08-11 03:51:21 GMT 44.786324 25.410641 33,650 298 445 448
2022-08-11 03:51:18 GMT 44.783661 25.417721 33,650 298 445 512
2022-08-11 03:51:16 GMT 44.781830 25.422560 33,625 298 445 448
2022-08-11 03:51:12 GMT 44.778458 25.431608 33,600 298 444 384
2022-08-11 03:51:10 GMT 44.775944 25.438240 33,575 298 444 576
2022-08-11 03:51:06 GMT 44.772312 25.447952 33,175 298 443 576
2022-08-11 03:51:01 GMT 44.765610 25.465773 33,450 298 443 960
2022-08-11 03:50:57 GMT 44.763611 25.470951 33,425 298 443 832
2022-08-11 03:50:55 GMT 44.760773 25.478603 33,400 298 443 640
2022-08-11 03:50:51 GMT 44.757019 25.488478 33,325 298 443 960
2022-08-11 03:50:46 GMT 44.753265 25.498417 33,275 298 443 1088
2022-08-11 03:50:43 GMT 44.749550 25.508177 33,200 298 443 1088
2022-08-11 03:50:41 GMT 44.746811 25.515421 33,175 298 443 1024
2022-08-11 03:50:38 GMT 44.744797 25.520782 33,125 299 445 960
2022-08-11 03:50:35 GMT 44.741730 25.528891 33,075 299 445 896
2022-08-11 03:50:32 GMT 44.738708 25.536804 33,050 299 445 896
2022-08-11 03:50:28 GMT 44.734955 25.546743 32,975 299 445 1088
2022-08-11 03:50:22 GMT 44.725342 25.571987 32,850 299 446 1216
2022-08-11 03:50:18 GMT 44.725342 25.571987 32,775 299 446 1216
2022-08-11 03:50:16 GMT 44.722458 25.579638 32,725 299 446 1088
2022-08-11 03:50:12 GMT 44.718594 25.589705 32,675 298 447 768
2022-08-11 03:50:08 GMT 44.715195 25.598680 32,625 299 446 448
2022-08-11 03:50:05 GMT 44.712662 25.605469 32,600 299 446 448
2022-08-11 03:50:01 GMT 44.708862 25.615410 32,550 299 445 576
2022-08-11 03:49:57 GMT 44.705292 25.624826 32,525 299 445 768
2022-08-11 03:49:50 GMT 44.697830 25.644444 32,375 298 444 768
2022-08-11 03:49:46 GMT 44.695221 25.651312 32,375 298 444 768
2022-08-11 03:49:42 GMT 44.690689 25.663279 32,300 298 444 768
2022-08-11 03:49:39 GMT 44.687897 25.670668 32,300 298 444 768
2022-08-11 03:49:36 GMT 44.685352 25.677393 32,250 299 444 832
2022-08-11 03:49:32 GMT 44.680840 25.689318 32,175 299 444 1024
2022-08-11 03:49:29 GMT 44.677811 25.697222 32,125 299 444 896
2022-08-11 03:49:26 GMT 44.675674 25.702908 32,100 299 444 896
2022-08-11 03:49:21 GMT 44.670967 25.715242 32,025 299 444 704
2022-08-11 03:49:19 GMT 44.668488 25.721741 32,000 299 444 576
2022-08-11 03:49:16 GMT 44.666035 25.728172 32,000 299 445 448
2022-08-11 03:49:12 GMT 44.660751 25.742079 31,975 299 445 64
2022-08-11 03:49:09 GMT 44.657959 25.749468 31,975 299 445 64
2022-08-11 03:49:06 GMT 44.656445 25.753361 31,975 299 445 64
2022-08-11 03:49:01 GMT 44.650810 25.768166 31,975 299 445 0
2022-08-11 03:48:57 GMT 44.646881 25.778439 31,975 299 445 0
2022-08-11 03:48:51 GMT 44.641083 25.793554 31,975 299 445 0
2022-08-11 03:48:47 GMT 44.637077 25.804005 31,975 299 445 0
2022-08-11 03:48:42 GMT 44.632370 25.816301 31,975 299 445 0
2022-08-11 03:48:39 GMT 44.630539 25.821140 31,950 299 445 0
2022-08-11 03:48:36 GMT 44.626740 25.831081 31,975 299 445 0
2022-08-11 03:48:34 GMT 44.623901 25.838406 31,950 299 445 0
2022-08-11 03:48:30 GMT 44.620926 25.846142 31,950 299 445 0
2022-08-11 03:48:28 GMT 44.618877 25.851500 31,950 299 445 64
2022-08-11 03:48:25 GMT 44.615936 25.859266 31,950 299 445 64
2022-08-11 03:48:23 GMT 44.613968 25.864302 31,950 299 446 -64
2022-08-11 03:48:20 GMT 44.610962 25.872066 31,950 299 446 0
2022-08-11 03:48:18 GMT 44.608170 25.879435 31,950 299 446 -64
2022-08-11 03:48:15 GMT 44.607193 25.881981 31,950 299 446 -64
2022-08-11 03:48:13 GMT 44.604164 25.889818 31,975 299 446 0
2022-08-11 03:48:08 GMT 44.599411 25.902164 31,975 299 446 -64
2022-08-11 03:48:06 GMT 44.597507 25.907103 31,975 299 446 0
2022-08-11 03:48:02 GMT 44.593597 25.917284 31,975 299 446 0
2022-08-11 03:47:59 GMT 44.590618 25.925188 31,975 299 446 0
2022-08-11 03:47:55 GMT 44.586639 25.935452 31,975 299 446 -64
2022-08-11 03:47:50 GMT 44.581730 25.948299 31,975 299 446 0
2022-08-11 03:47:47 GMT 44.578674 25.956312 31,975 299 446 0
2022-08-11 03:47:44 GMT 44.576653 25.961496 31,975 299 446 0
2022-08-11 03:47:41 GMT 44.573685 25.969259 31,975 299 446 -64
2022-08-11 03:47:38 GMT 44.571075 25.976128 31,975 299 446 -64
2022-08-11 03:47:36 GMT 44.568008 25.984039 31,975 299 446 -64
2022-08-11 03:47:33 GMT 44.564026 25.994436 31,975 299 446 -64
2022-08-11 03:47:30 GMT 44.561554 26.000780 32,000 299 447 -64
2022-08-11 03:47:25 GMT 44.557343 26.011766 32,000 299 447 -64
2022-08-11 03:47:22 GMT 44.554413 26.019419 32,000 299 447 -64
2022-08-11 03:47:19 GMT 44.551208 26.027788 32,000 299 447 -64
2022-08-11 03:47:16 GMT 44.548325 26.035177 32,000 299 447 -64
2022-08-11 03:47:12 GMT 44.544434 26.045315 32,000 299 447 0
2022-08-11 03:47:09 GMT 44.541412 26.053226 32,000 299 447 -64
2022-08-11 03:47:06 GMT 44.538345 26.061140 32,000 299 447 0
2022-08-11 03:47:01 GMT 44.532761 26.075657 32,000 299 448 0
2022-08-11 03:46:57 GMT 44.529694 26.083570 32,025 299 448 0
2022-08-11 03:46:55 GMT 44.528240 26.087303 32,000 299 448 0
2022-08-11 03:46:50 GMT 44.523026 26.100836 32,000 299 449 0
2022-08-11 03:46:46 GMT 44.517906 26.114100 32,000 299 450 0
2022-08-11 03:46:41 GMT 44.514042 26.124081 32,025 299 450 0
2022-08-11 03:46:38 GMT 44.511108 26.131718 32,000 299 450 0
2022-08-11 03:46:35 GMT 44.508221 26.139154 32,025 299 451 0
2022-08-11 03:46:32 GMT 44.504356 26.149136 32,025 299 451 0
2022-08-11 03:46:27 GMT 44.500580 26.158970 32,025 299 451 -64
2022-08-11 03:46:25 GMT 44.498260 26.165012 32,025 299 452 0
2022-08-11 03:46:21 GMT 44.494583 26.174524 32,025 299 451 0
2022-08-11 03:46:17 GMT 44.490555 26.184933 32,025 299 452 0
2022-08-11 03:46:14 GMT 44.487534 26.192583 32,025 299 452 0
2022-08-11 03:46:08 GMT 44.481079 26.209324 32,025 299 452 0
2022-08-11 03:46:05 GMT 44.477543 26.218470 32,025 299 452 0
2022-08-11 03:45:59 GMT 44.472565 26.231167 32,025 299 453 0
2022-08-11 03:45:56 GMT 44.469681 26.238621 32,025 299 453 64
2022-08-11 03:45:54 GMT 44.467209 26.244930 32,025 299 454 64
2022-08-11 03:45:50 GMT 44.463531 26.254444 32,025 299 454 64
2022-08-11 03:45:47 GMT 44.459995 26.263420 32,025 299 455 64
2022-08-11 03:45:44 GMT 44.457481 26.269918 32,000 299 455 64
2022-08-11 03:45:37 GMT 44.450226 26.288584 32,000 299 456 64
2022-08-11 03:45:34 GMT 44.447147 26.296446 32,000 299 456 64
2022-08-11 03:45:30 GMT 44.442261 26.308987 32,000 299 456 0
2022-08-11 03:45:27 GMT 44.440247 26.314219 32,000 299 456 0
2022-08-11 03:45:23 GMT 44.436218 26.324551 32,000 299 457 0
2022-08-11 03:45:16 GMT 44.429317 26.342266 32,000 299 457 0
2022-08-11 03:45:13 GMT 44.426239 26.350185 32,000 299 457 0
2022-08-11 03:45:09 GMT 44.421066 26.363396 32,000 299 457 -64
2022-08-11 03:45:05 GMT 44.417908 26.371437 32,000 299 457 -64
2022-08-11 03:45:03 GMT 44.415955 26.376499 32,000 299 457 0
2022-08-11 03:44:58 GMT 44.410721 26.389879 32,000 299 458 0
2022-08-11 03:44:55 GMT 44.407379 26.398445 32,000 299 458 -64
2022-08-11 03:44:52 GMT 44.405388 26.403496 32,000 299 458 -64
2022-08-11 03:44:47 GMT 44.398773 26.420485 32,000 299 458 0
2022-08-11 03:44:42 GMT 44.395432 26.429050 32,000 299 459 0
2022-08-11 03:44:39 GMT 44.391609 26.438801 32,000 299 459 0
2022-08-11 03:44:35 GMT 44.387787 26.448540 32,000 299 459 0
2022-08-11 03:44:33 GMT 44.385090 26.455414 32,000 299 459 -64
2022-08-11 03:44:28 GMT 44.379738 26.469213 32,025 299 459 -64
2022-08-11 03:44:24 GMT 44.375702 26.479469 32,025 299 460 -64
2022-08-11 03:44:21 GMT 44.372803 26.486832 32,025 299 460 0
2022-08-11 03:44:18 GMT 44.368881 26.496864 32,025 299 460 -64
2022-08-11 03:44:14 GMT 44.366776 26.502359 32,025 299 460 0
2022-08-11 03:44:12 GMT 44.364052 26.509207 32,025 299 460 0
2022-08-11 03:44:08 GMT 44.360367 26.518707 32,025 299 460 0
2022-08-11 03:44:04 GMT 44.356384 26.528843 32,025 299 459 0
2022-08-11 03:44:01 GMT 44.353390 26.536537 32,025 299 459 0
2022-08-11 03:43:54 GMT 44.343201 26.562391 32,025 299 460 0
2022-08-11 03:43:51 GMT 44.343201 26.562391 32,025 299 460 0
2022-08-11 03:43:47 GMT 44.338211 26.575077 32,025 299 460 0
2022-08-11 03:43:44 GMT 44.336060 26.580570 32,025 299 460 0
2022-08-11 03:43:42 GMT 44.332855 26.588614 32,025 299 460 0
2022-08-11 03:43:36 GMT 44.326763 26.604063 32,025 299 460 0
2022-08-11 03:43:33 GMT 44.324478 26.609934 32,025 299 460 0
2022-08-11 03:43:31 GMT 44.322418 26.615166 32,025 299 460 0
2022-08-11 03:43:26 GMT 44.317265 26.628313 32,025 299 460 0
2022-08-11 03:43:23 GMT 44.313904 26.636745 32,025 299 460 0
2022-08-11 03:43:20 GMT 44.311726 26.642382 32,025 299 460 0
2022-08-11 03:43:17 GMT 44.303905 26.662144 32,000 299 461 0
2022-08-11 03:43:13 GMT 44.303905 26.662144 32,000 299 461 0
2022-08-11 03:43:10 GMT 44.301178 26.669050 32,000 299 461 0
2022-08-11 03:43:03 GMT 44.293617 26.688204 32,000 299 462 0
2022-08-11 03:43:01 GMT 44.290638 26.695772 32,000 299 462 0
2022-08-11 03:42:52 GMT 44.283329 26.714262 32,000 299 461 0
2022-08-11 03:42:50 GMT 44.280163 26.722300 32,000 299 461 0
2022-08-11 03:42:42 GMT 44.272064 26.742750 32,000 299 462 0
2022-08-11 03:42:39 GMT 44.269035 26.750437 32,000 299 462 0
2022-08-11 03:42:32 GMT 44.259354 26.774954 32,000 299 462 0
2022-08-11 03:42:29 GMT 44.259354 26.774954 32,000 299 462 0
2022-08-11 03:42:22 GMT 44.251255 26.795521 32,000 299 462 0
2022-08-11 03:42:19 GMT 44.248718 26.801931 32,000 299 462 0
2022-08-11 03:42:13 GMT 44.241756 26.819504 32,000 299 462 0
2022-08-11 03:42:11 GMT 44.238739 26.827175 32,000 299 462 0
2022-08-11 03:42:08 GMT 44.236679 26.832340 32,000 299 462 0
2022-08-11 03:42:02 GMT 44.230270 26.848494 32,000 299 462 0
2022-08-11 03:41:58 GMT 44.227234 26.856213 32,000 299 462 0
2022-08-11 03:41:51 GMT 44.219414 26.875975 32,000 300 462 0
2022-08-11 03:41:48 GMT 44.216858 26.882301 32,000 300 461 0
2022-08-11 03:41:41 GMT 44.209778 26.900091 32,000 300 461 0
2022-08-11 03:41:38 GMT 44.206657 26.907862 32,000 300 461 0
2022-08-11 03:41:31 GMT 44.198730 26.927752 32,000 300 461 0
2022-08-11 03:41:29 GMT 44.195671 26.935394 32,000 300 461 0
2022-08-11 03:41:21 GMT 44.188129 26.954302 32,000 300 461 64
2022-08-11 03:41:18 GMT 44.185501 26.960960 32,000 300 461 64
2022-08-11 03:41:10 GMT 44.177261 26.981718 32,000 300 461 64
2022-08-11 03:41:08 GMT 44.174881 26.987659 32,000 300 461 64
2022-08-11 03:41:01 GMT 44.167191 27.006823 31,975 300 461 64
2022-08-11 03:40:57 GMT 44.164062 27.014727 31,975 300 461 64
2022-08-11 03:40:51 GMT 44.157761 27.030455 31,975 300 461 0
2022-08-11 03:40:48 GMT 44.153549 27.041058 31,975 300 461 -64
2022-08-11 03:40:40 GMT 44.145672 27.060635 31,975 300 461 0
2022-08-11 03:40:36 GMT 44.142242 27.069290 31,975 300 461 0
2022-08-11 03:40:30 GMT 44.135525 27.086006 32,000 300 461 0
2022-08-11 03:40:26 GMT 44.131989 27.094770 31,975 300 461 0
2022-08-11 03:40:21 GMT 44.126175 27.109404 31,975 300 461 64
2022-08-11 03:40:19 GMT 44.124771 27.112885 31,975 300 461 64
2022-08-11 03:40:16 GMT 44.121468 27.121124 31,975 300 461 64
2022-08-11 03:40:11 GMT 44.115509 27.135975 31,975 300 461 0
2022-08-11 03:40:07 GMT 44.110992 27.147217 31,975 300 461 0
2022-08-11 03:39:59 GMT 44.103928 27.164909 31,975 300 460 0
2022-08-11 03:39:55 GMT 44.100052 27.174618 31,975 300 460 0
2022-08-11 03:39:49 GMT 44.093399 27.191225 31,975 300 459 0
2022-08-11 03:39:46 GMT 44.089737 27.200232 31,975 300 459 0
2022-08-11 03:39:40 GMT 44.083420 27.215944 31,975 300 459 0
2022-08-11 03:39:36 GMT 44.079430 27.225821 31,975 300 459 0
2022-08-11 03:39:29 GMT 44.072166 27.243870 31,975 300 459 -64
2022-08-11 03:39:25 GMT 44.068954 27.251848 31,975 300 460 0
2022-08-11 03:39:19 GMT 44.058434 27.278072 31,975 300 459 0
2022-08-11 03:39:16 GMT 44.058434 27.278072 32,000 300 459 0
2022-08-11 03:39:08 GMT 44.050827 27.297001 32,000 300 459 0
2022-08-11 03:39:05 GMT 44.047623 27.304985 32,000 300 459 0
2022-08-11 03:38:58 GMT 44.040390 27.322933 31,975 300 459 0
2022-08-11 03:38:55 GMT 44.037022 27.331303 32,000 300 459 0
2022-08-11 03:38:47 GMT 44.028828 27.351576 32,000 300 460 -64
2022-08-11 03:38:44 GMT 44.026382 27.357681 32,000 300 460 -64
2022-08-11 03:38:38 GMT 44.019012 27.375950 32,000 300 460 -64
2022-08-11 03:38:35 GMT 44.015808 27.383869 32,000 300 459 -64
2022-08-11 03:38:27 GMT 44.008251 27.402517 32,000 301 460 -64
2022-08-11 03:38:24 GMT 44.005039 27.410170 32,025 301 460 -64
2022-08-11 03:38:19 GMT 43.999741 27.422386 32,025 302 459 -64
2022-08-11 03:38:16 GMT 43.996857 27.428902 32,025 302 460 0
2022-08-11 03:38:13 GMT 43.993332 27.436693 32,025 302 460 -64
2022-08-11 03:38:07 GMT 43.985550 27.453939 32,025 303 461 0
2022-08-11 03:38:04 GMT 43.982323 27.461046 32,025 303 461 0
2022-08-11 03:38:01 GMT 43.979061 27.468306 32,025 303 461 0
2022-08-11 03:37:56 GMT 43.973522 27.480534 32,025 303 461 0
2022-08-11 03:37:53 GMT 43.970856 27.486452 32,025 303 461 0
2022-08-11 03:37:47 GMT 43.963188 27.503292 32,025 303 461 0
2022-08-11 03:37:44 GMT 43.959274 27.511936 32,025 303 461 0
2022-08-11 03:37:36 GMT 43.950668 27.530972 32,025 303 462 0
2022-08-11 03:37:33 GMT 43.947315 27.538343 32,025 303 462 0
2022-08-11 03:37:26 GMT 43.938889 27.556915 32,025 303 462 0
2022-08-11 03:37:23 GMT 43.936066 27.563038 32,025 303 463 64
2022-08-11 03:37:15 GMT 43.927948 27.580980 32,025 303 463 0
2022-08-11 03:37:13 GMT 43.924549 27.588566 32,025 303 463 0
2022-08-11 03:37:05 GMT 43.912819 27.614464 32,025 303 463 0
2022-08-11 03:37:03 GMT 43.912819 27.614464 32,025 303 463 0
2022-08-11 03:36:55 GMT 43.903694 27.634539 32,025 303 464 0
2022-08-11 03:36:52 GMT 43.900452 27.641729 32,025 303 464 0
2022-08-11 03:36:48 GMT 43.894958 27.653738 32,025 303 464 0
2022-08-11 03:36:45 GMT 43.892616 27.658932 32,025 303 464 0
2022-08-11 03:36:42 GMT 43.889145 27.666576 32,025 303 464 0
2022-08-11 03:36:34 GMT 43.880356 27.685930 32,025 303 464 0
2022-08-11 03:36:31 GMT 43.877472 27.692190 32,025 303 464 0
2022-08-11 03:36:25 GMT 43.869991 27.708632 32,025 303 464 64
2022-08-11 03:36:22 GMT 43.866257 27.716782 32,025 303 464 64
2022-08-11 03:36:15 GMT 43.853760 27.744120 32,000 303 464 0
2022-08-11 03:36:12 GMT 43.853760 27.744120 32,000 303 465 0
2022-08-11 03:36:05 GMT 43.846855 27.759378 32,000 303 465 0
2022-08-11 03:36:01 GMT 43.842087 27.769796 32,000 303 464 0
2022-08-11 03:35:55 GMT 43.834984 27.785536 32,000 303 464 0
2022-08-11 03:35:50 GMT 43.830002 27.796432 32,000 303 464 0
2022-08-11 03:35:46 GMT 43.825562 27.806206 32,025 303 463 0
2022-08-11 03:35:43 GMT 43.822128 27.813742 32,025 303 463 0
2022-08-11 03:35:40 GMT 43.818420 27.821791 32,025 303 463 -64
2022-08-11 03:35:34 GMT 43.811554 27.836802 32,025 303 463 0
2022-08-11 03:35:31 GMT 43.807053 27.846680 32,025 303 463 0
2022-08-11 03:35:25 GMT 43.801254 27.859283 32,025 303 463 0
2022-08-11 03:35:22 GMT 43.797882 27.866690 32,025 303 463 0
2022-08-11 03:35:19 GMT 43.794575 27.873949 32,025 303 463 0
2022-08-11 03:35:13 GMT 43.787128 27.890167 32,025 303 463 64
2022-08-11 03:35:09 GMT 43.782986 27.899126 32,025 303 463 64
2022-08-11 03:35:03 GMT 43.776001 27.914364 32,000 303 463 64
2022-08-11 03:35:00 GMT 43.772369 27.922199 32,000 303 463 0
2022-08-11 03:34:54 GMT 43.765575 27.937056 32,000 303 463 0
2022-08-11 03:34:50 GMT 43.761612 27.945642 32,000 303 463 64
2022-08-11 03:34:44 GMT 43.754074 27.961971 32,000 303 463 64
2022-08-11 03:34:40 GMT 43.749115 27.972853 32,000 303 463 64
2022-08-11 03:34:34 GMT 43.742764 27.986691 32,000 303 463 0
2022-08-11 03:34:31 GMT 43.739552 27.993687 32,000 303 463 0
2022-08-11 03:34:28 GMT 43.736298 28.000830 32,000 303 463 0
2022-08-11 03:34:24 GMT 43.731125 28.012007 31,975 303 463 0
2022-08-11 03:34:21 GMT 43.727005 28.021013 32,000 303 463 0
2022-08-11 03:34:18 GMT 43.725212 28.024881 32,000 303 463 0
2022-08-11 03:34:12 GMT 43.717438 28.041819 31,975 303 462 64
2022-08-11 03:34:09 GMT 43.714050 28.049118 31,975 303 462 64
2022-08-11 03:34:05 GMT 43.708420 28.061317 31,975 303 462 64
2022-08-11 03:34:01 GMT 43.704918 28.068892 31,975 303 462 0
2022-08-11 03:33:58 GMT 43.701378 28.076609 31,975 303 461 -64
2022-08-11 03:33:53 GMT 43.695652 28.089033 31,975 303 461 -64
2022-08-11 03:33:50 GMT 43.689602 28.102177 31,975 303 461 -64
2022-08-11 03:33:42 GMT 43.683563 28.115227 31,975 303 461 0
2022-08-11 03:33:39 GMT 43.680130 28.122637 32,000 303 461 0
2022-08-11 03:33:35 GMT 43.675636 28.132456 32,000 303 461 0
2022-08-11 03:33:31 GMT 43.670288 28.143908 32,000 303 460 0
2022-08-11 03:33:27 GMT 43.666306 28.152594 32,000 303 460 0
2022-08-11 03:33:23 GMT 43.661762 28.162407 31,975 303 460 0
2022-08-11 03:33:20 GMT 43.658226 28.170057 32,000 303 459 0
2022-08-11 03:33:17 GMT 43.654827 28.177446 32,000 303 459 -64
2022-08-11 03:33:11 GMT 43.647518 28.193272 32,000 303 459 0
2022-08-11 03:33:08 GMT 43.643608 28.201708 32,000 303 459 -64
2022-08-11 03:33:02 GMT 43.637695 28.214525 32,000 303 459 -64
2022-08-11 03:33:00 GMT 43.634251 28.221914 32,000 303 459 -64
2022-08-11 03:32:56 GMT 43.626057 28.239702 32,000 303 459 -64
2022-08-11 03:32:52 GMT 43.626057 28.239702 32,000 303 459 -64
2022-08-11 03:32:50 GMT 43.623775 28.244673 32,000 303 459 -64
2022-08-11 03:32:46 GMT 43.619247 28.254410 32,000 303 459 -64
2022-08-11 03:32:42 GMT 43.612427 28.269163 32,000 303 459 0
2022-08-11 03:32:40 GMT 43.612427 28.269163 32,000 303 459 0
2022-08-11 03:32:36 GMT 43.607903 28.278938 32,000 303 459 0
2022-08-11 03:32:31 GMT 43.602409 28.290710 32,025 303 459 0
2022-08-11 03:32:29 GMT 43.599430 28.297119 32,000 303 459 0
2022-08-11 03:32:24 GMT 43.592819 28.311375 32,000 303 459 0
2022-08-11 03:32:21 GMT 43.590683 28.315920 32,000 303 459 0
2022-08-11 03:32:18 GMT 43.587185 28.323473 32,000 303 459 64
2022-08-11 03:32:14 GMT 43.582535 28.333422 32,000 303 459 64
2022-08-11 03:32:10 GMT 43.577316 28.344597 32,000 303 459 64
2022-08-11 03:32:06 GMT 43.573639 28.352444 32,000 303 459 64
2022-08-11 03:31:59 GMT 43.565495 28.369904 31,975 303 459 64
2022-08-11 03:31:54 GMT 43.559967 28.381838 31,975 303 459 64
2022-08-11 03:31:51 GMT 43.556396 28.389502 31,975 303 459 64
2022-08-11 03:31:46 GMT 43.549480 28.404367 31,975 303 460 128
2022-08-11 03:31:39 GMT 43.542892 28.418566 31,950 303 459 64
2022-08-11 03:31:37 GMT 43.540169 28.424377 31,950 303 460 64
2022-08-11 03:31:34 GMT 43.537331 28.430525 31,950 303 460 64
2022-08-11 03:31:30 GMT 43.532814 28.440071 31,950 303 460 0
2022-08-11 03:31:26 GMT 43.527466 28.451525 31,950 303 460 0
2022-08-11 03:31:23 GMT 43.524574 28.457794 31,950 303 460 0
2022-08-11 03:31:19 GMT 43.518265 28.471197 31,950 303 460 0
2022-08-11 03:31:15 GMT 43.508465 28.492191 31,950 303 460 0
2022-08-11 03:31:09 GMT 43.508465 28.492191 31,950 303 459 -64
2022-08-11 03:31:06 GMT 43.504486 28.500708 31,950 303 459 -64
2022-08-11 03:31:01 GMT 43.499451 28.511501 31,975 303 459 -64
2022-08-11 03:30:58 GMT 43.495945 28.519005 31,975 303 459 -64
2022-08-11 03:30:56 GMT 43.493042 28.525234 31,975 303 458 -64
2022-08-11 03:30:53 GMT 43.490158 28.531366 31,975 303 458 -64
2022-08-11 03:30:49 GMT 43.485516 28.541304 31,975 303 458 -64
2022-08-11 03:30:46 GMT 43.480637 28.551743 31,975 303 458 -64
2022-08-11 03:30:43 GMT 43.478485 28.556404 31,975 303 458 -64
2022-08-11 03:30:40 GMT 43.473694 28.566545 32,000 303 458 -64
2022-08-11 03:30:36 GMT 43.470619 28.573151 32,000 303 458 -64
2022-08-11 03:30:33 GMT 43.467033 28.580736 32,000 303 458 -64
2022-08-11 03:30:29 GMT 43.462418 28.590706 32,000 303 458 -64
2022-08-11 03:30:26 GMT 43.459492 28.596889 32,000 303 458 -64
2022-08-11 03:30:23 GMT 43.455780 28.604885 32,000 303 458 -64
2022-08-11 03:30:18 GMT 43.449921 28.617340 32,000 303 458 0
2022-08-11 03:30:16 GMT 43.447342 28.622850 32,000 303 458 0
2022-08-11 03:30:13 GMT 43.444595 28.628736 32,025 303 458 0
2022-08-11 03:30:07 GMT 43.435913 28.647169 32,025 303 459 -64
2022-08-11 03:30:02 GMT 43.431843 28.655874 32,025 303 459 -64
2022-08-11 03:29:59 GMT 43.426941 28.666267 32,025 303 459 -64
2022-08-11 03:29:55 GMT 43.423275 28.673988 32,025 303 459 -64
2022-08-11 03:29:52 GMT 43.419830 28.681314 32,025 303 459 -64
2022-08-11 03:29:46 GMT 43.412430 28.696943 32,025 303 459 -64
2022-08-11 03:29:41 GMT 43.407356 28.707733 32,025 304 460 -64
2022-08-11 03:29:38 GMT 43.403164 28.716560 32,050 304 460 -64
2022-08-11 03:29:35 GMT 43.400345 28.722542 32,050 304 460 -64
2022-08-11 03:29:31 GMT 43.395855 28.731995 32,050 303 460 0
2022-08-11 03:29:26 GMT 43.388535 28.747580 32,050 303 461 0
2022-08-11 03:29:23 GMT 43.379837 28.765976 32,050 303 462 0
2022-08-11 03:29:17 GMT 43.379837 28.765976 32,050 303 462 0
2022-08-11 03:29:15 GMT 43.376862 28.772211 32,050 304 462 0
2022-08-11 03:29:12 GMT 43.372814 28.780846 32,050 304 462 0
2022-08-11 03:29:06 GMT 43.365829 28.795559 32,050 304 462 64
2022-08-11 03:29:02 GMT 43.361732 28.804190 32,050 304 462 64
2022-08-11 03:28:58 GMT 43.357685 28.812757 32,050 303 463 64
2022-08-11 03:28:54 GMT 43.353195 28.822186 32,050 303 463 64
2022-08-11 03:28:51 GMT 43.349628 28.829695 32,050 303 463 0
2022-08-11 03:28:48 GMT 43.346100 28.837259 32,050 304 464 0
2022-08-11 03:28:45 GMT 43.341343 28.847219 32,050 304 464 0
2022-08-11 03:28:42 GMT 43.339096 28.852015 32,050 304 464 0
2022-08-11 03:28:39 GMT 43.335384 28.859776 32,050 304 464 0
2022-08-11 03:28:36 GMT 43.331131 28.868750 32,025 304 464 0
2022-08-11 03:28:33 GMT 43.327705 28.876059 32,025 304 464 0
2022-08-11 03:28:31 GMT 43.319511 28.893257 32,050 304 464 0
2022-08-11 03:28:26 GMT 43.319511 28.893257 32,050 304 464 0
2022-08-11 03:28:23 GMT 43.315933 28.900814 32,025 304 464 64
2022-08-11 03:28:21 GMT 43.309616 28.914099 32,025 304 464 64
2022-08-11 03:28:17 GMT 43.309616 28.914099 32,025 304 464 64
2022-08-11 03:28:14 GMT 43.303917 28.926022 32,025 304 464 64
2022-08-11 03:28:11 GMT 43.302109 28.929876 32,025 303 464 64
2022-08-11 03:28:03 GMT 43.293163 28.948713 32,025 303 464 128
2022-08-11 03:27:59 GMT 43.288422 28.958683 32,000 303 464 128
2022-08-11 03:27:55 GMT 43.283573 28.968920 32,000 304 464 64
2022-08-11 03:27:53 GMT 43.276871 28.982981 32,000 304 464 64
2022-08-11 03:27:50 GMT 43.276871 28.982981 32,000 304 464 64
2022-08-11 03:27:45 GMT 43.272125 28.992920 32,000 304 464 64
2022-08-11 03:27:43 GMT 43.269234 28.999002 32,000 304 464 64
2022-08-11 03:27:38 GMT 43.264023 29.009911 31,975 304 464 0
2022-08-11 03:27:35 GMT 43.258667 29.021105 32,000 304 464 0
2022-08-11 03:27:32 GMT 43.257038 29.024570 32,000 304 464 0
2022-08-11 03:27:29 GMT 43.253357 29.032330 31,975 304 464 0
2022-08-11 03:27:26 GMT 43.249969 29.039419 31,975 304 463 0
2022-08-11 03:27:22 GMT 43.245354 29.049158 31,975 304 463 0
2022-08-11 03:27:19 GMT 43.240997 29.058327 32,000 304 463 0
2022-08-11 03:27:14 GMT 43.235298 29.070282 31,975 304 462 0
2022-08-11 03:27:12 GMT 43.232273 29.076626 31,975 304 462 0
2022-08-11 03:27:09 GMT 43.228546 29.084473 31,975 304 462 0
2022-08-11 03:27:04 GMT 43.222183 29.097801 31,975 304 462 0
2022-08-11 03:27:01 GMT 43.220959 29.100365 32,000 304 460 0
2022-08-11 03:26:58 GMT 43.216396 29.109911 32,000 304 460 0
2022-08-11 03:26:52 GMT 43.209415 29.124559 31,975 304 460 0
2022-08-11 03:26:47 GMT 43.203690 29.136461 31,975 304 460 0
2022-08-11 03:26:43 GMT 43.193539 29.157715 31,975 304 460 0
2022-08-11 03:26:39 GMT 43.193539 29.157715 31,975 304 460 0
2022-08-11 03:26:35 GMT 43.185951 29.173475 31,975 304 460 64
2022-08-11 03:26:32 GMT 43.185951 29.173475 31,975 304 460 64
2022-08-11 03:26:28 GMT 43.181206 29.183479 31,975 304 460 64
2022-08-11 03:26:23 GMT 43.175339 29.195578 31,975 304 460 0
2022-08-11 03:26:20 GMT 43.173203 29.200064 31,975 304 459 0
2022-08-11 03:26:16 GMT 43.168304 29.210283 31,975 304 459 0
2022-08-11 03:26:11 GMT 43.161896 29.223633 31,975 304 459 0
2022-08-11 03:26:06 GMT 43.156906 29.234043 31,975 304 459 0
2022-08-11 03:26:00 GMT 43.148945 29.250641 31,975 304 458 0
2022-08-11 03:25:57 GMT 43.146194 29.256336 31,975 304 458 0
2022-08-11 03:25:54 GMT 43.142658 29.263720 31,975 300 288 0
2022-08-11 03:25:37 GMT 43.121796 29.307116 31,975 304 457 0
2022-08-11 03:25:33 GMT 43.118591 29.313887 31,975 304 457 0
2022-08-11 03:25:01 GMT 43.080463 29.393070 31,975 304 456 0
2022-08-11 03:24:59 GMT 43.076881 29.400526 31,975 304 456 0
2022-08-11 03:24:55 GMT 43.074142 29.406185 31,975 304 456 -64
2022-08-11 03:24:48 GMT 43.065197 29.424591 32,000 304 457 -64
2022-08-11 03:24:45 GMT 43.061783 29.431669 32,000 304 457 -64
2022-08-11 03:24:39 GMT 43.055561 29.444536 32,000 304 457 -64
2022-08-11 03:24:36 GMT 43.051575 29.452877 32,000 304 457 -64
2022-08-11 03:24:33 GMT 43.048019 29.460167 32,000 304 457 0
2022-08-11 03:24:31 GMT 43.045040 29.466444 32,000 304 457 0
2022-08-11 03:24:28 GMT 43.042053 29.472549 32,000 304 456 0
2022-08-11 03:24:24 GMT 43.036743 29.483664 32,000 304 456 0
2022-08-11 03:24:19 GMT 43.032074 29.493244 32,000 304 456 0
2022-08-11 03:24:12 GMT 43.024651 29.508493 32,000 304 456 0
2022-08-11 03:24:09 GMT 43.021065 29.515882 32,000 304 456 -64
2022-08-11 03:24:07 GMT 43.018456 29.521179 32,000 304 456 -64
2022-08-11 03:24:02 GMT 43.012711 29.533102 32,025 304 456 -64
2022-08-11 03:23:59 GMT 43.009613 29.539425 32,025 304 456 -64
2022-08-11 03:23:57 GMT 43.006073 29.546770 32,025 304 457 -64
2022-08-11 03:23:52 GMT 43.000999 29.557213 32,025 304 457 -64
2022-08-11 03:23:48 GMT 42.995361 29.568872 32,025 304 457 -64
2022-08-11 03:23:42 GMT 42.988758 29.582455 32,025 304 457 0
2022-08-11 03:23:39 GMT 42.985268 29.589647 32,025 304 457 0
2022-08-11 03:23:37 GMT 42.982544 29.595316 32,025 304 457 0
2022-08-11 03:23:30 GMT 42.974991 29.610966 32,025 304 457 0
2022-08-11 03:23:27 GMT 42.971100 29.618885 32,025 304 457 64
2022-08-11 03:23:23 GMT 42.965195 29.631149 32,025 304 459 64
2022-08-11 03:23:18 GMT 42.959988 29.641897 32,025 304 459 64
2022-08-11 03:23:13 GMT 42.954666 29.652802 32,025 304 459 0
2022-08-11 03:23:10 GMT 42.951328 29.659685 32,025 304 459 64
2022-08-11 03:23:07 GMT 42.944530 29.673679 32,000 304 459 0
2022-08-11 03:23:04 GMT 42.944530 29.673679 32,000 304 459 0
2022-08-11 03:23:00 GMT 42.939331 29.684420 32,025 304 459 0
2022-08-11 03:22:57 GMT 42.935211 29.692850 32,025 304 459 64
2022-08-11 03:22:50 GMT 42.927841 29.707989 32,000 304 459 64
2022-08-11 03:22:46 GMT 42.923950 29.715975 32,000 304 459 64
2022-08-11 03:22:43 GMT 42.919765 29.724558 32,000 304 459 64
2022-08-11 03:22:38 GMT 42.913834 29.736670 32,000 304 460 64
2022-08-11 03:22:36 GMT 42.911591 29.741268 32,000 304 460 0
2022-08-11 03:22:33 GMT 42.908066 29.748486 32,000 304 460 0
2022-08-11 03:22:30 GMT 42.904633 29.755512 32,000 304 460 0
2022-08-11 03:22:27 GMT 42.900494 29.764055 32,000 304 460 0
2022-08-11 03:22:25 GMT 42.898636 29.767775 32,000 304 460 0
2022-08-11 03:21:59 GMT 42.868240 29.829988 32,000 304 460 0
2022-08-11 03:21:55 GMT 42.862881 29.840895 32,000 304 460 0
2022-08-11 03:21:48 GMT 42.855652 29.855730 32,000 304 460 0
2022-08-11 03:21:45 GMT 42.851101 29.864960 32,000 304 460 0
2022-08-11 03:21:34 GMT 42.838764 29.890268 32,000 304 460 0
2022-08-11 03:21:29 GMT 42.832340 29.903215 32,000 304 460 0
2022-08-11 03:21:22 GMT 42.824242 29.919827 32,000 304 460 0
2022-08-11 03:21:19 GMT 42.820190 29.927999 32,000 304 460 0
2022-08-11 03:21:14 GMT 42.814793 29.939117 32,000 304 460 0
2022-08-11 03:21:06 GMT 42.806580 29.955847 32,000 304 460 0
2022-08-11 03:21:02 GMT 42.799576 29.970016 32,000 304 459 0
2022-08-11 03:20:57 GMT 42.794998 29.979380 32,000 304 459 0
2022-08-11 03:20:54 GMT 42.790443 29.988651 32,000 304 459 0
2022-08-11 03:20:48 GMT 42.784580 30.000660 32,000 304 459 0
2022-08-11 03:20:42 GMT 42.777191 30.015585 32,000 304 458 0
2022-08-11 03:20:37 GMT 42.771561 30.027069 32,000 304 458 0
2022-08-11 03:20:31 GMT 42.764889 30.040581 32,000 304 458 0
2022-08-11 03:20:27 GMT 42.759720 30.051121 32,000 304 458 0
2022-08-11 03:20:24 GMT 42.756275 30.058083 32,000 304 458 0
2022-08-11 03:20:22 GMT 42.753948 30.062809 32,025 304 458 -64
2022-08-11 03:20:17 GMT 42.747337 30.076223 32,025 304 458 0
2022-08-11 03:20:12 GMT 42.740891 30.089243 32,000 304 459 0
2022-08-11 03:20:07 GMT 42.735809 30.099480 32,000 304 459 0
2022-08-11 03:20:05 GMT 42.733429 30.104286 32,000 304 461 0
2022-08-11 03:20:02 GMT 42.729973 30.111355 32,000 304 461 0
2022-08-11 03:19:58 GMT 42.724640 30.122015 32,000 304 462 0
2022-08-11 03:19:52 GMT 42.717865 30.135748 32,000 304 464 -64
2022-08-11 03:19:47 GMT 42.711910 30.147697 32,025 304 465 -128
2022-08-11 03:19:45 GMT 42.709770 30.152105 32,025 304 467 -64
2022-08-11 03:19:42 GMT 42.705067 30.161558 32,025 304 467 0
2022-08-11 03:19:37 GMT 42.700504 30.170820 32,025 304 467 64
2022-08-11 03:19:35 GMT 42.697620 30.176634 32,025 304 467 64
2022-08-11 03:19:30 GMT 42.692081 30.187876 32,000 304 467 64
2022-08-11 03:19:24 GMT 42.684082 30.204039 32,000 304 468 64
2022-08-11 03:19:21 GMT 42.680767 30.210743 32,000 304 468 64
2022-08-11 03:19:16 GMT 42.673462 30.225512 32,000 304 467 64
2022-08-11 03:19:11 GMT 42.668339 30.235844 32,000 304 467 64
2022-08-11 03:19:07 GMT 42.664032 30.244425 32,000 305 467 64
2022-08-11 03:19:00 GMT 42.654968 30.262651 31,975 304 466 64
2022-08-11 03:18:56 GMT 42.651905 30.268867 31,975 304 467 0
2022-08-11 03:18:47 GMT 42.640221 30.292374 31,975 304 467 64
2022-08-11 03:18:40 GMT 42.631256 30.310469 31,975 304 466 0
2022-08-11 03:18:37 GMT 42.628025 30.316900 31,975 304 466 0
2022-08-11 03:18:29 GMT 42.618526 30.335999 31,975 304 466 0
2022-08-11 03:18:26 GMT 42.614868 30.343365 31,975 304 466 0
2022-08-11 03:18:21 GMT 42.608734 30.355724 31,975 304 466 0
2022-08-11 03:18:18 GMT 42.605347 30.362467 31,975 304 464 -64
2022-08-11 03:18:15 GMT 42.601814 30.369659 31,975 304 465 -64
2022-08-11 03:18:07 GMT 42.591389 30.390675 31,975 305 464 0
2022-08-11 03:18:00 GMT 42.583511 30.406473 31,975 305 465 0
2022-08-11 03:17:57 GMT 42.579704 30.414053 31,975 305 464 0
2022-08-11 03:17:49 GMT 42.569134 30.435514 31,975 303 463 -64
2022-08-11 03:17:46 GMT 42.566895 30.440306 31,975 302 463 -64
2022-08-11 03:17:40 GMT 42.560104 30.455252 31,975 301 461 0
2022-08-11 03:17:37 GMT 42.555962 30.464705 32,000 300 461 -64
2022-08-11 03:17:29 GMT 42.548325 30.483356 32,000 298 459 -64
2022-08-11 03:17:26 GMT 42.545471 30.490557 32,000 298 459 -64
2022-08-11 03:17:21 GMT 42.540646 30.503475 32,000 296 457 -64
2022-08-11 03:17:16 GMT 42.536407 30.515356 32,000 295 457 0
2022-08-11 03:17:08 GMT 42.528351 30.539806 32,000 293 456 0
2022-08-11 03:17:04 GMT 42.526337 30.546362 32,000 293 456 -64
2022-08-11 03:16:56 GMT 42.519608 30.568521 32,025 293 456 -64
2022-08-11 03:16:49 GMT 42.514023 30.587000 32,025 293 456 0
2022-08-11 03:16:42 GMT 42.508617 30.604780 32,025 293 456 0
2022-08-11 03:16:39 GMT 42.505920 30.613590 32,025 293 456 0
2022-08-11 03:16:35 GMT 42.502808 30.623890 32,025 293 456 0
2022-08-11 03:16:29 GMT 42.497772 30.640495 32,025 293 456 0
2022-08-11 03:16:26 GMT 42.495392 30.648422 32,025 293 456 0
2022-08-11 03:16:16 GMT 42.487381 30.674828 32,025 293 456 0
2022-08-11 03:16:08 GMT 42.481018 30.695677 32,025 293 456 0
2022-08-11 03:16:05 GMT 42.479095 30.701981 32,025 293 456 0
2022-08-11 03:15:58 GMT 42.472916 30.722267 32,025 293 456 0
2022-08-11 03:15:55 GMT 42.470165 30.731379 32,025 293 456 0
2022-08-11 03:15:47 GMT 42.464355 30.750483 32,025 293 456 0
2022-08-11 03:15:44 GMT 42.461926 30.758526 32,025 293 456 0
2022-08-11 03:15:37 GMT 42.456478 30.776730 32,025 293 456 0
2022-08-11 03:15:34 GMT 42.451675 30.792681 32,025 293 456 0
2022-08-11 03:15:25 GMT 42.446285 30.810518 32,025 293 456 -64
2022-08-11 03:15:14 GMT 42.438091 30.837345 32,025 293 456 0
2022-08-11 03:15:12 GMT 42.436462 30.842648 32,025 293 455 0
2022-08-11 03:15:05 GMT 42.430481 30.862219 32,025 293 456 64
2022-08-11 03:15:01 GMT 42.427616 30.871517 32,025 293 455 64
2022-08-11 03:14:57 GMT 42.423985 30.883335 32,025 293 456 64
2022-08-11 03:14:53 GMT 42.421333 30.892086 32,025 293 455 0
2022-08-11 03:14:44 GMT 42.413361 30.918524 32,025 293 455 128
2022-08-11 03:14:36 GMT 42.407505 30.937883 32,000 293 456 64
2022-08-11 03:14:31 GMT 42.403976 30.949299 32,000 293 456 64
2022-08-11 03:14:29 GMT 42.401642 30.957109 32,000 293 456 64
2022-08-11 03:14:25 GMT 42.398438 30.967463 32,000 293 456 64
2022-08-11 03:14:22 GMT 42.395874 30.975889 32,000 293 455 64
2022-08-11 03:14:15 GMT 42.390656 30.992815 31,975 293 456 64
2022-08-11 03:14:09 GMT 42.386124 31.007414 31,975 293 456 0
2022-08-11 03:14:04 GMT 42.382133 31.020346 31,975 293 455 64
2022-08-11 03:14:00 GMT 42.378132 31.033247 31,975 293 455 64
2022-08-11 03:13:53 GMT 42.373306 31.049110 31,975 293 455 0
2022-08-11 03:13:51 GMT 42.371613 31.054604 31,975 293 454 0
2022-08-11 03:13:45 GMT 42.366447 31.071508 31,975 293 454 0
2022-08-11 03:13:42 GMT 42.363464 31.081322 31,975 293 453 0
2022-08-11 03:13:35 GMT 42.358299 31.098143 31,975 293 453 0
2022-08-11 03:13:28 GMT 42.352982 31.115528 31,975 293 453 0
2022-08-11 03:13:24 GMT 42.349457 31.126886 31,975 293 452 -64
2022-08-11 03:13:19 GMT 42.345154 31.140808 31,975 293 451 -64
2022-08-11 03:13:14 GMT 42.341766 31.151733 31,975 293 451 -64
2022-08-11 03:13:05 GMT 42.333710 31.177765 31,975 293 451 0
2022-08-11 03:12:54 GMT 42.325249 31.204878 31,975 293 451 0
2022-08-11 03:12:48 GMT 42.320827 31.219120 31,975 293 451 0
2022-08-11 03:12:45 GMT 42.317753 31.228956 31,975 293 451 0
2022-08-11 03:12:35 GMT 42.309513 31.255402 31,975 293 450 0
2022-08-11 03:12:33 GMT 42.308815 31.257700 31,975 293 450 0
2022-08-11 03:12:23 GMT 42.301025 31.282759 31,975 293 450 0
2022-08-11 03:12:19 GMT 42.297131 31.295322 31,975 293 450 0
2022-08-11 03:12:12 GMT 42.291733 31.312782 31,975 293 450 0
2022-08-11 03:12:08 GMT 42.288116 31.324394 31,975 293 450 -64
2022-08-11 03:12:04 GMT 42.284912 31.334757 31,975 293 450 -64
2022-08-11 03:12:02 GMT 42.283722 31.338688 31,975 293 450 0
2022-08-11 03:11:57 GMT 42.279346 31.352745 32,000 293 449 0
2022-08-11 03:11:52 GMT 42.275764 31.364433 32,000 293 449 0
2022-08-11 03:11:46 GMT 42.269665 31.384043 32,000 293 450 0
2022-08-11 03:11:41 GMT 42.266876 31.392933 32,000 293 450 0
2022-08-11 03:11:37 GMT 42.263168 31.404856 32,000 293 450 0
2022-08-11 03:11:32 GMT 42.259415 31.416716 32,000 293 450 0
2022-08-11 03:11:27 GMT 42.255066 31.430635 32,000 293 450 0
2022-08-11 03:11:23 GMT 42.251816 31.440935 32,000 293 450 0
2022-08-11 03:11:20 GMT 42.250031 31.446615 32,000 293 450 0
2022-08-11 03:11:14 GMT 42.244537 31.464220 32,000 293 450 0
2022-08-11 03:11:10 GMT 42.241425 31.474270 32,000 293 450 0
2022-08-11 03:11:02 GMT 42.234879 31.495180 32,000 293 450 0
2022-08-11 03:11:00 GMT 42.234051 31.497868 32,000 293 450 0
2022-08-11 03:10:53 GMT 42.227417 31.519215 32,000 293 450 0
2022-08-11 03:10:51 GMT 42.226231 31.522968 32,000 293 450 0
2022-08-11 03:10:47 GMT 42.222794 31.533882 32,000 293 450 0
2022-08-11 03:10:40 GMT 42.217529 31.550737 32,000 293 450 0
2022-08-11 03:10:33 GMT 42.211845 31.568958 32,000 293 451 0
2022-08-11 03:10:30 GMT 42.209152 31.577578 32,025 293 451 0
2022-08-11 03:10:26 GMT 42.205811 31.588190 32,000 293 451 0
2022-08-11 03:10:22 GMT 42.202724 31.598148 32,000 293 451 64
2022-08-11 03:10:20 GMT 42.201553 31.601860 32,000 293 451 64
2022-08-11 03:10:13 GMT 42.195236 31.622023 32,000 293 451 64
2022-08-11 03:10:10 GMT 42.192856 31.629639 32,000 293 451 64
2022-08-11 03:09:59 GMT 42.184616 31.655918 32,000 293 451 0
2022-08-11 03:09:52 GMT 42.178436 31.675581 32,000 293 451 0
2022-08-11 03:09:49 GMT 42.176422 31.681889 32,000 293 451 0
2022-08-11 03:09:44 GMT 42.172073 31.695744 32,000 293 451 0
2022-08-11 03:09:41 GMT 42.169647 31.703484 32,000 293 451 0
2022-08-11 03:09:39 GMT 42.167908 31.708916 32,000 293 451 0
2022-08-11 03:09:29 GMT 42.159668 31.735069 32,000 294 452 0
2022-08-11 03:09:19 GMT 42.151470 31.760963 32,000 294 451 64
2022-08-11 03:09:13 GMT 42.146393 31.776997 32,000 294 452 0
2022-08-11 03:09:08 GMT 42.142319 31.789751 32,000 294 452 -64
2022-08-11 03:09:04 GMT 42.139271 31.799480 32,000 294 452 0
2022-08-11 03:08:58 GMT 42.134537 31.814346 32,000 294 452 0
2022-08-11 03:08:53 GMT 42.130142 31.828266 32,000 294 452 -64
2022-08-11 03:08:48 GMT 42.126331 31.840296 32,000 294 452 -64
2022-08-11 03:08:41 GMT 42.120255 31.859352 32,000 294 452 -64
2022-08-11 03:08:38 GMT 42.117783 31.867092 32,000 294 452 -64
2022-08-11 03:08:31 GMT 42.112244 31.884695 32,025 294 451 -64
2022-08-11 03:08:27 GMT 42.109291 31.893950 32,025 294 451 -64
2022-08-11 03:08:19 GMT 42.102264 31.916157 32,025 294 451 0
2022-08-11 03:08:17 GMT 42.100662 31.921087 32,025 294 451 0
2022-08-11 03:08:09 GMT 42.094490 31.940641 32,000 294 452 64
2022-08-11 03:08:07 GMT 42.092812 31.945814 32,025 294 452 64
2022-08-11 03:08:01 GMT 42.087505 31.962549 32,000 293 451 0
2022-08-11 03:07:56 GMT 42.083782 31.974430 32,000 293 451 0
2022-08-11 03:07:50 GMT 42.078918 31.989815 32,000 293 452 0
2022-08-11 03:07:46 GMT 42.075577 32.000427 32,000 293 452 0
2022-08-11 03:07:40 GMT 42.070747 32.015820 32,000 293 452 0
2022-08-11 03:07:36 GMT 42.067612 32.025833 32,000 293 453 -64
2022-08-11 03:07:31 GMT 42.062622 32.041565 32,000 293 453 0
2022-08-11 03:07:26 GMT 42.059296 32.052101 32,025 294 453 0
2022-08-11 03:07:19 GMT 42.054153 32.068218 32,000 294 453 0
2022-08-11 03:07:16 GMT 42.050812 32.078579 32,025 294 453 0
2022-08-11 03:07:10 GMT 42.046005 32.093559 32,000 290 451 64
2022-08-11 03:07:06 GMT 42.042675 32.104351 32,000 290 451 64
2022-08-11 03:07:00 GMT 42.038441 32.120384 32,000 287 448 0
2022-08-11 03:06:50 GMT 42.033005 32.147243 32,000 279 441 -64
2022-08-11 03:06:45 GMT 42.031178 32.160370 32,000 279 441 -64
2022-08-11 03:06:39 GMT 42.029480 32.177082 32,025 275 438 -64
2022-08-11 03:06:34 GMT 42.028664 32.190262 32,025 274 437 -64
2022-08-11 03:06:29 GMT 42.028290 32.203922 32,025 270 435 0
2022-08-11 03:06:24 GMT 42.028290 32.216705 32,025 268 434 -64
2022-08-11 03:06:19 GMT 42.028755 32.230438 32,025 266 433 0
2022-08-11 03:06:15 GMT 42.029453 32.243595 32,025 266 433 0
2022-08-11 03:06:09 GMT 42.030201 32.257263 32,025 266 433 0
2022-08-11 03:06:04 GMT 42.030945 32.270359 32,025 266 433 0
2022-08-11 03:05:54 GMT 42.032574 32.299038 32,000 266 433 0
2022-08-11 03:05:52 GMT 42.032715 32.301975 32,000 266 433 64
2022-08-11 03:05:45 GMT 42.033691 32.319412 32,000 266 433 64
2022-08-11 03:05:43 GMT 42.034111 32.326378 32,000 266 433 64
2022-08-11 03:05:39 GMT 42.034763 32.338192 31,975 266 433 128
2022-08-11 03:05:33 GMT 42.035599 32.352947 31,975 266 433 128
2022-08-11 03:05:28 GMT 42.036346 32.366043 31,975 266 433 128
2022-08-11 03:05:22 GMT 42.037323 32.382393 31,975 266 433 128
2022-08-11 03:05:18 GMT 42.037949 32.393250 31,975 266 433 64
2022-08-11 03:05:12 GMT 42.038864 32.409920 31,975 266 433 64
2022-08-11 03:05:08 GMT 42.039463 32.420910 31,975 266 433 -64
2022-08-11 03:05:02 GMT 42.040329 32.436321 31,975 266 433 -64
2022-08-11 03:04:59 GMT 42.040859 32.446075 31,950 266 433 0
2022-08-11 03:04:52 GMT 42.041794 32.462353 31,950 266 433 -64
2022-08-11 03:04:46 GMT 42.042725 32.479099 31,975 266 433 -64
2022-08-11 03:04:41 GMT 42.043468 32.492191 31,975 266 433 -64
2022-08-11 03:04:35 GMT 42.044495 32.509232 31,975 266 432 0
2022-08-11 03:04:31 GMT 42.045143 32.520298 31,975 266 432 0
2022-08-11 03:04:22 GMT 42.046509 32.544003 31,975 266 432 -64
2022-08-11 03:04:18 GMT 42.047150 32.554737 31,975 266 432 -64
2022-08-11 03:04:08 GMT 42.048679 32.581360 32,000 266 432 -64
2022-08-11 03:04:01 GMT 42.049751 32.599819 32,000 266 432 -64
2022-08-11 03:03:56 GMT 42.050495 32.612915 32,000 266 432 -64
2022-08-11 03:03:51 GMT 42.051270 32.625587 32,000 266 432 -64
2022-08-11 03:03:47 GMT 42.052032 32.638847 32,000 266 432 0
2022-08-11 03:03:41 GMT 42.052872 32.652771 32,000 266 432 0
2022-08-11 03:03:36 GMT 42.053848 32.668804 32,000 266 432 0
2022-08-11 03:03:30 GMT 42.054642 32.682156 32,000 266 432 0
2022-08-11 03:03:27 GMT 42.055153 32.690140 32,000 266 432 0
2022-08-11 03:03:19 GMT 42.056442 32.711105 32,000 266 432 0
2022-08-11 03:03:16 GMT 42.056919 32.719330 32,000 266 434 0
2022-08-11 03:03:09 GMT 42.058090 32.738445 32,000 266 434 0
2022-08-11 03:03:02 GMT 42.059063 32.757652 32,000 267 434 0
2022-08-11 03:02:56 GMT 42.059555 32.773716 32,000 269 436 0
2022-08-11 03:02:46 GMT 42.059692 32.800804 32,000 272 439 0
2022-08-11 03:02:37 GMT 42.059296 32.824848 32,000 272 438 0
2022-08-11 03:02:28 GMT 42.058777 32.849995 32,000 272 438 0
2022-08-11 03:02:19 GMT 42.058224 32.874352 32,000 272 438 0
2022-08-11 03:02:09 GMT 42.057632 32.901367 32,000 272 439 0
2022-08-11 03:01:55 GMT 42.056763 32.939510 32,000 272 439 64
2022-08-11 03:01:47 GMT 42.056129 32.968246 32,000 272 439 0
2022-08-11 03:01:36 GMT 42.055618 32.992882 32,000 272 439 0
2022-08-11 03:01:33 GMT 42.055431 33.001141 32,000 272 439 -64
2022-08-11 03:01:27 GMT 42.055103 33.017239 32,000 272 439 -64
2022-08-11 03:00:55 GMT 42.053604 33.102554 32,025 272 438 0
2022-08-11 03:00:47 GMT 42.053291 33.123905 32,025 272 438 64
2022-08-11 03:00:37 GMT 42.052685 33.151115 32,025 274 439 64
2022-08-11 03:00:16 GMT 42.041199 33.238323 32,000 285 448 64
2022-08-11 03:00:05 GMT 42.041199 33.238323 32,000 285 448 0
2022-08-11 02:59:55 GMT 42.036205 33.264877 31,975 285 448 -64
2022-08-11 02:59:45 GMT 42.030579 33.294380 32,025 285 448 -64
2022-08-11 02:59:40 GMT 42.028610 33.304867 32,025 285 447 0
2022-08-11 02:59:36 GMT 42.026150 33.317699 32,025 285 447 0
2022-08-11 02:59:26 GMT 42.020920 33.345005 32,025 285 448 0
2022-08-11 02:59:19 GMT 42.016846 33.366291 32,000 285 448 0
2022-08-11 02:59:14 GMT 42.014694 33.377586 32,025 285 447 0
We lost coverage of the aircraft here for a total of 57 minutes
2022-08-11 02:01:54 GMT 40.036228 42.313217 20,550 265 434 832
2022-08-11 02:01:48 GMT 40.037292 42.328979 20,475 265 435 768
2022-08-11 02:01:35 GMT 40.039627 42.362671 20,275 265 435 768
2022-08-11 02:00:48 GMT 40.047680 42.485943 19,775 266 432 448
2022-08-11 02:00:41 GMT 40.048828 42.504211 19,700 266 431 512
2022-08-11 02:00:28 GMT 40.050938 42.537441 19,575 266 430 640
2022-08-11 02:00:18 GMT 40.052490 42.562866 19,500 266 429 576
2022-08-11 02:00:12 GMT 40.053452 42.578449 19,425 266 428 768
2022-08-11 02:00:03 GMT 40.054871 42.601440 19,325 266 428 704
2022-08-11 01:59:53 GMT 40.056526 42.628826 19,200 266 427 832
2022-08-11 01:59:36 GMT 40.059040 42.670338 18,975 266 426 768
2022-08-11 01:59:32 GMT 40.059677 42.680664 18,950 266 425 576
2022-08-11 01:59:24 GMT 40.061039 42.703297 18,850 266 424 704
2022-08-11 01:58:57 GMT 40.065044 42.770336 18,450 266 424 1088
2022-08-11 01:58:49 GMT 40.066406 42.793152 18,300 266 424 704
2022-08-11 01:58:43 GMT 40.067322 42.808167 18,225 266 424 640
2022-08-11 01:58:12 GMT 40.071888 42.884384 17,725 266 424 1024
2022-08-11 01:58:02 GMT 40.073471 42.910103 17,575 266 424 640
2022-08-11 01:57:51 GMT 40.075100 42.937569 17,500 266 421 320
2022-08-11 01:57:43 GMT 40.076405 42.959789 17,450 266 418 448
2022-08-11 01:57:32 GMT 40.077892 42.985382 17,375 266 415 448
2022-08-11 01:57:19 GMT 40.079941 43.019714 17,250 266 412 448
2022-08-11 01:57:12 GMT 40.080826 43.034760 17,225 266 409 448
2022-08-11 01:57:02 GMT 40.082245 43.059631 17,150 266 405 448
2022-08-11 01:56:52 GMT 40.083664 43.083923 17,075 266 402 384
2022-08-11 01:56:41 GMT 40.085220 43.110840 17,000 266 398 448
2022-08-11 01:56:31 GMT 40.086594 43.134644 16,925 266 394 512
2022-08-11 01:56:22 GMT 40.087784 43.155640 16,850 266 390 448
2022-08-11 01:56:12 GMT 40.089066 43.178711 16,750 266 386 512
2022-08-11 01:56:01 GMT 40.090668 43.206421 16,650 266 382 448
2022-08-11 01:55:52 GMT 40.091717 43.224773 16,575 266 377 576
2022-08-11 01:55:25 GMT 40.095348 43.286694 16,400 263 300 512
2022-08-11 01:54:17 GMT 40.103119 43.428589 15,700 266 331 704
2022-08-11 01:54:10 GMT 40.103867 43.442627 15,625 266 327 704
2022-08-11 01:54:02 GMT 40.104706 43.457920 15,525 267 323 704
2022-08-11 01:53:52 GMT 40.105728 43.477333 15,400 267 318 704
2022-08-11 01:53:27 GMT 40.108150 43.523525 15,175 262 250 768
2022-08-11 01:53:21 GMT 40.108749 43.534973 15,050 267 302 768
2022-08-11 01:53:12 GMT 40.109665 43.552185 14,925 266 297 832
2022-08-11 01:53:02 GMT 40.110626 43.569641 14,775 266 292 768
2022-08-11 01:52:51 GMT 40.111633 43.588379 14,650 266 286 832
2022-08-11 01:52:41 GMT 40.112576 43.605984 14,500 266 282 896
2022-08-11 01:52:31 GMT 40.113510 43.622742 14,375 266 276 704
2022-08-11 01:52:06 GMT 40.115692 43.663662 14,100 262 216 1280
2022-08-11 01:51:44 GMT 40.117538 43.700562 13,675 263 215 1344
2022-08-11 01:51:27 GMT 40.118729 43.725769 13,200 263 216 1408
2022-08-11 01:50:42 GMT 40.122299 43.798462 12,400 263 214 1024
2022-08-11 01:50:40 GMT 40.122444 43.801556 12,225 267 265 1344
2022-08-11 01:50:30 GMT 40.123215 43.817993 11,950 267 267 1792
2022-08-11 01:50:14 GMT 40.124496 43.845276 11,675 262 218 1344
2022-08-11 01:50:11 GMT 40.124725 43.850056 11,475 267 268 1152
2022-08-11 01:48:22 GMT 40.132545 44.022217 9,175 262 215 1280
2022-08-11 01:48:19 GMT 40.132778 44.026649 8,975 267 261 1088
2022-08-11 01:48:15 GMT 40.133198 44.034824 8,875 267 260 1472
2022-08-11 01:48:09 GMT 40.133568 44.042629 8,750 267 260 1472
2022-08-11 01:48:05 GMT 40.133896 44.050182 8,650 267 259 1280
2022-08-11 01:48:00 GMT 40.134220 44.057674 8,550 267 258 1216
2022-08-11 01:47:49 GMT 40.134918 44.073963 8,350 267 255 1088
2022-08-11 01:47:39 GMT 40.135666 44.088947 8,150 267 252 1280
2022-08-11 01:47:36 GMT 40.135986 44.096436 8,050 267 250 1600
2022-08-11 01:47:29 GMT 40.136353 44.104736 7,925 267 250 1536
2022-08-11 01:47:24 GMT 40.136719 44.113037 7,775 267 250 1536
2022-08-11 01:47:20 GMT 40.137039 44.119202 7,650 267 250 1536
2022-08-11 01:47:10 GMT 40.137756 44.134327 7,375 267 250 1856
2022-08-11 01:47:05 GMT 40.138130 44.142441 7,200 267 251 2048
2022-08-11 01:46:59 GMT 40.138550 44.150372 7,025 267 253 2112
2022-08-11 01:46:55 GMT 40.138870 44.157898 6,850 267 255 2112
2022-08-11 01:46:50 GMT 40.139236 44.164856 6,700 267 257 2240
2022-08-11 01:46:43 GMT 40.139740 44.174927 6,450 267 259 1984
2022-08-11 01:46:40 GMT 40.139969 44.180237 6,350 267 260 1920
2022-08-11 01:46:30 GMT 40.140739 44.196125 6,075 267 259 1472
2022-08-11 01:46:20 GMT 40.141479 44.211975 5,875 267 254 256
2022-08-11 01:46:10 GMT 40.142090 44.227024 5,775 267 246 704
2022-08-11 01:46:00 GMT 40.142807 44.241516 5,650 267 239 704
2022-08-11 01:45:49 GMT 40.143482 44.256111 5,525 268 233 576
2022-08-11 01:45:39 GMT 40.143902 44.270283 5,425 268 225 896
2022-08-11 01:45:29 GMT 40.144417 44.283329 5,275 267 219 896
2022-08-11 01:45:19 GMT 40.144974 44.297001 5,125 267 213 832
2022-08-11 01:45:09 GMT 40.145580 44.309673 4,975 267 208 704
2022-08-11 01:44:59 GMT 40.146149 44.322266 4,825 267 204 960
2022-08-11 01:44:49 GMT 40.146698 44.334839 4,625 267 204 1152

Making use of Plane Finder data

You are free to use the raw flight data, aircraft information and images provided in this report for your own purposes provided the data is correctly attributed to Plane Finder. We ask that you please credit Plane Finder and link to planefinder.net in close proximity to the content.

Optionally one of the following logos (no smaller then 150x24px) can be used and must link to planefinder.net

Embedding the Plane Finder map

You are welcome to embed the Plane Finder playback map on your website to offer visitors a more interactive experience. We suggest using the following HTML code:

<iframe src="//planefinder.net/data/report/DE847-D-AIAD-7700-squawk-2022-08-11/map" width="800" height="600" seamless="seamless"></iframe>

Where our data comes from

Plane Finder has a global network of data feeds and antenna radars that receive data broadcast directly from aircraft. The primary technologies used are ADS-B and MLAT. We also show feeds from the FAA and a FLARM glider feed.

Click here to find out more about the Plane Finder network.

How we collect our data